Provisional Data: Snake Creek near Lawsville Center, PA


Please select a monitoring station.
Please select start date.
Please select start date.

Toggle Unit: C/F Toggle Unit: C/F
Sample Time Temperature (C) Temperature (F) Specific Conductivity (mS/cm) pH   Turbidity (NTU+) DO (mg/L)
8/9/2021 12:00:00 AM 21.17 70.106 0.12 7.03 2.78 6.74
8/9/2021 12:15:00 AM 21.08 69.944 0.12 7.04 2.56 6.73
8/9/2021 12:30:00 AM 20.99 69.782 0.12 7.05 3.02 6.72
8/9/2021 12:45:00 AM 20.88 69.584 0.12 7.05 2.73 6.77
8/9/2021 1:00:00 AM 20.8 69.44 0.12 7.04 2.79 6.75
8/9/2021 1:15:00 AM 20.71 69.278 0.12 7.04 2.73 6.76
8/9/2021 1:30:00 AM 20.63 69.134 0.12 7.04 2.75 6.77
8/9/2021 1:45:00 AM 20.52 68.936 0.12 6.99 2.88 6.82
8/9/2021 2:00:00 AM 20.46 68.828 0.12 7.03 3 6.83
8/9/2021 2:15:00 AM 20.38 68.684 0.12 7.01 2.69 6.84
8/9/2021 2:30:00 AM 20.3 68.54 0.12 7.03 3.01 6.86
8/9/2021 2:45:00 AM 20.21 68.378 0.12 7.04 2.92 6.88
8/9/2021 3:00:00 AM 20.15 68.27 0.12 7.02 2.99 6.88
8/9/2021 3:15:00 AM 20.06 68.108 0.12 7.04 2.82 6.94
8/9/2021 3:30:00 AM 20 68 0.12 7.04 2.8 6.95
8/9/2021 3:45:00 AM 19.93 67.874 0.12 6.99 2.84 6.95
8/9/2021 4:00:00 AM 19.88 67.784 0.12 7.03 2.96 6.97
8/9/2021 4:15:00 AM 19.8 67.64 0.12 7.05 2.84 7
8/9/2021 4:30:00 AM 19.74 67.532 0.12 7.04 2.69 7.02
8/9/2021 4:45:00 AM 19.68 67.424 0.12 7.05 2.96 7.04
8/9/2021 5:00:00 AM 19.61 67.298 0.12 7.05 3.14 7.04
8/9/2021 5:15:00 AM 19.56 67.208 0.121 7.04 3.04 7.07
8/9/2021 5:30:00 AM 19.49 67.082 0.121 7.04 2.86 7.11
8/9/2021 5:45:00 AM 19.44 66.992 0.121 7.04 3.03 7.12
8/9/2021 6:00:00 AM 19.39 66.902 0.121 7.04 2.92 7.13
8/9/2021 6:15:00 AM 19.33 66.794 0.121 7.05 2.93 7.13
8/9/2021 6:30:00 AM 19.28 66.704 0.121 7.04 3.03 7.17
8/9/2021 6:45:00 AM 19.23 66.614 0.121 7.05 2.94 7.19
8/9/2021 7:00:00 AM 19.19 66.542 0.121 7.05 2.98 7.22
8/9/2021 7:15:00 AM 19.15 66.47 0.121 7.06 3.52 7.27
8/9/2021 7:30:00 AM 19.11 66.398 0.121 7.06 2.98 7.32
8/9/2021 7:45:00 AM 19.09 66.362 0.121 7.07 2.92 7.42
8/9/2021 8:00:00 AM 19.07 66.326 0.121 7.07 2.87 7.59
8/9/2021 8:15:00 AM 19.06 66.308 0.121 7.09 2.88 7.64
8/9/2021 8:30:00 AM 19.06 66.308 0.121 7.1 2.81 7.84
8/9/2021 8:45:00 AM 19.08 66.344 0.121 7.12 2.7 8
8/9/2021 9:00:00 AM 19.12 66.416 0.121 7.13 2.73 8.09
8/9/2021 9:15:00 AM 19.16 66.488 0.121 7.16 2.75 8.19
8/9/2021 9:30:00 AM 19.21 66.578 0.121 7.18 2.72 8.31
8/9/2021 9:45:00 AM 19.28 66.704 0.121 7.18 2.64 8.45
8/9/2021 10:00:00 AM 19.37 66.866 0.121 7.2 2.67 8.58
8/9/2021 10:15:00 AM 19.49 67.082 0.121 7.23 2.53 8.69
8/9/2021 10:30:00 AM 19.66 67.388 0.121 7.25 2.63 8.82
8/9/2021 10:45:00 AM 19.84 67.712 0.12 7.27 2.81 8.96
8/9/2021 11:00:00 AM 20.01 68.018 0.12 7.28 2.68 9.02
8/9/2021 11:15:00 AM 20.15 68.27 0.12 7.28 2.51 9.13
8/9/2021 11:30:00 AM 20.31 68.558 0.12 7.31 2.7 9.17
8/9/2021 11:45:00 AM 20.52 68.936 0.12 7.35 2.74 9.27
8/9/2021 12:00:00 PM 20.76 69.368 0.12 7.37 2.53 9.4
8/9/2021 12:15:00 PM 20.96 69.728 0.119 7.39 2.63 9.44
8/9/2021 12:30:00 PM 21.11 69.998 0.119 7.41 2.66 9.45
8/9/2021 12:45:00 PM 21.33 70.394 0.119 7.42 2.5 9.48
8/9/2021 1:00:00 PM 21.52 70.736 0.119 7.4 2.55 9.48
8/9/2021 1:15:00 PM 21.74 71.132 0.119 7.46 2.49 9.52
8/9/2021 1:30:00 PM 21.95 71.51 0.119 7.47 2.44 9.54
8/9/2021 1:45:00 PM 22.23 72.014 0.119 7.5 2.56 9.57
8/9/2021 2:00:00 PM 22.46 72.42799 0.119 7.5 2.56 9.55
8/9/2021 2:15:00 PM 22.74 72.932 0.118 7.52 2.56 9.5
8/9/2021 2:30:00 PM 23.04 73.472 0.118 7.56 2.4 9.53
8/9/2021 2:45:00 PM 23.34 74.012 0.118 7.57 2.47 9.54
8/9/2021 3:00:00 PM 23.62 74.516 0.118 7.6 2.38 9.48
8/9/2021 3:15:00 PM 23.87 74.966 0.118 7.62 2.44 9.47
8/9/2021 3:30:00 PM 24.04 75.272 0.118 7.64 2.46 9.41
8/9/2021 3:45:00 PM 24.19 75.542 0.118 7.64 2.37 9.37
8/9/2021 4:00:00 PM 24.3 75.74 0.118 7.6 2.54 9.29
8/9/2021 4:15:00 PM 24.43 75.974 0.118 7.66 2.42 9.2
8/9/2021 4:30:00 PM 24.51 76.118 0.118 7.65 2.54 9.17
8/9/2021 4:45:00 PM 24.54 76.172 0.118 7.65 2.43 9.07
8/9/2021 5:00:00 PM 24.56 76.208 0.118 7.64 2.67 8.96
8/9/2021 5:15:00 PM 24.56 76.208 0.118 7.63 2.42 8.86
8/9/2021 5:30:00 PM 24.56 76.208 0.118 7.61 2.5 8.75
8/9/2021 5:45:00 PM 24.54 76.172 0.119 7.59 2.49 8.62
8/9/2021 6:00:00 PM 24.53 76.154 0.119 7.57 2.56 8.55
8/9/2021 6:15:00 PM 24.46 76.028 0.119 7.54 2.79 8.41
8/9/2021 6:30:00 PM 24.39 75.902 0.119 7.51 2.65 8.34
8/9/2021 6:45:00 PM 24.3 75.74 0.12 7.47 3.03 8.22
8/9/2021 7:00:00 PM 24.19 75.542 0.12 7.43 2.59 8.09
8/9/2021 7:15:00 PM 24.07 75.326 0.12 7.39 2.59 7.95
8/9/2021 7:30:00 PM 23.95 75.11 0.121 7.37 2.76 7.88
8/9/2021 7:45:00 PM 23.82 74.876 0.121 7.33 2.94 7.73
8/9/2021 8:00:00 PM 23.66 74.588 0.122 7.3 2.63 7.61
8/9/2021 8:15:00 PM 23.51 74.318 0.122 7.28 2.74 7.49
8/9/2021 8:30:00 PM 23.37 74.066 0.123 7.25 2.97 7.34
8/9/2021 8:45:00 PM 23.22 73.796 0.123 7.18 2.7 7.2
8/9/2021 9:00:00 PM 23.09 73.562 0.123 7.19 2.66 7.06
8/9/2021 9:15:00 PM 22.97 73.346 0.124 7.16 2.92 6.96
8/9/2021 9:30:00 PM 22.86 73.148 0.124 7.15 2.74 6.81
8/9/2021 9:45:00 PM 22.76 72.968 0.124 7.13 2.92 6.71
8/9/2021 10:00:00 PM 22.66 72.788 0.125 7.12 2.79 6.65
8/9/2021 10:15:00 PM 22.56 72.608 0.125 7.1 2.78 6.58
8/9/2021 10:30:00 PM 22.47 72.446 0.125 7.1 3.46 6.6
8/9/2021 10:45:00 PM 22.38 72.284 0.125 7.07 2.76 6.58
8/9/2021 11:00:00 PM 22.26 72.068 0.125 7.08 2.75 6.55
8/9/2021 11:15:00 PM 22.18 71.924 0.126 7.07 2.86 6.54
8/9/2021 11:30:00 PM 22.09 71.762 0.126 7.03 2.8 6.53
8/9/2021 11:45:00 PM 22.01 71.618 0.126 7.05 2.97 6.53
8/10/2021 12:00:00 AM 21.91 71.438 0.126 7.05 2.82 6.49
8/10/2021 12:15:00 AM 21.82 71.276 0.126 7.05 2.82 6.53
8/10/2021 12:30:00 AM 21.73 71.114 0.127 7.05 2.81 6.57
8/10/2021 12:45:00 AM 21.65 70.97 0.127 7.05 3 6.56
8/10/2021 1:00:00 AM 21.56 70.808 0.127 7.02 2.66 6.58
8/10/2021 1:15:00 AM 21.49 70.682 0.127 7.04 3.02 6.57
8/10/2021 1:30:00 AM 21.41 70.538 0.127 7.04 2.64 6.59
8/10/2021 1:45:00 AM 21.34 70.412 0.127 7.03 3.05 6.58
8/10/2021 2:00:00 AM 21.26 70.268 0.128 7.03 3.14 6.56
8/10/2021 2:15:00 AM 21.2 70.16 0.128 7.03 5.05 6.56
8/10/2021 2:30:00 AM 21.12 70.016 0.128 7.03 7.55 6.6
8/10/2021 2:45:00 AM 21.05 69.89 0.128 7.02 3.13 6.62
8/10/2021 3:00:00 AM 20.99 69.782 0.128 7.01 14.32 6.58
8/10/2021 3:15:00 AM 20.93 69.674 0.128 7.01 3.72 6.67
8/10/2021 3:30:00 AM 20.87 69.566 0.129 7.02 3.41 6.65
8/10/2021 3:45:00 AM 20.81 69.458 0.129 7.01 2.87 6.68
8/10/2021 4:00:00 AM 20.78 69.404 0.129 7.01 3.12 6.65
8/10/2021 4:15:00 AM 20.73 69.314 0.129 7.02 4.7 6.69
8/10/2021 4:30:00 AM 20.7 69.26 0.129 7.01 3.01 6.68
8/10/2021 4:45:00 AM 20.66 69.188 0.13 7.02 2.93 6.72
8/10/2021 5:00:00 AM 20.63 69.134 0.13 7.02 2.88 6.72
8/10/2021 5:15:00 AM 20.6 69.08 0.13 7.02 3.27 6.74
8/10/2021 5:30:00 AM 20.58 69.044 0.13 7.02 11.15 6.65
8/10/2021 5:45:00 AM 20.56 69.008 0.13 7 4.87 6.68
8/10/2021 6:00:00 AM 20.52 68.936 0.13 7.02 5.48 6.72
8/10/2021 6:15:00 AM 20.51 68.918 0.13 7.01 6.19 6.7
8/10/2021 6:30:00 AM 20.48 68.864 0.131 7.02 4.23 6.75
8/10/2021 6:45:00 AM 20.47 68.846 0.131 7.01 3.61 6.73
8/10/2021 7:00:00 AM 20.45 68.81 0.131 7 2.9 6.74
8/10/2021 7:15:00 AM 20.43 68.774 0.131 7.01 3.03 6.8
8/10/2021 7:30:00 AM 20.43 68.774 0.131 7.01 3.04 6.75
8/10/2021 7:45:00 AM 20.43 68.774 0.131 7.02 2.91 6.83
8/10/2021 8:00:00 AM 20.43 68.774 0.131 7.01 2.88 6.84
8/10/2021 8:15:00 AM 20.43 68.774 0.132 7.02 3.1 6.96
8/10/2021 8:30:00 AM 20.45 68.81 0.132 7.03 3.72 6.96
8/10/2021 8:45:00 AM 20.48 68.864 0.132 7.05 2.9 7.15
8/10/2021 9:00:00 AM 20.51 68.918 0.132 7.06 3.79 7.17
8/10/2021 9:15:00 AM 20.55 68.99 0.132 7.09 2.89 7.39
8/10/2021 9:30:00 AM 20.62 69.116 0.132 7.09 2.77 7.61
8/10/2021 9:45:00 AM 20.68 69.224 0.132 7.11 2.6 7.7
8/10/2021 10:00:00 AM 20.73 69.314 0.132 7.14 2.69 7.82
8/10/2021 10:15:00 AM 20.8 69.44 0.132 7.14 3.36 7.93
8/10/2021 10:30:00 AM 20.87 69.566 0.132 7.16 2.92 8.07
8/10/2021 10:45:00 AM 20.95 69.71 0.132 7.18 2.71 8.2
8/10/2021 11:00:00 AM 21.05 69.89 0.132 7.2 2.65 8.33
8/10/2021 11:15:00 AM 21.12 70.016 0.132 7.2 2.67 8.37
8/10/2021 11:30:00 AM 21.19 70.142 0.132 7.23 3.26 8.5
8/10/2021 11:45:00 AM 21.25 70.25 0.132 7.24 2.81 8.56
8/10/2021 12:00:00 PM 21.32 70.376 0.132 7.25 2.63 8.59
8/10/2021 12:15:00 PM 21.42 70.556 0.131 7.27 2.52 8.72
8/10/2021 12:30:00 PM 21.53 70.754 0.131 7.29 2.74 8.79
8/10/2021 12:45:00 PM 21.7 71.06 0.131 7.29 2.59 8.86
8/10/2021 1:00:00 PM 21.87 71.366 0.131 7.32 2.53 8.94
8/10/2021 1:15:00 PM 22.03 71.654 0.131 7.32 5.43 8.98
8/10/2021 1:30:00 PM 22.18 71.924 0.131 7.34 4.11 9.02
8/10/2021 1:45:00 PM 22.37 72.266 0.131 7.36 3.36 9.09
8/10/2021 2:00:00 PM 22.52 72.536 0.131 7.37 2.77 9.11
8/10/2021 2:15:00 PM 22.62 72.716 0.131 7.39 2.42 9.16
8/10/2021 2:30:00 PM 22.8 73.04 0.131 7.4 2.43 9.2
8/10/2021 2:45:00 PM 22.93 73.274 0.131 7.42 9.04 9.16
8/10/2021 3:00:00 PM 23.01 73.418 0.131 7.43 2.82 9.15
8/10/2021 3:15:00 PM 23.14 73.652 0.131 7.44 2.79 9.19
8/10/2021 3:30:00 PM 23.26 73.868 0.131 7.44 3.96 9.08
8/10/2021 3:45:00 PM 23.39 74.102 0.131 7.45 2.94 9.1
8/10/2021 4:00:00 PM 23.46 74.228 0.131 7.46 2.7 9.05
8/10/2021 4:15:00 PM 23.56 74.408 0.131 7.46 3.16 9.05
8/10/2021 4:30:00 PM 23.62 74.516 0.13 7.46 2.86 9.01
8/10/2021 4:45:00 PM 23.7 74.66 0.131 7.46 2.48 8.97
8/10/2021 5:00:00 PM 23.75 74.75 0.131 7.46 2.42 8.92
8/10/2021 5:15:00 PM 23.76 74.768 0.131 7.46 2.44 8.84
8/10/2021 5:30:00 PM 23.8 74.84 0.131 7.45 8.72 8.79
8/10/2021 5:45:00 PM 23.82 74.876 0.131 7.45 2.86 8.76
8/10/2021 6:00:00 PM 23.8 74.84 0.131 7.44 3.08 8.68
8/10/2021 6:15:00 PM 23.81 74.858 0.131 7.44 2.81 8.64
8/10/2021 6:30:00 PM 23.8 74.84 0.131 7.43 2.89 8.55
8/10/2021 6:45:00 PM 23.75 74.75 0.131 7.41 2.8 8.41
8/10/2021 7:00:00 PM 23.67 74.606 0.131 7.39 2.57 8.31
8/10/2021 7:15:00 PM 23.6 74.48 0.131 7.36 2.73 8.25
8/10/2021 7:30:00 PM 23.52 74.336 0.132 7.33 3.74 8.14
8/10/2021 7:45:00 PM 23.43 74.174 0.132 7.32 2.89 8
8/10/2021 8:00:00 PM 23.34 74.012 0.132 7.29 4.53 7.86
8/10/2021 8:15:00 PM 23.24 73.832 0.133 7.27 3.02 7.72
8/10/2021 8:30:00 PM 23.15 73.67 0.133 7.24 3.17 7.56
8/10/2021 8:45:00 PM 23.04 73.472 0.133 7.21 2.68 7.42
8/10/2021 9:00:00 PM 22.95 73.31 0.133 7.18 2.79 7.28
8/10/2021 9:15:00 PM 22.85 73.13 0.134 7.15 3.11 7.14
8/10/2021 9:30:00 PM 22.76 72.968 0.134 7.14 3.44 7
8/10/2021 9:45:00 PM 22.66 72.788 0.134 7.12 2.78 6.88
8/10/2021 10:00:00 PM 22.57 72.626 0.135 7.1 2.67 6.8
8/10/2021 10:15:00 PM 22.49 72.482 0.135 7.08 2.8 6.66
8/10/2021 10:30:00 PM 22.41 72.338 0.135 7.08 2.68 6.67
8/10/2021 10:45:00 PM 22.34 72.212 0.135 7.07 2.79 6.63
8/10/2021 11:00:00 PM 22.26 72.068 0.135 7.06 2.77 6.61
8/10/2021 11:15:00 PM 22.21 71.978 0.135 7.05 2.66 6.54
8/10/2021 11:30:00 PM 22.14 71.852 0.136 7.05 2.73 6.54
8/10/2021 11:45:00 PM 22.08 71.744 0.136 7.05 2.9 6.53
8/11/2021 12:00:00 AM 22.03 71.654 0.136 7.04 2.86 6.49
8/11/2021 12:15:00 AM 21.97 71.546 0.136 7.03 2.89 6.5
8/11/2021 12:30:00 AM 21.91 71.438 0.136 7.04 2.95 6.49
8/11/2021 12:45:00 AM 21.85 71.33 0.136 7.03 3.61 6.43
8/11/2021 1:00:00 AM 21.8 71.24 0.136 7.03 2.93 6.5
8/11/2021 1:15:00 AM 21.75 71.15 0.136 7.03 2.92 6.51
8/11/2021 1:30:00 AM 21.7 71.06 0.136 7.03 2.8 6.47
8/11/2021 1:45:00 AM 21.64 70.952 0.136 7.03 3.37 6.49
8/11/2021 2:00:00 AM 21.59 70.862 0.136 7.03 3.07 6.45
8/11/2021 2:15:00 AM 21.54 70.772 0.136 7.02 2.81 6.5
8/11/2021 2:30:00 AM 21.49 70.682 0.136 7.02 2.93 6.51
8/11/2021 2:45:00 AM 21.44 70.592 0.136 7.02 2.87 6.52
8/11/2021 3:00:00 AM 21.4 70.52 0.136 7.02 2.83 6.53
8/11/2021 3:15:00 AM 21.35 70.43 0.136 7.02 2.88 6.54
8/11/2021 3:30:00 AM 21.31 70.358 0.136 7.02 2.83 6.55
8/11/2021 3:45:00 AM 21.27 70.286 0.137 7.02 3.04 6.54
8/11/2021 4:00:00 AM 21.22 70.196 0.137 7.01 3.22 6.56
8/11/2021 4:15:00 AM 21.19 70.142 0.137 7 3.06 6.55
8/11/2021 4:30:00 AM 21.14 70.052 0.137 7.02 3.13 6.57
8/11/2021 4:45:00 AM 21.09 69.962 0.137 7.02 3.13 6.59
8/11/2021 5:00:00 AM 21.07 69.926 0.137 7.02 2.92 6.57
8/11/2021 5:15:00 AM 21.03 69.854 0.137 7.01 3.26 6.59
8/11/2021 5:30:00 AM 21 69.8 0.137 7.02 4.59 6.58
8/11/2021 5:45:00 AM 20.96 69.728 0.137 7.02 3.33 6.57
8/11/2021 6:00:00 AM 20.92 69.656 0.137 7.02 3.24 6.6
8/11/2021 6:15:00 AM 20.89 69.602 0.137 7.01 3.55 6.55
8/11/2021 6:30:00 AM 20.85 69.53 0.137 7.01 3.1 6.57
8/11/2021 6:45:00 AM 20.83 69.494 0.137 7.02 3.05 6.59
8/11/2021 7:00:00 AM 20.8 69.44 0.137 7.01 3.13 6.64
8/11/2021 7:15:00 AM 20.79 69.422 0.137 7.02 3.03 6.66
8/11/2021 7:30:00 AM 20.76 69.368 0.137 7.01 2.98 6.73
8/11/2021 7:45:00 AM 20.75 69.35 0.137 7.03 3.15 6.79
8/11/2021 8:00:00 AM 20.75 69.35 0.137 7.04 3.19 6.85
8/11/2021 8:15:00 AM 20.77 69.386 0.137 7.05 3.2 6.88
8/11/2021 8:30:00 AM 20.79 69.422 0.137 7.04 2.89 7.06
8/11/2021 8:45:00 AM 20.83 69.494 0.137 7.08 2.97 7.2
8/11/2021 9:00:00 AM 20.88 69.584 0.137 7.08 3.21 7.34
8/11/2021 9:15:00 AM 20.94 69.692 0.137 7.1 2.73 7.45
8/11/2021 9:30:00 AM 21.02 69.836 0.137 7.12 2.73 7.62
8/11/2021 9:45:00 AM 21.07 69.926 0.137 7.11 2.84 7.74
8/11/2021 10:00:00 AM 21.19 70.142 0.137 7.14 2.79 7.89
8/11/2021 10:15:00 AM 21.33 70.394 0.137 7.16 3.14 8.07
8/11/2021 10:30:00 AM 21.4 70.52 0.136 7.15 2.8 8.19
8/11/2021 10:45:00 AM 21.44 70.592 0.136 7.15 2.73 8.13
8/11/2021 11:00:00 AM 21.53 70.754 0.136 7.19 2.72 8.31
8/11/2021 11:15:00 AM 21.68 71.024 0.136 7.21 2.82 8.41
8/11/2021 11:30:00 AM 21.81 71.258 0.136 7.24 2.8 8.57
8/11/2021 11:45:00 AM 21.89 71.402 0.136 7.24 2.68 8.56
8/11/2021 12:00:00 PM 22 71.6 0.136 7.23 2.55 8.64
8/11/2021 12:15:00 PM 22.08 71.744 0.136 7.27 2.71 8.69
8/11/2021 12:30:00 PM 22.15 71.87 0.136 7.24 2.63 8.73
8/11/2021 12:45:00 PM 22.22 71.996 0.135 7.28 2.53 8.7
8/11/2021 1:00:00 PM 22.37 72.266 0.135 7.27 2.53 8.75
8/11/2021 1:15:00 PM 22.56 72.608 0.135 7.31 2.5 8.88
8/11/2021 1:30:00 PM 22.72 72.896 0.135 7.32 2.58 8.88
8/11/2021 1:45:00 PM 22.89 73.202 0.135 7.34 2.48 8.96
8/11/2021 2:00:00 PM 23 73.4 0.135 7.32 2.51 8.97
8/11/2021 2:15:00 PM 23.1 73.58 0.135 7.35 2.53 8.96
8/11/2021 2:30:00 PM 23.29 73.922 0.135 7.35 2.54 8.95
8/11/2021 2:45:00 PM 23.39 74.102 0.135 7.37 2.62 8.95
8/11/2021 3:00:00 PM 23.48 74.264 0.134 7.38 2.52 8.98
8/11/2021 3:15:00 PM 23.6 74.48 0.134 7.38 2.29 8.84
8/11/2021 3:30:00 PM 23.68 74.624 0.134 7.38 2.5 8.89
8/11/2021 3:45:00 PM 23.83 74.894 0.134 7.4 2.49 8.94
8/11/2021 4:00:00 PM 23.88 74.984 0.134 7.38 2.53 8.94
8/11/2021 4:15:00 PM 23.96 75.128 0.134 7.42 2.55 8.96
8/11/2021 4:30:00 PM 24.02 75.236 0.134 7.41 2.46 8.87
8/11/2021 4:45:00 PM 24.05 75.29 0.134 7.42 2.55 8.84
8/11/2021 5:00:00 PM 24.06 75.308 0.134 7.4 2.43 8.78
8/11/2021 5:15:00 PM 24.1 75.38 0.134 7.4 2.99 8.76
8/11/2021 5:30:00 PM 24.13 75.434 0.134 7.4 2.63 8.75
8/11/2021 5:45:00 PM 24.19 75.542 0.134 7.38 2.75 8.73
8/11/2021 6:00:00 PM 24.23 75.614 0.134 7.4 2.63 8.61
8/11/2021 6:15:00 PM 24.25 75.65 0.134 7.39 2.52 8.58
8/11/2021 6:30:00 PM 24.24 75.632 0.134 7.37 2.52 8.49
8/11/2021 6:45:00 PM 24.23 75.614 0.134 7.36 2.87 8.4
8/11/2021 7:00:00 PM 24.18 75.524 0.134 7.34 2.66 8.25
8/11/2021 7:15:00 PM 24.13 75.434 0.134 7.32 3.09 8.1
8/11/2021 7:30:00 PM 24.08 75.344 0.134 7.29 2.77 8.01
8/11/2021 7:45:00 PM 24.01 75.218 0.135 7.27 2.93 7.84
8/11/2021 8:00:00 PM 23.93 75.074 0.135 7.24 2.83 7.7
8/11/2021 8:15:00 PM 23.84 74.912 0.135 7.22 3.29 7.51
8/11/2021 8:30:00 PM 23.75 74.75 0.136 7.18 3.12 7.3
8/11/2021 8:45:00 PM 23.66 74.588 0.136 7.14 3.04 7.18
8/11/2021 9:00:00 PM 23.57 74.426 0.136 7.14 3.01 7.01
8/11/2021 9:15:00 PM 23.47 74.246 0.136 7.13 3.15 6.88
8/11/2021 9:30:00 PM 23.38 74.084 0.137 7.11 2.87 6.76
8/11/2021 9:45:00 PM 23.3 73.94 0.137 7.09 2.76 6.63
8/11/2021 10:00:00 PM 23.22 73.796 0.137 7.07 3.3 6.56
8/11/2021 10:15:00 PM 23.14 73.652 0.137 7.06 5.48 6.49
8/11/2021 10:30:00 PM 23.06 73.508 0.137 7.06 2.87 6.46
8/11/2021 10:45:00 PM 22.99 73.382 0.137 7.05 2.83 6.38
8/11/2021 11:00:00 PM 22.92 73.256 0.138 7.04 2.86 6.37
8/11/2021 11:15:00 PM 22.86 73.148 0.138 7.04 3.06 6.33
8/11/2021 11:30:00 PM 22.8 73.04 0.138 7.01 2.93 6.32
8/11/2021 11:45:00 PM 22.72 72.896 0.138 7.03 3.03 6.28
8/12/2021 12:00:00 AM 22.66 72.788 0.138 7.03 3.01 6.27
8/12/2021 12:15:00 AM 22.59 72.662 0.138 7 2.99 6.25
8/12/2021 12:30:00 AM 22.53 72.554 0.138 7.02 2.94 6.27
8/12/2021 12:45:00 AM 22.45 72.41 0.138 7.02 3.17 6.25
8/12/2021 1:00:00 AM 22.39 72.302 0.138 7.01 3.09 6.2
8/12/2021 1:15:00 AM 22.31 72.158 0.138 7.01 3.16 6.24
8/12/2021 1:30:00 AM 22.24 72.032 0.138 7.01 3.02 6.24
8/12/2021 1:45:00 AM 22.18 71.924 0.138 6.98 3.1 6.25
8/12/2021 2:00:00 AM 22.11 71.798 0.138 7.01 3.01 6.27
8/12/2021 2:15:00 AM 22.05 71.69 0.138 7 3.23 6.28
8/12/2021 2:30:00 AM 21.99 71.582 0.138 7.01 2.92 6.32
8/12/2021 2:45:00 AM 21.94 71.492 0.138 6.98 3.01 6.3
8/12/2021 3:00:00 AM 21.89 71.402 0.138 7.01 3.2 6.3
8/12/2021 3:15:00 AM 21.84 71.312 0.138 7 3.06 6.31
8/12/2021 3:30:00 AM 21.78 71.204 0.138 7 2.98 6.3
8/12/2021 3:45:00 AM 21.72 71.096 0.138 7 3.14 6.31
8/12/2021 4:00:00 AM 21.67 71.006 0.138 7 3.57 6.36
8/12/2021 4:15:00 AM 21.62 70.916 0.138 7 3.43 6.35
8/12/2021 4:30:00 AM 21.58 70.844 0.138 7 3.4 6.34
8/12/2021 4:45:00 AM 21.52 70.736 0.138 7 3.17 6.38
8/12/2021 5:00:00 AM 21.48 70.664 0.139 7 3.16 6.39
8/12/2021 5:15:00 AM 21.44 70.592 0.139 6.99 3.16 6.41
8/12/2021 5:30:00 AM 21.39 70.502 0.139 6.99 3.3 6.4
8/12/2021 5:45:00 AM 21.34 70.412 0.139 7 4.51 6.42
8/12/2021 6:00:00 AM 21.3 70.34 0.139 6.97 4.07 6.41
8/12/2021 6:15:00 AM 21.27 70.286 0.139 6.97 5.2 6.37
8/12/2021 6:30:00 AM 21.23 70.214 0.139 6.99 3.8 6.38
8/12/2021 6:45:00 AM 21.19 70.142 0.138 6.99 4.06 6.39
8/12/2021 7:00:00 AM 21.15 70.07 0.139 6.99 3.54 6.46
8/12/2021 7:15:00 AM 21.12 70.016 0.139 6.97 4.64 6.48
8/12/2021 7:30:00 AM 21.09 69.962 0.139 6.98 3.96 6.53
8/12/2021 7:45:00 AM 21.09 69.962 0.139 7 3.29 6.57
8/12/2021 8:00:00 AM 21.07 69.926 0.139 7.01 3.42 6.59
8/12/2021 8:15:00 AM 21.06 69.908 0.139 7.01 3.21 6.81
8/12/2021 8:30:00 AM 21.08 69.944 0.139 7.01 3.65 6.74
8/12/2021 8:45:00 AM 21.1 69.98 0.138 7.03 5 6.94
8/12/2021 9:00:00 AM 21.13 70.034 0.138 7.04 3.72 7.08
8/12/2021 9:15:00 AM 21.16 70.088 0.138 7.06 3.28 7.14
8/12/2021 9:30:00 AM 21.22 70.196 0.138 7.04 3.04 7.38
8/12/2021 9:45:00 AM 21.27 70.286 0.138 7.06 3.96 7.35
8/12/2021 10:00:00 AM 21.33 70.394 0.138 7.09 3.52 7.57
8/12/2021 10:15:00 AM 21.4 70.52 0.138 7.09 3.28 7.59
8/12/2021 10:30:00 AM 21.56 70.808 0.138 7.12 3.38 7.73
8/12/2021 10:45:00 AM 21.71 71.078 0.138 7.14 3 7.95
8/12/2021 11:00:00 AM 21.84 71.312 0.138 7.14 3.85 7.93
8/12/2021 11:15:00 AM 22.01 71.618 0.137 7.16 5.92 8.07
8/12/2021 11:30:00 AM 22.23 72.014 0.137 7.17 3.07 8.23
8/12/2021 11:45:00 AM 22.33 72.194 0.137 7.16 4.02 8.26
8/12/2021 12:00:00 PM 22.53 72.554 0.137 7.21 3.32 8.28
8/12/2021 12:15:00 PM 22.64 72.752 0.137 7.21 3.43 8.41
8/12/2021 12:30:00 PM 22.78 73.004 0.137 7.22 3.14 8.44
8/12/2021 12:45:00 PM 22.94 73.292 0.137 7.24 3.34 8.55
8/12/2021 1:00:00 PM 23.1 73.58 0.136 7.25 4.9 8.55
8/12/2021 1:15:00 PM 23.21 73.778 0.136 7.24 7.16 8.63
8/12/2021 1:30:00 PM 23.37 74.066 0.136 7.26 3.64 8.61
8/12/2021 1:45:00 PM 23.74 74.732 0.136 7.28 4.88 8.68
8/12/2021 2:00:00 PM 23.96 75.128 0.135 7.26 6.92 8.68
8/12/2021 2:15:00 PM 24.04 75.272 0.135 7.29 5.75 8.67
8/12/2021 2:30:00 PM 24.13 75.434 0.135 7.29 13.34 8.64
8/12/2021 2:45:00 PM 24.34 75.812 0.135 7.3 6.35 8.69
8/12/2021 3:00:00 PM 24.61 76.298 0.135 7.3 4.77 8.67
8/12/2021 3:15:00 PM 24.64 76.352 0.135 7.3 4 8.67
8/12/2021 3:30:00 PM 24.67 76.406 0.135 7.32 3.31 8.54
8/12/2021 3:45:00 PM 24.67 76.406 0.135 7.32 3.07 8.48
8/12/2021 4:00:00 PM 24.67 76.406 0.135 7.3 4.29 8.34
8/12/2021 4:15:00 PM 24.63 76.334 0.135 7.27 3.45 8.13
8/12/2021 4:30:00 PM 24.65 76.37 0.135 7.25 3.02 8.11
8/12/2021 4:45:00 PM 24.64 76.352 0.135 7.24 3.93 8.05
8/12/2021 5:00:00 PM 24.65 76.37 0.135 7.24 6.48 7.9
8/12/2021 5:15:00 PM 24.67 76.406 0.135 7.21 3.12 7.88
8/12/2021 5:30:00 PM 24.69 76.442 0.135 7.24 3.68 7.93
8/12/2021 5:45:00 PM 24.72 76.496 0.135 7.22 3.01 7.81
8/12/2021 6:00:00 PM 24.72 76.496 0.135 7.23 3.38 7.83
8/12/2021 6:15:00 PM 24.7 76.46 0.135 7.21 17.48 7.79
8/12/2021 6:30:00 PM 24.68 76.424 0.136 7.19 8.54 7.78
8/12/2021 6:45:00 PM 24.65 76.37 0.136 7.2 5.11 7.72
8/12/2021 7:00:00 PM 24.59 76.262 0.136 7.19 4.29 7.63
8/12/2021 7:15:00 PM 24.54 76.172 0.136 7.19 3.31 7.5
8/12/2021 7:30:00 PM 24.47 76.046 0.136 7.18 4.07 7.27
8/12/2021 7:45:00 PM 24.38 75.884 0.136 7.16 3.02 7.22
8/12/2021 8:00:00 PM 24.29 75.722 0.136 7.14 3.33 7.05
8/12/2021 8:15:00 PM 24.19 75.542 0.136 7.13 8.53 6.94
8/12/2021 8:30:00 PM 24.08 75.344 0.137 7.12 3.75 6.8
8/12/2021 8:45:00 PM 23.97 75.146 0.137 7.1 3.35 6.64
8/12/2021 9:00:00 PM 23.86 74.948 0.137 7.06 3.11 6.49
8/12/2021 9:15:00 PM 23.76 74.768 0.138 7.06 3.14 6.38
8/12/2021 9:30:00 PM 23.63 74.534 0.138 7.05 3.73 6.31
8/12/2021 9:45:00 PM 23.53 74.354 0.138 7.03 3.59 6.19
8/12/2021 10:00:00 PM 23.43 74.174 0.138 7.04 3.39 6.09
8/12/2021 10:15:00 PM 23.34 74.012 0.138 7.02 2.93 6.08
8/12/2021 10:30:00 PM 23.26 73.868 0.138 7.01 3.48 6.06
8/12/2021 10:45:00 PM 23.18 73.724 0.138 7 3.03 6.02
8/12/2021 11:00:00 PM 23.12 73.616 0.138 7.01 2.88 6.05
8/12/2021 11:15:00 PM 23.05 73.49 0.138 7 2.87 6.06
8/12/2021 11:30:00 PM 22.98 73.364 0.138 7.01 3.36 5.96
8/12/2021 11:45:00 PM 22.91 73.238 0.138 7.01 3.2 5.99
8/13/2021 12:00:00 AM 22.84 73.112 0.138 7 2.92 5.99
8/13/2021 12:15:00 AM 22.77 72.986 0.138 7 3.31 6
8/13/2021 12:30:00 AM 22.71 72.878 0.138 7 3.06 6.01
8/13/2021 12:45:00 AM 22.65 72.77 0.138 7 3.14 5.95
8/13/2021 1:00:00 AM 22.59 72.662 0.139 6.99 3.87 5.96
8/13/2021 1:15:00 AM 22.53 72.554 0.139 7 3.57 5.98
8/13/2021 1:30:00 AM 22.47 72.446 0.139 7 3.37 6.03
8/13/2021 1:45:00 AM 22.42 72.356 0.139 6.99 3.06 5.99
8/13/2021 2:00:00 AM 22.36 72.248 0.139 6.98 3.36 6.04
8/13/2021 2:15:00 AM 22.31 72.158 0.139 6.99 3.88 6.02
8/13/2021 2:30:00 AM 22.25 72.05 0.139 6.99 3.2 6.04
8/13/2021 2:45:00 AM 22.2 71.96 0.139 6.99 3.17 6.06
8/13/2021 3:00:00 AM 22.15 71.87 0.139 6.99 3.08 6.08
8/13/2021 3:15:00 AM 22.09 71.762 0.139 6.96 3.72 6.08
8/13/2021 3:30:00 AM 22.04 71.672 0.139 6.98 3.64 6.12
8/13/2021 3:45:00 AM 21.98 71.564 0.139 6.98 4.12 6.12
8/13/2021 4:00:00 AM 21.94 71.492 0.139 6.98 5.17 6.15
8/13/2021 4:15:00 AM 21.88 71.384 0.139 6.98 3.14 6.12
8/13/2021 4:30:00 AM 21.84 71.312 0.139 6.98 3.26 6.16
8/13/2021 4:45:00 AM 21.78 71.204 0.139 6.97 3.17 6.17
8/13/2021 5:00:00 AM 21.73 71.114 0.139 6.98 3.37 6.19
8/13/2021 5:15:00 AM 21.67 71.006 0.139 6.98 3.08 6.22
8/13/2021 5:30:00 AM 21.61 70.898 0.139 6.98 3.26 6.26
8/13/2021 5:45:00 AM 21.57 70.826 0.139 6.97 24.57 6.17
8/13/2021 6:00:00 AM 21.51 70.718 0.139 6.95 9.63 6.2
8/13/2021 6:15:00 AM 21.46 70.628 0.139 6.98 4.79 6.21
8/13/2021 6:30:00 AM 21.4 70.52 0.139 6.98 4.1 6.25
8/13/2021 6:45:00 AM 21.36 70.448 0.139 6.98 4.12 6.25
8/13/2021 7:00:00 AM 21.31 70.358 0.139 6.98 4.04 6.3
8/13/2021 7:15:00 AM 21.27 70.286 0.139 6.98 4.49 6.32
8/13/2021 7:30:00 AM 21.24 70.232 0.139 6.98 4.81 6.4
8/13/2021 7:45:00 AM 21.21 70.17799 0.139 6.99 3.26 6.45
8/13/2021 8:00:00 AM 21.2 70.16 0.139 6.99 5.01 6.55
8/13/2021 8:15:00 AM 21.19 70.142 0.139 7 3.59 6.58
8/13/2021 8:30:00 AM 21.19 70.142 0.139 7 3.49 6.72
8/13/2021 8:45:00 AM 21.19 70.142 0.139 7.01 5.61 6.69
8/13/2021 9:00:00 AM 21.2 70.16 0.139 7.02 4.69 6.78
8/13/2021 9:15:00 AM 21.22 70.196 0.139 7.02 6.94 6.94
8/13/2021 9:30:00 AM 21.25 70.25 0.139 7.04 5.62 7.07
8/13/2021 9:45:00 AM 21.3 70.34 0.138 7.05 3.74 7.17
8/13/2021 10:00:00 AM 21.33 70.394 0.138 7.05 4.58 7.16
8/13/2021 10:15:00 AM 21.39 70.502 0.138 7.06 9.17 7.43
8/13/2021 10:30:00 AM 21.55 70.79 0.138 7.1 3.65 7.61
8/13/2021 10:45:00 AM 21.66 70.988 0.138 7.08 2.71 7.73
8/13/2021 11:00:00 AM 21.8 71.24 0.138 7.11 2.86 7.93
8/13/2021 11:15:00 AM 21.99 71.582 0.138 7.13 3.23 7.98
8/13/2021 11:30:00 AM 22.23 72.014 0.138 7.16 2.77 8.11
8/13/2021 11:45:00 AM 22.37 72.266 0.137 7.17 2.67 8.19
8/13/2021 12:00:00 PM 22.58 72.644 0.137 7.15 2.62 8.31
8/13/2021 12:15:00 PM 22.71 72.878 0.137 7.19 2.71 8.3
8/13/2021 12:30:00 PM 22.89 73.202 0.137 7.2 2.84 8.4
8/13/2021 12:45:00 PM 23.16 73.688 0.137 7.22 6.82 8.48
8/13/2021 1:00:00 PM 23.42 74.156 0.137 7.22 6.33 8.58
8/13/2021 1:15:00 PM 23.61 74.498 0.137 7.24 5.52 8.59
8/13/2021 1:30:00 PM 23.88 74.984 0.136 7.25 3.13 8.59
8/13/2021 1:45:00 PM 24.14 75.452 0.136 7.25 7.7 8.63
8/13/2021 2:00:00 PM 24.36 75.848 0.136 7.26 3.43 8.62
8/13/2021 2:15:00 PM 24.71 76.478 0.136 7.28 2.85 8.76
8/13/2021 2:30:00 PM 24.94 76.892 0.136 7.29 2.46 8.78
8/13/2021 2:45:00 PM 25.09 77.162 0.136 7.29 2.85 8.59
8/13/2021 3:00:00 PM 25.27 77.486 0.136 7.28 4.39 8.6
8/13/2021 3:15:00 PM 25.44 77.792 0.136 7.3 4.97 8.59
8/13/2021 3:30:00 PM 25.65 78.17 0.135 7.31 3.29 8.64
8/13/2021 3:45:00 PM 25.75 78.35 0.135 7.32 5.38 8.57
8/13/2021 4:00:00 PM 25.87 78.566 0.135 7.32 5.02 8.47
8/13/2021 4:15:00 PM 26 78.8 0.135 7.32 3.3 8.32
8/13/2021 4:30:00 PM 26.1 78.98 0.135 7.32 2.71 8.39
8/13/2021 4:45:00 PM 26.12 79.016 0.135 7.32 3.37 8.35
8/13/2021 5:00:00 PM 26.16 79.088 0.135 7.32 2.35 8.26
8/13/2021 5:15:00 PM 26.16 79.088 0.135 7.29 2.45 8.15
8/13/2021 5:30:00 PM 26.16 79.088 0.135 7.31 2.68 8.1
8/13/2021 5:45:00 PM 26.1 78.98 0.135 7.28 2.62 7.93
8/13/2021 6:00:00 PM 26.03 78.854 0.136 7.23 3.37 7.55
8/13/2021 6:15:00 PM 25.93 78.674 0.136 7.22 3.13 7.45
8/13/2021 6:30:00 PM 25.8 78.44 0.136 7.2 2.6 7.25
8/13/2021 6:45:00 PM 25.7 78.26 0.136 7.19 2.87 7.11
8/13/2021 7:00:00 PM 25.58 78.044 0.136 7.17 3.32 6.92
8/13/2021 7:15:00 PM 25.44 77.792 0.136 7.15 2.55 6.74
8/13/2021 7:30:00 PM 25.28 77.504 0.136 7.11 3.62 6.59
8/13/2021 7:45:00 PM 25.12 77.216 0.137 7.11 2.63 6.6
8/13/2021 8:00:00 PM 24.98 76.964 0.137 7.1 2.76 6.55
8/13/2021 8:15:00 PM 24.81 76.658 0.138 7.12 2.63 6.7
8/13/2021 8:30:00 PM 24.63 76.334 0.138 7.13 2.93 6.7
8/13/2021 8:45:00 PM 24.47 76.046 0.138 7.15 2.61 6.71
8/13/2021 9:00:00 PM 24.33 75.794 0.138 7.15 2.76 6.68
8/13/2021 9:15:00 PM 24.22 75.596 0.138 7.15 2.69 6.6
8/13/2021 9:30:00 PM 24.09 75.362 0.138 7.14 2.84 6.55
8/13/2021 9:45:00 PM 23.98 75.164 0.138 7.13 3 6.53
8/13/2021 10:00:00 PM 23.84 74.912 0.137 7.14 2.62 6.49
8/13/2021 10:15:00 PM 23.71 74.67799 0.135 7.14 2.97 6.6
8/13/2021 10:30:00 PM 23.6 74.48 0.134 7.13 2.91 6.58
8/13/2021 10:45:00 PM 23.47 74.246 0.132 7.1 2.93 6.58
8/13/2021 11:00:00 PM 23.33 73.994 0.131 7.12 2.98 6.62
8/13/2021 11:15:00 PM 23.26 73.868 0.13 7.11 2.97 6.58
8/13/2021 11:30:00 PM 23.15 73.67 0.13 7.12 2.91 6.62
8/13/2021 11:45:00 PM 23.07 73.526 0.129 7.11 3.25 6.62
8/14/2021 12:00:00 AM 22.97 73.346 0.128 7.1 2.86 6.61
8/14/2021 12:15:00 AM 22.87 73.166 0.128 7.11 3.08 6.65
8/14/2021 12:30:00 AM 22.78 73.004 0.127 7.1 3.09 6.66
8/14/2021 12:45:00 AM 22.71 72.878 0.127 7.1 3.48 6.63
8/14/2021 1:00:00 AM 22.61 72.698 0.126 7.06 2.99 6.62
8/14/2021 1:15:00 AM 22.55 72.59 0.126 7.07 3.01 6.65
8/14/2021 1:30:00 AM 22.46 72.42799 0.125 7.09 3.09 6.71
8/14/2021 1:45:00 AM 22.39 72.302 0.125 7.09 3.14 6.73
8/14/2021 2:00:00 AM 22.31 72.158 0.125 7.08 3.2 6.72
8/14/2021 2:15:00 AM 22.25 72.05 0.124 7.08 3.21 6.69
8/14/2021 2:30:00 AM 22.18 71.924 0.124 7.05 3.66 6.75
8/14/2021 2:45:00 AM 22.11 71.798 0.123 7.08 3.32 6.8
8/14/2021 3:00:00 AM 22.07 71.726 0.123 7.07 3.26 6.79
8/14/2021 3:15:00 AM 22.03 71.654 0.123 7.08 3.34 6.76
8/14/2021 3:30:00 AM 21.98 71.564 0.123 7.05 3.11 6.69
8/14/2021 3:45:00 AM 21.93 71.474 0.122 7.07 3.15 6.74
8/14/2021 4:00:00 AM 21.9 71.42 0.122 7.05 3.53 6.84
8/14/2021 4:15:00 AM 21.87 71.366 0.122 7.07 3.47 6.73
8/14/2021 4:30:00 AM 21.83 71.294 0.122 7.07 3.75 6.72
8/14/2021 4:45:00 AM 21.8 71.24 0.121 7.06 3.66 6.82
8/14/2021 5:00:00 AM 21.75 71.15 0.121 7.04 3.82 6.72
8/14/2021 5:15:00 AM 21.7 71.06 0.121 7.06 3.54 6.62
8/14/2021 5:30:00 AM 21.67 71.006 0.121 7.03 4.18 6.7
8/14/2021 5:45:00 AM 21.61 70.898 0.121 7.04 3.87 6.75
8/14/2021 6:00:00 AM 21.59 70.862 0.121 7.05 5.31 6.68
8/14/2021 6:15:00 AM 21.54 70.772 0.121 7.05 3.97 6.82
8/14/2021 6:30:00 AM 21.51 70.718 0.121 7.05 3.89 6.79
8/14/2021 6:45:00 AM 21.47 70.646 0.121 7.05 3.67 6.89
8/14/2021 7:00:00 AM 21.45 70.61 0.121 7.05 4.54 6.82
8/14/2021 7:15:00 AM 21.43 70.574 0.121 7.03 3.88 6.81
8/14/2021 7:30:00 AM 21.41 70.538 0.122 7.05 3.84 6.86
8/14/2021 7:45:00 AM 21.39 70.502 0.122 7.06 3.57 6.84
8/14/2021 8:00:00 AM 21.38 70.484 0.122 7.07 3.35 6.99
8/14/2021 8:15:00 AM 21.37 70.466 0.122 7.07 3.56 7.05
8/14/2021 8:30:00 AM 21.37 70.466 0.122 7.08 3.41 7.09
8/14/2021 8:45:00 AM 21.38 70.484 0.122 7.08 3.41 7.11
8/14/2021 9:00:00 AM 21.38 70.484 0.122 7.1 3.3 7.26
8/14/2021 9:15:00 AM 21.38 70.484 0.122 7.11 3.36 7.33
8/14/2021 9:30:00 AM 21.38 70.484 0.122 7.11 3.23 7.54
8/14/2021 9:45:00 AM 21.38 70.484 0.122 7.11 3.41 7.54
8/14/2021 10:00:00 AM 21.39 70.502 0.122 7.13 3.19 7.45
8/14/2021 10:15:00 AM 21.4 70.52 0.122 7.17 3.04 7.73
8/14/2021 10:30:00 AM 21.44 70.592 0.122 7.18 3.19 7.85
8/14/2021 10:45:00 AM 21.48 70.664 0.122 7.19 5.78 7.97
8/14/2021 11:00:00 AM 21.5 70.7 0.122 7.21 3.79 8.02
8/14/2021 11:15:00 AM 21.51 70.718 0.122 7.21 4.83 7.98
8/14/2021 11:30:00 AM 21.52 70.736 0.122 7.22 3.53 8.16
8/14/2021 11:45:00 AM 21.52 70.736 0.122 7.24 3.57 8.22
8/14/2021 12:00:00 PM 21.52 70.736 0.122 7.25 3.46 8.32
8/14/2021 12:15:00 PM 21.51 70.718 0.122 7.24 3.18 8.39
8/14/2021 12:30:00 PM 21.53 70.754 0.122 7.28 3.14 8.38
8/14/2021 12:45:00 PM 21.55 70.79 0.122 7.29 3.02 8.49
8/14/2021 1:00:00 PM 21.58 70.844 0.122 7.29 3.51 8.52
8/14/2021 1:15:00 PM 21.6 70.88 0.122 7.29 3.14 8.43
8/14/2021 1:30:00 PM 21.62 70.916 0.122 7.31 3.72 8.48
8/14/2021 1:45:00 PM 21.66 70.988 0.123 7.32 2.96 8.65
8/14/2021 2:00:00 PM 21.68 71.024 0.123 7.33 3.07 8.57
8/14/2021 2:15:00 PM 21.73 71.114 0.123 7.35 3.18 8.7
8/14/2021 2:30:00 PM 21.8 71.24 0.123 7.36 3.06 8.83
8/14/2021 2:45:00 PM 21.89 71.402 0.123 7.38 3.91 8.91
8/14/2021 3:00:00 PM 22.06 71.708 0.123 7.4 4.03 8.97
8/14/2021 3:15:00 PM 22.18 71.924 0.123 7.41 2.96 8.96
8/14/2021 3:30:00 PM 22.29 72.122 0.123 7.4 2.75 8.99
8/14/2021 3:45:00 PM 22.38 72.284 0.123 7.43 2.76 9
8/14/2021 4:00:00 PM 22.52 72.536 0.123 7.44 2.92 8.94
8/14/2021 4:15:00 PM 22.65 72.77 0.123 7.44 2.81 9.03
8/14/2021 4:30:00 PM 22.76 72.968 0.123 7.45 4.41 9
8/14/2021 4:45:00 PM 22.86 73.148 0.123 7.45 2.95 8.92
8/14/2021 5:00:00 PM 22.94 73.292 0.123 7.41 2.9 8.91
8/14/2021 5:15:00 PM 22.99 73.382 0.123 7.44 2.88 8.85
8/14/2021 5:30:00 PM 23.06 73.508 0.123 7.43 2.96 8.79
8/14/2021 5:45:00 PM 23.11 73.598 0.123 7.42 3.2 8.63
8/14/2021 6:00:00 PM 23.13 73.634 0.124 7.42 2.91 8.58
8/14/2021 6:15:00 PM 23.13 73.634 0.124 7.4 3.57 8.56
8/14/2021 6:30:00 PM 23.11 73.598 0.124 7.37 6.85 8.46
8/14/2021 6:45:00 PM 23 73.4 0.124 7.36 3.28 8.3
8/14/2021 7:00:00 PM 22.85 73.13 0.125 7.33 3.04 8.21
8/14/2021 7:15:00 PM 22.73 72.914 0.125 7.32 3.23 8.07
8/14/2021 7:30:00 PM 22.59 72.662 0.125 7.3 3.44 7.92
8/14/2021 7:45:00 PM 22.44 72.392 0.125 7.27 3.25 7.82
8/14/2021 8:00:00 PM 22.28 72.104 0.126 7.25 3.01 7.71
8/14/2021 8:15:00 PM 22.12 71.816 0.126 7.22 2.95 7.57
8/14/2021 8:30:00 PM 21.97 71.546 0.126 7.19 3.45 7.43
8/14/2021 8:45:00 PM 21.83 71.294 0.126 7.18 3.79 7.34
8/14/2021 9:00:00 PM 21.7 71.06 0.126 7.16 3.71 7.24
8/14/2021 9:15:00 PM 21.56 70.808 0.127 7.14 2.98 7.15
8/14/2021 9:30:00 PM 21.42 70.556 0.127 7.12 3.15 7.09
8/14/2021 9:45:00 PM 21.32 70.376 0.127 7.11 3.02 7.05
8/14/2021 10:00:00 PM 21.19 70.142 0.127 7.09 3.57 7.04
8/14/2021 10:15:00 PM 21.1 69.98 0.127 7.09 4.75 6.97
8/14/2021 10:30:00 PM 21.01 69.818 0.127 7.09 3.49 6.95
8/14/2021 10:45:00 PM 20.91 69.638 0.127 7.08 3.49 6.97
8/14/2021 11:00:00 PM 20.81 69.458 0.127 7.07 3.48 6.96
8/14/2021 11:15:00 PM 20.72 69.296 0.128 7.07 3.66 6.96
8/14/2021 11:30:00 PM 20.61 69.098 0.128 7.06 3.53 6.92
8/14/2021 11:45:00 PM 20.53 68.954 0.128 7.04 4.02 6.97
8/15/2021 12:00:00 AM 20.41 68.738 0.128 7.05 3.29 6.95
8/15/2021 12:15:00 AM 20.34 68.612 0.128 7.06 3.23 6.91
8/15/2021 12:30:00 AM 20.24 68.432 0.128 7.04 3.18 6.94
8/15/2021 12:45:00 AM 20.14 68.252 0.128 7.05 3.36 6.96
8/15/2021 1:00:00 AM 20.06 68.108 0.128 7.05 3.84 6.96
8/15/2021 1:15:00 AM 19.96 67.92799 0.128 7.05 3.37 6.98
8/15/2021 1:30:00 AM 19.87 67.766 0.128 7.05 3.33 7.01
8/15/2021 1:45:00 AM 19.79 67.622 0.128 7.04 4.15 6.98
8/15/2021 2:00:00 AM 19.7 67.46 0.128 7.03 3.47 7.03
8/15/2021 2:15:00 AM 19.61 67.298 0.128 7.02 3.18 7.07
8/15/2021 2:30:00 AM 19.53 67.154 0.128 7.04 3.77 7.04
8/15/2021 2:45:00 AM 19.44 66.992 0.128 7.04 3.4 7.08
8/15/2021 3:00:00 AM 19.34 66.812 0.128 7.04 3.32 7.1
8/15/2021 3:15:00 AM 19.25 66.65 0.128 7.04 3.36 7.14
8/15/2021 3:30:00 AM 19.18 66.524 0.128 7.04 3.76 7.12
8/15/2021 3:45:00 AM 19.08 66.344 0.128 7.04 3.78 7.17
8/15/2021 4:00:00 AM 19.01 66.218 0.128 7.04 3.39 7.16
8/15/2021 4:15:00 AM 18.93 66.074 0.128 7.03 3.5 7.15
8/15/2021 4:30:00 AM 18.85 65.93 0.128 7.03 3.57 7.17
8/15/2021 4:45:00 AM 18.77 65.786 0.128 7.03 3.93 7.19
8/15/2021 5:00:00 AM 18.69 65.642 0.129 7.04 3.31 7.21
8/15/2021 5:15:00 AM 18.59 65.462 0.129 7.04 4.23 7.22
8/15/2021 5:30:00 AM 18.5 65.3 0.129 7.03 3.21 7.26
8/15/2021 5:45:00 AM 18.43 65.174 0.129 7.03 4.44 7.3
8/15/2021 6:00:00 AM 18.35 65.03 0.129 7.03 3.61 7.25
8/15/2021 6:15:00 AM 18.27 64.886 0.129 7.04 5.08 7.33
8/15/2021 6:30:00 AM 18.2 64.76 0.129 7.04 4.32 7.33
8/15/2021 6:45:00 AM 18.12 64.616 0.129 7.04 3.21 7.37
8/15/2021 7:00:00 AM 18.04 64.472 0.129 7.01 3.17 7.39
8/15/2021 7:15:00 AM 17.99 64.382 0.129 7.03 9.11 7.38
8/15/2021 7:30:00 AM 17.9 64.22 0.129 7.04 3.78 7.51
8/15/2021 7:45:00 AM 17.86 64.148 0.129 7.05 4 7.55
8/15/2021 8:00:00 AM 17.83 64.094 0.129 7.05 3.69 7.53
8/15/2021 8:15:00 AM 17.78 64.004 0.129 7.06 3.72 7.7
8/15/2021 8:30:00 AM 17.75 63.95 0.129 7.07 3.33 7.76
8/15/2021 8:45:00 AM 17.75 63.95 0.129 7.07 3.27 7.86
8/15/2021 9:00:00 AM 17.75 63.95 0.129 7.08 3.19 7.97
8/15/2021 9:15:00 AM 17.78 64.004 0.129 7.09 2.94 8.03
8/15/2021 9:30:00 AM 17.82 64.076 0.129 7.1 6.79 8.11
8/15/2021 9:45:00 AM 17.88 64.184 0.129 7.11 3.07 8.25
8/15/2021 10:00:00 AM 17.96 64.328 0.129 7.1 3.02 8.28
8/15/2021 10:15:00 AM 18.03 64.454 0.129 7.12 3.21 8.37
8/15/2021 10:30:00 AM 18.08 64.544 0.129 7.11 3.02 8.51
8/15/2021 10:45:00 AM 18.18 64.724 0.129 7.14 2.86 8.53
8/15/2021 11:00:00 AM 18.29 64.922 0.129 7.15 4.11 8.63
8/15/2021 11:15:00 AM 18.42 65.156 0.129 7.16 3.25 8.76
8/15/2021 11:30:00 AM 18.55 65.39 0.129 7.18 2.83 8.83
8/15/2021 11:45:00 AM 18.68 65.624 0.128 7.2 3.01 8.95
8/15/2021 12:00:00 PM 18.86 65.948 0.128 7.21 2.76 9.02
8/15/2021 12:15:00 PM 19.06 66.308 0.128 7.23 2.82 9.05
8/15/2021 12:30:00 PM 19.27 66.686 0.128 7.25 2.71 9.13
8/15/2021 12:45:00 PM 19.53 67.154 0.128 7.25 2.79 9.16
8/15/2021 1:00:00 PM 19.85 67.73 0.128 7.27 2.72 9.32
8/15/2021 1:15:00 PM 20.09 68.162 0.128 7.28 5.34 9.36
8/15/2021 1:30:00 PM 20.36 68.648 0.128 7.3 3.02 9.4
8/15/2021 1:45:00 PM 20.58 69.044 0.128 7.31 3.11 9.36
8/15/2021 2:00:00 PM 20.83 69.494 0.128 7.31 3.21 9.35
8/15/2021 2:15:00 PM 21.02 69.836 0.127 7.32 2.88 9.21
8/15/2021 2:30:00 PM 21.2 70.16 0.127 7.32 2.97 9.27
8/15/2021 2:45:00 PM 21.37 70.466 0.127 7.34 2.66 9.24
8/15/2021 3:00:00 PM 21.59 70.862 0.127 7.35 2.62 9.31
8/15/2021 3:15:00 PM 21.79 71.222 0.127 7.35 4.63 9.31
8/15/2021 3:30:00 PM 22.01 71.618 0.127 7.36 3.3 9.23
8/15/2021 3:45:00 PM 22.12 71.816 0.127 7.36 2.65 9.24
8/15/2021 4:00:00 PM 22.18 71.924 0.127 7.36 3 9.2
8/15/2021 4:15:00 PM 22.27 72.086 0.127 7.36 3.05 9.22
8/15/2021 4:30:00 PM 22.3 72.14 0.127 7.36 2.55 9.22
8/15/2021 4:45:00 PM 22.34 72.212 0.127 7.36 2.88 9.17
8/15/2021 5:00:00 PM 22.37 72.266 0.127 7.36 2.98 9.01
8/15/2021 5:15:00 PM 22.4 72.32 0.127 7.36 2.76 9
8/15/2021 5:30:00 PM 22.43 72.374 0.127 7.33 2.63 9.03
8/15/2021 5:45:00 PM 22.42 72.356 0.127 7.34 3.05 8.89
8/15/2021 6:00:00 PM 22.4 72.32 0.127 7.33 3.06 8.78
8/15/2021 6:15:00 PM 22.37 72.266 0.127 7.31 20.53 8.74
8/15/2021 6:30:00 PM 22.3 72.14 0.128 7.3 3.11 8.62
8/15/2021 6:45:00 PM 22.22 71.996 0.128 7.29 4.23 8.51
8/15/2021 7:00:00 PM 22.13 71.834 0.128 7.26 4.74 8.36
8/15/2021 7:15:00 PM 22.03 71.654 0.128 7.25 2.96 8.26
8/15/2021 7:30:00 PM 21.94 71.492 0.128 7.24 4.41 8.23
8/15/2021 7:45:00 PM 21.83 71.294 0.129 7.22 4.4 8.01
8/15/2021 8:00:00 PM 21.71 71.078 0.129 7.2 3.47 7.93
8/15/2021 8:15:00 PM 21.59 70.862 0.129 7.19 3.43 7.77
8/15/2021 8:30:00 PM 21.47 70.646 0.129 7.16 4.74 7.6
8/15/2021 8:45:00 PM 21.35 70.43 0.129 7.14 3.7 7.47
8/15/2021 9:00:00 PM 21.23 70.214 0.13 7.12 3.6 7.29
8/15/2021 9:15:00 PM 21.12 70.016 0.13 7.11 3.51 7.23
8/15/2021 9:30:00 PM 21.01 69.818 0.13 7.09 3.09 7.09
8/15/2021 9:45:00 PM 20.89 69.602 0.13 7.08 4.01 7.01
8/15/2021 10:00:00 PM 20.77 69.386 0.131 7.06 3.55 6.87
8/15/2021 10:15:00 PM 20.68 69.224 0.131 7.04 3.2 6.84
8/15/2021 10:30:00 PM 20.58 69.044 0.131 7.04 3.28 6.79
8/15/2021 10:45:00 PM 20.49 68.882 0.131 7.04 3.25 6.73
8/15/2021 11:00:00 PM 20.41 68.738 0.131 7.03 3.57 6.73
8/15/2021 11:15:00 PM 20.33 68.594 0.131 7.02 3.21 6.68
8/15/2021 11:30:00 PM 20.25 68.45 0.131 7.01 3.2 6.68
8/15/2021 11:45:00 PM 20.16 68.288 0.132 7.01 3.35 6.61
8/16/2021 12:00:00 AM 20.09 68.162 0.132 7.01 3.37 6.69
8/16/2021 12:15:00 AM 20.02 68.036 0.132 7.01 3.03 6.68
8/16/2021 12:30:00 AM 19.95 67.91 0.132 7.01 3.89 6.64
8/16/2021 12:45:00 AM 19.88 67.784 0.132 7 3.14 6.69
8/16/2021 1:00:00 AM 19.81 67.658 0.132 7 3.16 6.67
8/16/2021 1:15:00 AM 19.74 67.532 0.132 6.99 4.96 6.68
8/16/2021 1:30:00 AM 19.68 67.424 0.132 6.99 4.14 6.73
8/16/2021 1:45:00 AM 19.61 67.298 0.132 6.99 3.63 6.74
8/16/2021 2:00:00 AM 19.56 67.208 0.132 6.98 4.36 6.73
8/16/2021 2:15:00 AM 19.49 67.082 0.132 6.99 3.44 6.77
8/16/2021 2:30:00 AM 19.43 66.974 0.132 6.98 3.21 6.74
8/16/2021 2:45:00 AM 19.38 66.884 0.132 6.98 3.87 6.7
8/16/2021 3:00:00 AM 19.33 66.794 0.132 6.97 9.32 6.78
8/16/2021 3:15:00 AM 19.28 66.704 0.132 6.98 4.19 6.74
8/16/2021 3:30:00 AM 19.23 66.614 0.132 6.98 4.68 6.8
8/16/2021 3:45:00 AM 19.18 66.524 0.133 6.98 3.63 6.8
8/16/2021 4:00:00 AM 19.13 66.434 0.133 6.98 3.9 6.79
8/16/2021 4:15:00 AM 19.09 66.362 0.133 6.98 3.64 6.82
8/16/2021 4:30:00 AM 19.03 66.254 0.133 6.98 3.02 6.82
8/16/2021 4:45:00 AM 18.99 66.182 0.133 6.98 3.74 6.86
8/16/2021 5:00:00 AM 18.94 66.092 0.133 6.97 3.95 6.84
8/16/2021 5:15:00 AM 18.9 66.02 0.133 6.98 4.02 6.82
8/16/2021 5:30:00 AM 18.85 65.93 0.133 6.97 3.43 6.85
8/16/2021 5:45:00 AM 18.81 65.858 0.133 6.97 10.95 6.85
8/16/2021 6:00:00 AM 18.76 65.768 0.133 6.97 8.99 6.88
8/16/2021 6:15:00 AM 18.72 65.696 0.133 6.97 5.43 6.9
8/16/2021 6:30:00 AM 18.68 65.624 0.133 6.97 4.37 6.88
8/16/2021 6:45:00 AM 18.63 65.534 0.133 6.97 3.95 6.93
8/16/2021 7:00:00 AM 18.6 65.48 0.133 6.97 3.67 6.9
8/16/2021 7:15:00 AM 18.57 65.426 0.133 6.97 3.81 6.94
8/16/2021 7:30:00 AM 18.55 65.39 0.133 6.97 4.56 6.97
8/16/2021 7:45:00 AM 18.52 65.336 0.133 6.98 4.15 7.02
8/16/2021 8:00:00 AM 18.51 65.318 0.133 6.97 4.5 7
8/16/2021 8:15:00 AM 18.5 65.3 0.133 6.98 3.95 7.08
8/16/2021 8:30:00 AM 18.48 65.264 0.133 6.98 3.91 7.05
8/16/2021 8:45:00 AM 18.49 65.282 0.133 6.98 3.14 7.33
8/16/2021 9:00:00 AM 18.51 65.318 0.133 7.01 3.18 7.47
8/16/2021 9:15:00 AM 18.57 65.426 0.133 7.02 3.65 7.66
8/16/2021 9:30:00 AM 18.64 65.552 0.133 7.03 5.55 7.81
8/16/2021 9:45:00 AM 18.71 65.67799 0.133 7.05 3.16 7.95
8/16/2021 10:00:00 AM 18.8 65.84 0.132 7.06 2.96 8.07
8/16/2021 10:15:00 AM 18.86 65.948 0.132 7.06 2.95 8.18
8/16/2021 10:30:00 AM 18.92 66.056 0.132 7.08 3.24 8.26
8/16/2021 10:45:00 AM 19 66.2 0.132 7.09 2.81 8.4
8/16/2021 11:00:00 AM 19.13 66.434 0.132 7.12 2.94 8.61
8/16/2021 11:15:00 AM 19.26 66.668 0.132 7.12 2.89 8.72
8/16/2021 11:30:00 AM 19.37 66.866 0.132 7.14 2.7 8.75
8/16/2021 11:45:00 AM 19.43 66.974 0.132 7.14 3.15 8.8
8/16/2021 12:00:00 PM 19.58 67.244 0.132 7.17 3.12 9.02
8/16/2021 12:15:00 PM 19.71 67.478 0.131 7.18 2.72 9.05
8/16/2021 12:30:00 PM 19.86 67.748 0.131 7.2 2.69 9.16
8/16/2021 12:45:00 PM 19.97 67.946 0.131 7.21 2.68 9.18
8/16/2021 1:00:00 PM 20.1 68.18 0.131 7.21 3.07 9.21
8/16/2021 1:15:00 PM 20.23 68.414 0.131 7.23 3.08 9.26
8/16/2021 1:30:00 PM 20.36 68.648 0.131 7.24 2.82 9.35
8/16/2021 1:45:00 PM 20.57 69.026 0.131 7.25 2.73 9.45
8/16/2021 2:00:00 PM 20.73 69.314 0.13 7.27 2.57 9.4
8/16/2021 2:15:00 PM 20.87 69.566 0.13 7.28 2.56 9.47
8/16/2021 2:30:00 PM 21.07 69.926 0.13 7.28 2.91 9.52
8/16/2021 2:45:00 PM 21.24 70.232 0.13 7.29 2.92 9.49
8/16/2021 3:00:00 PM 21.44 70.592 0.13 7.3 2.59 9.55
8/16/2021 3:15:00 PM 21.54 70.772 0.13 7.3 2.69 9.56
8/16/2021 3:30:00 PM 21.64 70.952 0.13 7.31 2.81 9.51
8/16/2021 3:45:00 PM 21.76 71.168 0.13 7.31 3.6 9.37
8/16/2021 4:00:00 PM 21.86 71.348 0.13 7.31 3.03 9.44
8/16/2021 4:15:00 PM 21.97 71.546 0.13 7.32 2.68 9.41
8/16/2021 4:30:00 PM 22.01 71.618 0.13 7.31 3.16 9.37
8/16/2021 4:45:00 PM 22.04 71.672 0.13 7.31 2.58 9.27
8/16/2021 5:00:00 PM 22.09 71.762 0.13 7.31 2.71 9.25
8/16/2021 5:15:00 PM 22.1 71.78 0.13 7.31 2.69 9.11
8/16/2021 5:30:00 PM 22.11 71.798 0.13 7.3 2.62 9.07
8/16/2021 5:45:00 PM 22.09 71.762 0.13 7.29 3.01 8.91
8/16/2021 6:00:00 PM 22.07 71.726 0.13 7.26 2.81 8.82
8/16/2021 6:15:00 PM 22.03 71.654 0.13 7.24 2.67 8.62
8/16/2021 6:30:00 PM 21.99 71.582 0.13 7.21 3.17 8.44
8/16/2021 6:45:00 PM 21.95 71.51 0.13 7.19 3.24 8.32
8/16/2021 7:00:00 PM 21.92 71.456 0.13 7.18 3.43 8.24
8/16/2021 7:15:00 PM 21.87 71.366 0.131 7.17 2.76 8.05
8/16/2021 7:30:00 PM 21.82 71.276 0.131 7.15 3.23 7.91
8/16/2021 7:45:00 PM 21.76 71.168 0.131 7.13 3.06 7.77
8/16/2021 8:00:00 PM 21.69 71.042 0.131 7.11 3.47 7.68
8/16/2021 8:15:00 PM 21.62 70.916 0.131 7.1 5.58 7.55
8/16/2021 8:30:00 PM 21.54 70.772 0.132 7.09 3.35 7.45
8/16/2021 8:45:00 PM 21.45 70.61 0.132 7.07 3.35 7.29
8/16/2021 9:00:00 PM 21.38 70.484 0.132 7.06 4.65 7.15
8/16/2021 9:15:00 PM 21.3 70.34 0.132 7.05 3.54 7.09
8/16/2021 9:30:00 PM 21.22 70.196 0.132 7.04 2.86 6.95
8/16/2021 9:45:00 PM 21.15 70.07 0.133 7.03 3.17 6.95
8/16/2021 10:00:00 PM 21.09 69.962 0.133 7.01 3.22 6.84
8/16/2021 10:15:00 PM 21.02 69.836 0.133 7.01 3.28 6.75
8/16/2021 10:30:00 PM 20.95 69.71 0.133 7 3.52 6.7
8/16/2021 10:45:00 PM 20.89 69.602 0.133 7 3.6 6.65
8/16/2021 11:00:00 PM 20.83 69.494 0.133 6.99 3.23 6.59
8/16/2021 11:15:00 PM 20.78 69.404 0.133 6.98 3.05 6.58
8/16/2021 11:30:00 PM 20.72 69.296 0.133 6.98 4.06 6.53
8/16/2021 11:45:00 PM 20.68 69.224 0.134 6.97 3.38 6.55
8/17/2021 12:00:00 AM 20.62 69.116 0.134 6.97 3.1 6.5
8/17/2021 12:15:00 AM 20.57 69.026 0.134 6.96 3.78 6.48
8/17/2021 12:30:00 AM 20.53 68.954 0.134 6.96 3.68 6.47
8/17/2021 12:45:00 AM 20.49 68.882 0.134 6.96 3.27 6.44
8/17/2021 1:00:00 AM 20.45 68.81 0.134 6.94 3.5 6.43
8/17/2021 1:15:00 AM 20.4 68.72 0.134 6.96 3.62 6.45
8/17/2021 1:30:00 AM 20.36 68.648 0.134 6.95 4.01 6.44
8/17/2021 1:45:00 AM 20.33 68.594 0.134 6.95 3.39 6.42
8/17/2021 2:00:00 AM 20.29 68.522 0.134 6.95 3.41 6.41
8/17/2021 2:15:00 AM 20.25 68.45 0.134 6.95 3.42 6.39
8/17/2021 2:30:00 AM 20.22 68.396 0.134 6.94 3.7 6.44
8/17/2021 2:45:00 AM 20.19 68.342 0.134 6.93 3.23 6.42
8/17/2021 3:00:00 AM 20.16 68.288 0.134 6.95 3.16 6.42
8/17/2021 3:15:00 AM 20.13 68.234 0.134 6.95 3.85 6.42
8/17/2021 3:30:00 AM 20.1 68.18 0.134 6.93 3.51 6.36
8/17/2021 3:45:00 AM 20.08 68.144 0.134 6.95 4.05 6.43
8/17/2021 4:00:00 AM 20.05 68.09 0.134 6.95 3.2 6.46
8/17/2021 4:15:00 AM 20.03 68.054 0.134 6.94 3.42 6.43
8/17/2021 4:30:00 AM 20.01 68.018 0.134 6.94 3.41 6.43
8/17/2021 4:45:00 AM 19.99 67.982 0.134 6.95 4.03 6.44
8/17/2021 5:00:00 AM 19.97 67.946 0.134 6.95 3.59 6.48
8/17/2021 5:15:00 AM 19.94 67.892 0.134 6.94 3.63 6.47
8/17/2021 5:30:00 AM 19.92 67.856 0.134 6.95 3.43 6.48
8/17/2021 5:45:00 AM 19.91 67.838 0.134 6.94 4.03 6.46
8/17/2021 6:00:00 AM 19.89 67.802 0.135 6.92 71.67 6.39
8/17/2021 6:15:00 AM 19.88 67.784 0.134 6.93 25.89 6.39
8/17/2021 6:30:00 AM 19.87 67.766 0.134 6.92 22.44 6.42
8/17/2021 6:45:00 AM 19.86 67.748 0.134 6.94 9.13 6.45
8/17/2021 7:00:00 AM 19.84 67.712 0.134 6.93 8.02 6.46
8/17/2021 7:15:00 AM 19.83 67.694 0.134 6.94 7.16 6.47
8/17/2021 7:30:00 AM 19.83 67.694 0.134 6.92 4.77 6.5
8/17/2021 7:45:00 AM 19.82 67.676 0.134 6.94 8.98 6.48
8/17/2021 8:00:00 AM 19.82 67.676 0.134 6.94 3.97 6.49
8/17/2021 8:15:00 AM 19.81 67.658 0.134 6.95 5.54 6.56
8/17/2021 8:30:00 AM 19.81 67.658 0.134 6.93 4.3 6.57
8/17/2021 8:45:00 AM 19.82 67.676 0.134 6.96 4.23 6.65
8/17/2021 9:00:00 AM 19.82 67.676 0.134 6.96 5 6.7
8/17/2021 9:15:00 AM 19.83 67.694 0.134 6.97 3.81 6.76
8/17/2021 9:30:00 AM 19.84 67.712 0.134 6.96 3.92 6.85
8/17/2021 9:45:00 AM 19.87 67.766 0.134 6.97 3.52 6.91
8/17/2021 10:00:00 AM 19.9 67.82 0.134 6.99 4.34 7.21
8/17/2021 10:15:00 AM 19.93 67.874 0.133 7.02 4.58 7.39
8/17/2021 10:30:00 AM 19.98 67.964 0.133 7.03 4.95 7.53
8/17/2021 10:45:00 AM 20 68 0.133 7.03 3.3 7.43
8/17/2021 11:00:00 AM 20.05 68.09 0.133 7.06 3.39 7.69
8/17/2021 11:15:00 AM 20.09 68.162 0.133 7.07 3.88 7.83
8/17/2021 11:30:00 AM 20.14 68.252 0.133 7.08 4.34 7.9
8/17/2021 11:45:00 AM 20.18 68.324 0.133 7.09 3.56 8.01
8/17/2021 12:00:00 PM 20.22 68.396 0.133 7.1 4.12 8.09
8/17/2021 12:15:00 PM 20.25 68.45 0.133 7.09 3.67 8.15
8/17/2021 12:30:00 PM 20.3 68.54 0.133 7.11 3.05 8.16
8/17/2021 12:45:00 PM 20.34 68.612 0.132 7.13 3.69 8.25
8/17/2021 1:00:00 PM 20.39 68.702 0.132 7.13 2.91 8.32
8/17/2021 1:15:00 PM 20.45 68.81 0.132 7.14 4.34 8.38
8/17/2021 1:30:00 PM 20.5 68.9 0.132 7.13 3 8.44
8/17/2021 1:45:00 PM 20.56 69.008 0.132 7.15 2.33 8.47
8/17/2021 2:00:00 PM 20.6 69.08 0.132 7.17 2.95 8.54
8/17/2021 2:15:00 PM 20.66 69.188 0.132 7.16 2.68 8.58
8/17/2021 2:30:00 PM 20.7 69.26 0.132 7.18 3.12 8.59
8/17/2021 2:45:00 PM 20.74 69.332 0.132 7.18 5.71 8.61
8/17/2021 3:00:00 PM 20.79 69.422 0.132 7.19 5.32 8.63
8/17/2021 3:15:00 PM 20.84 69.512 0.132 7.2 2.54 8.68
8/17/2021 3:30:00 PM 20.87 69.566 0.131 7.2 3.34 8.69
8/17/2021 3:45:00 PM 20.93 69.674 0.131 7.22 8.39 8.74
8/17/2021 4:00:00 PM 20.98 69.764 0.131 7.21 3.21 8.72
8/17/2021 4:15:00 PM 21 69.8 0.131 7.22 2.36 8.73
8/17/2021 4:30:00 PM 21.03 69.854 0.131 7.22 3.51 8.72
8/17/2021 4:45:00 PM 21.09 69.962 0.131 7.22 3.55 8.76
8/17/2021 5:00:00 PM 21.12 70.016 0.131 7.22 3.27 8.72
8/17/2021 5:15:00 PM 21.16 70.088 0.131 7.23 3.05 8.76
8/17/2021 5:30:00 PM 21.18 70.124 0.131 7.23 2.88 8.73
8/17/2021 5:45:00 PM 21.19 70.142 0.131 7.22 2.67 8.66
8/17/2021 6:00:00 PM 21.21 70.17799 0.131 7.22 2.57 8.59
8/17/2021 6:15:00 PM 21.22 70.196 0.131 7.22 2.65 8.58
8/17/2021 6:30:00 PM 21.23 70.214 0.131 7.21 2.71 8.51
8/17/2021 6:45:00 PM 21.23 70.214 0.131 7.2 3.03 8.41
8/17/2021 7:00:00 PM 21.23 70.214 0.131 7.19 3.09 8.34
8/17/2021 7:15:00 PM 21.21 70.17799 0.131 7.18 2.97 8.25
8/17/2021 7:30:00 PM 21.19 70.142 0.131 7.16 3.09 8.15
8/17/2021 7:45:00 PM 21.16 70.088 0.131 7.13 2.74 7.97
8/17/2021 8:00:00 PM 21.14 70.052 0.131 7.14 3.02 7.85
8/17/2021 8:15:00 PM 21.1 69.98 0.132 7.13 2.85 7.73
8/17/2021 8:30:00 PM 21.06 69.908 0.132 7.11 3.42 7.6
8/17/2021 8:45:00 PM 21.02 69.836 0.132 7.09 3.1 7.47
8/17/2021 9:00:00 PM 20.99 69.782 0.132 7.07 3.36 7.36
8/17/2021 9:15:00 PM 20.95 69.71 0.132 7.07 3.85 7.27
8/17/2021 9:30:00 PM 20.92 69.656 0.132 7.06 2.86 7.17
8/17/2021 9:45:00 PM 20.89 69.602 0.132 7.05 4.63 7.08
8/17/2021 10:00:00 PM 20.85 69.53 0.132 7.04 2.73 6.97
8/17/2021 10:15:00 PM 20.81 69.458 0.132 7.01 3.22 6.93
8/17/2021 10:30:00 PM 20.78 69.404 0.133 7.01 3.46 6.88
8/17/2021 10:45:00 PM 20.74 69.332 0.133 7.01 2.96 6.85
8/17/2021 11:00:00 PM 20.71 69.278 0.133 6.99 3.56 6.8
8/17/2021 11:15:00 PM 20.68 69.224 0.133 7 3.01 6.73
8/17/2021 11:30:00 PM 20.65 69.17 0.133 6.99 3.54 6.74
8/17/2021 11:45:00 PM 20.62 69.116 0.133 6.99 3.45 6.7
8/18/2021 12:00:00 AM 20.6 69.08 0.133 6.99 2.99 6.68
8/18/2021 12:15:00 AM 20.58 69.044 0.133 6.99 3.69 6.68
8/18/2021 12:30:00 AM 20.56 69.008 0.133 6.99 3.79 6.65
8/18/2021 12:45:00 AM 20.54 68.972 0.133 6.99 3.88 6.6
8/18/2021 1:00:00 AM 20.52 68.936 0.133 6.97 3.4 6.64
8/18/2021 1:15:00 AM 20.5 68.9 0.133 6.98 3.43 6.63
8/18/2021 1:30:00 AM 20.48 68.864 0.133 6.98 4.38 6.63
8/18/2021 1:45:00 AM 20.47 68.846 0.133 6.98 3 6.61
8/18/2021 2:00:00 AM 20.45 68.81 0.133 6.98 3.14 6.63
8/18/2021 2:15:00 AM 20.43 68.774 0.133 6.98 3.46 6.62
8/18/2021 2:30:00 AM 20.41 68.738 0.133 6.98 4.24 6.64
8/18/2021 2:45:00 AM 20.39 68.702 0.133 6.98 3.51 6.62
8/18/2021 3:00:00 AM 20.38 68.684 0.133 6.96 3.27 6.63
8/18/2021 3:15:00 AM 20.36 68.648 0.134 6.98 3.35 6.65
8/18/2021 3:30:00 AM 20.35 68.63 0.133 6.98 3.44 6.64
8/18/2021 3:45:00 AM 20.33 68.594 0.134 6.98 4 6.64
8/18/2021 4:00:00 AM 20.32 68.576 0.134 6.97 3.54 6.63
8/18/2021 4:15:00 AM 20.31 68.558 0.134 6.98 3.75 6.63
8/18/2021 4:30:00 AM 20.29 68.522 0.134 6.98 3.52 6.64
8/18/2021 4:45:00 AM 20.28 68.504 0.134 6.98 3.87 6.62
8/18/2021 5:00:00 AM 20.27 68.486 0.134 6.98 3.87 6.62
8/18/2021 5:15:00 AM 20.25 68.45 0.134 6.98 3.76 6.63
8/18/2021 5:30:00 AM 20.24 68.432 0.134 6.98 3.16 6.62
8/18/2021 5:45:00 AM 20.22 68.396 0.134 6.98 4 6.68
8/18/2021 6:00:00 AM 20.21 68.378 0.134 6.98 4.31 6.64
8/18/2021 6:15:00 AM 20.2 68.36 0.134 6.98 4.2 6.6
8/18/2021 6:30:00 AM 20.19 68.342 0.134 6.98 4.11 6.59
8/18/2021 6:45:00 AM 20.18 68.324 0.134 6.98 3.67 6.56
8/18/2021 7:00:00 AM 20.18 68.324 0.134 6.98 3.64 6.6
8/18/2021 7:15:00 AM 20.17 68.306 0.134 6.98 3.27 6.62
8/18/2021 7:30:00 AM 20.16 68.288 0.134 6.98 3.35 6.67
8/18/2021 7:45:00 AM 20.16 68.288 0.134 6.97 3.49 6.68
8/18/2021 8:00:00 AM 20.16 68.288 0.134 6.97 3.25 6.71
8/18/2021 8:15:00 AM 20.17 68.306 0.134 6.99 8.83 6.75
8/18/2021 8:30:00 AM 20.18 68.324 0.134 6.99 3.44 6.74
8/18/2021 8:45:00 AM 20.19 68.342 0.134 6.99 2.82 6.77
8/18/2021 9:00:00 AM 20.2 68.36 0.134 7 3.55 6.84
8/18/2021 9:15:00 AM 20.22 68.396 0.134 7 3.07 6.9
8/18/2021 9:30:00 AM 20.24 68.432 0.134 7.01 3.09 6.94
8/18/2021 9:45:00 AM 20.28 68.504 0.134 7.02 2.86 7.04
8/18/2021 10:00:00 AM 20.32 68.576 0.134 7.03 2.56 7.27
8/18/2021 10:15:00 AM 20.37 68.666 0.133 7.04 2.83 7.44
8/18/2021 10:30:00 AM 20.44 68.792 0.133 7.06 2.74 7.6
8/18/2021 10:45:00 AM 20.53 68.954 0.133 7.08 2.34 7.82
8/18/2021 11:00:00 AM 20.6 69.08 0.133 7.09 2.79 7.93
8/18/2021 11:15:00 AM 20.74 69.332 0.133 7.12 2.76 8.19
8/18/2021 11:30:00 AM 20.83 69.494 0.133 7.13 2.32 8.27
8/18/2021 11:45:00 AM 20.89 69.602 0.133 7.14 2.79 8.39
8/18/2021 12:00:00 PM 20.98 69.764 0.133 7.15 2.54 8.53
8/18/2021 12:15:00 PM 21.11 69.998 0.132 7.18 2.43 8.66
8/18/2021 12:30:00 PM 21.19 70.142 0.132 7.18 2.43 8.71
8/18/2021 12:45:00 PM 21.26 70.268 0.132 7.18 2.46 8.73
8/18/2021 1:00:00 PM 21.31 70.358 0.132 7.19 2.45 8.78
8/18/2021 1:15:00 PM 21.35 70.43 0.132 7.21 2.64 8.78
8/18/2021 1:30:00 PM 21.38 70.484 0.132 7.21 2.79 8.79
8/18/2021 1:45:00 PM 21.41 70.538 0.132 7.21 2.56 8.77
8/18/2021 2:00:00 PM 21.45 70.61 0.132 7.21 3.05 8.72
8/18/2021 2:15:00 PM 21.48 70.664 0.132 7.22 2.87 8.8
8/18/2021 2:30:00 PM 21.55 70.79 0.131 7.24 3.7 8.85
8/18/2021 2:45:00 PM 21.6 70.88 0.131 7.24 2.28 8.84
8/18/2021 3:00:00 PM 21.65 70.97 0.131 7.24 2.35 8.89
8/18/2021 3:15:00 PM 21.74 71.132 0.131 7.25 2.58 8.84
8/18/2021 3:30:00 PM 21.77 71.186 0.131 7.25 2.85 8.87
8/18/2021 3:45:00 PM 21.84 71.312 0.131 7.25 2.69 8.89
8/18/2021 4:00:00 PM 21.95 71.51 0.131 7.26 3.54 8.96
8/18/2021 4:15:00 PM 22.05 71.69 0.131 7.27 2.44 8.97
8/18/2021 4:30:00 PM 22.13 71.834 0.131 7.27 3.2 8.93
8/18/2021 4:45:00 PM 22.19 71.942 0.131 7.28 2.45 8.93
8/18/2021 5:00:00 PM 22.23 72.014 0.131 7.27 2.49 8.92
8/18/2021 5:15:00 PM 22.26 72.068 0.131 7.28 2.39 8.86
8/18/2021 5:30:00 PM 22.27 72.086 0.131 7.27 2.48 8.77
8/18/2021 5:45:00 PM 22.27 72.086 0.131 7.25 2.72 8.61
8/18/2021 6:00:00 PM 22.26 72.068 0.131 7.23 2.76 8.51
8/18/2021 6:15:00 PM 22.25 72.05 0.131 7.22 2.63 8.45
8/18/2021 6:30:00 PM 22.25 72.05 0.131 7.22 3 8.28
8/18/2021 6:45:00 PM 22.22 71.996 0.131 7.19 2.95 8.15
8/18/2021 7:00:00 PM 22.19 71.942 0.131 7.18 2.61 8.01
8/18/2021 7:15:00 PM 22.15 71.87 0.131 7.17 2.69 7.77
8/18/2021 7:30:00 PM 22.1 71.78 0.131 7.15 2.85 7.72
8/18/2021 7:45:00 PM 22.05 71.69 0.131 7.14 2.81 7.55
8/18/2021 8:00:00 PM 22 71.6 0.131 7.13 2.99 7.48
8/18/2021 8:15:00 PM 21.94 71.492 0.131 7.13 3.07 7.32
8/18/2021 8:30:00 PM 21.89 71.402 0.13 7.13 3.23 7.27
8/18/2021 8:45:00 PM 21.84 71.312 0.13 7.13 3.6 7.2
8/18/2021 9:00:00 PM 21.79 71.222 0.13 7.12 3.49 7.15
8/18/2021 9:15:00 PM 21.74 71.132 0.129 7.12 3.19 7.05
8/18/2021 9:30:00 PM 21.69 71.042 0.128 7.12 3.29 7.06
8/18/2021 9:45:00 PM 21.65 70.97 0.128 7.1 3.48 7.05
8/18/2021 10:00:00 PM 21.61 70.898 0.127 7.11 3.28 6.98
8/18/2021 10:15:00 PM 21.57 70.826 0.127 7.1 3.29 7.03
8/18/2021 10:30:00 PM 21.53 70.754 0.126 7.11 3.34 6.95
8/18/2021 10:45:00 PM 21.5 70.7 0.126 7.11 4.71 6.95
8/18/2021 11:00:00 PM 21.47 70.646 0.125 7.11 9 7.03
8/18/2021 11:15:00 PM 21.41 70.538 0.124 7.12 16.25 7.07
8/18/2021 11:30:00 PM 21.37 70.466 0.124 7.14 22.97 7.13
8/18/2021 11:45:00 PM 21.33 70.394 0.124 7.15 34.06 7.17
8/19/2021 12:00:00 AM 21.3 70.34 0.123 7.15 30.33 7.25
8/19/2021 12:15:00 AM 21.25 70.25 0.122 7.18 36.4 7.36
8/19/2021 12:30:00 AM 21.21 70.17799 0.12 7.19 53.05 7.45
8/19/2021 12:45:00 AM 21.14 70.052 0.117 7.21 115.17 7.63
8/19/2021 1:00:00 AM 21.09 69.962 0.117 7.23 110.91 7.74
8/19/2021 1:15:00 AM 21.04 69.872 0.117 7.26 108.65 7.87
8/19/2021 1:30:00 AM 20.99 69.782 0.118 7.3 97.71 7.95
8/19/2021 1:45:00 AM 20.89 69.602 0.118 7.32 90.09 8.07
8/19/2021 2:00:00 AM 20.78 69.404 0.118 7.34 73.57 8.12
8/19/2021 2:15:00 AM 20.68 69.224 0.118 7.35 71 8.17
8/19/2021 2:30:00 AM 20.61 69.098 0.117 7.35 64.18 8.13
8/19/2021 2:45:00 AM 20.57 69.026 0.116 7.34 64.42 8.17
8/19/2021 3:00:00 AM 20.53 68.954 0.114 7.31 44.79 8.21
8/19/2021 3:15:00 AM 20.5 68.9 0.113 7.33 42.81 8.19
8/19/2021 3:30:00 AM 20.47 68.846 0.112 7.32 41.67 8.18
8/19/2021 3:45:00 AM 20.44 68.792 0.112 7.32 35.06 8.22
8/19/2021 4:00:00 AM 20.42 68.756 0.112 7.32 33.27 8.22
8/19/2021 4:15:00 AM 20.39 68.702 0.112 7.32 30.84 8.22
8/19/2021 4:30:00 AM 20.38 68.684 0.112 7.31 29.77 8.21
8/19/2021 4:45:00 AM 20.36 68.648 0.112 7.32 27.94 8.2
8/19/2021 5:00:00 AM 20.35 68.63 0.112 7.3 24.89 8.2
8/19/2021 5:15:00 AM 20.33 68.594 0.111 7.31 31.5 8.19
8/19/2021 5:30:00 AM 20.31 68.558 0.111 7.3 23.11 8.18
8/19/2021 5:45:00 AM 20.3 68.54 0.11 7.29 25.25 8.17
8/19/2021 6:00:00 AM 20.28 68.504 0.11 7.29 22.29 8.16
8/19/2021 6:15:00 AM 20.27 68.486 0.11 7.28 22.8 8.16
8/19/2021 6:30:00 AM 20.26 68.468 0.109 7.28 22.78 8.16
8/19/2021 6:45:00 AM 20.25 68.45 0.109 7.29 20.04 8.15
8/19/2021 7:00:00 AM 20.25 68.45 0.109 7.28 19.6 8.17
8/19/2021 7:15:00 AM 20.24 68.432 0.109 7.29 17.94 8.18
8/19/2021 7:30:00 AM 20.24 68.432 0.109 7.29 18.28 8.18
8/19/2021 7:45:00 AM 20.26 68.468 0.11 7.3 17.37 8.21
8/19/2021 8:00:00 AM 20.27 68.486 0.11 7.31 16.2 8.25
8/19/2021 8:15:00 AM 20.28 68.504 0.11 7.32 15.2 8.28
8/19/2021 8:30:00 AM 20.3 68.54 0.11 7.33 14.94 8.28
8/19/2021 8:45:00 AM 20.31 68.558 0.11 7.33 13.87 8.3
8/19/2021 9:00:00 AM 20.32 68.576 0.11 7.33 12.87 8.32
8/19/2021 9:15:00 AM 20.36 68.648 0.11 7.35 12.47 8.36
8/19/2021 9:30:00 AM 20.4 68.72 0.11 7.36 12.58 8.41
8/19/2021 9:45:00 AM 20.45 68.81 0.11 7.39 11.44 8.48
8/19/2021 10:00:00 AM 20.51 68.918 0.111 7.4 10.51 8.51
8/19/2021 10:15:00 AM 20.56 69.008 0.111 7.42 10.5 8.55
8/19/2021 10:30:00 AM 20.58 69.044 0.111 7.43 9.95 8.53
8/19/2021 10:45:00 AM 20.62 69.116 0.112 7.41 9.83 8.55
8/19/2021 11:00:00 AM 20.67 69.206 0.112 7.43 9.14 8.55
8/19/2021 11:15:00 AM 20.69 69.242 0.112 7.44 9.75 8.51
8/19/2021 11:30:00 AM 20.71 69.278 0.113 7.45 8.99 8.55
8/19/2021 11:45:00 AM 20.75 69.35 0.113 7.45 8.78 8.55
8/19/2021 12:00:00 PM 20.82 69.476 0.114 7.47 8.37 8.63
8/19/2021 12:15:00 PM 20.89 69.602 0.114 7.48 8.5 8.67
8/19/2021 12:30:00 PM 20.99 69.782 0.114 7.5 8.01 8.71
8/19/2021 12:45:00 PM 21.11 69.998 0.115 7.52 7.81 8.75
8/19/2021 1:00:00 PM 21.23 70.214 0.115 7.53 7.89 8.8
8/19/2021 1:15:00 PM 21.32 70.376 0.116 7.56 7.73 8.83
8/19/2021 1:30:00 PM 21.43 70.574 0.116 7.58 7.64 8.86
8/19/2021 1:45:00 PM 21.53 70.754 0.117 7.59 6.88 8.9
8/19/2021 2:00:00 PM 21.6 70.88 0.117 7.61 6.85 8.9
8/19/2021 2:15:00 PM 21.71 71.078 0.118 7.62 6.71 8.86
8/19/2021 2:30:00 PM 21.81 71.258 0.118 7.63 6.49 8.87
8/19/2021 2:45:00 PM 21.89 71.402 0.119 7.63 6.4 8.86
8/19/2021 3:00:00 PM 21.99 71.582 0.119 7.63 6.68 8.83
8/19/2021 3:15:00 PM 22.16 71.888 0.12 7.65 6.32 8.86
8/19/2021 3:30:00 PM 22.32 72.176 0.12 7.66 6.41 8.85
8/19/2021 3:45:00 PM 22.43 72.374 0.121 7.67 6.59 8.84
8/19/2021 4:00:00 PM 22.5 72.5 0.121 7.67 6.08 8.81
8/19/2021 4:15:00 PM 22.57 72.626 0.122 7.67 6.25 8.79
8/19/2021 4:30:00 PM 22.62 72.716 0.122 7.65 6.03 8.73
8/19/2021 4:45:00 PM 22.64 72.752 0.122 7.66 5.94 8.72
8/19/2021 5:00:00 PM 22.65 72.77 0.123 7.65 5.82 8.67
8/19/2021 5:15:00 PM 22.6 72.68 0.123 7.63 5.92 8.57
8/19/2021 5:30:00 PM 22.57 72.626 0.123 7.6 5.35 8.5
8/19/2021 5:45:00 PM 22.55 72.59 0.124 7.57 5.51 8.41
8/19/2021 6:00:00 PM 22.51 72.518 0.124 7.56 5.51 8.29
8/19/2021 6:15:00 PM 22.45 72.41 0.124 7.54 5.91 8.28
8/19/2021 6:30:00 PM 22.39 72.302 0.125 7.52 5.58 8.26
8/19/2021 6:45:00 PM 22.32 72.176 0.125 7.5 5.46 8.19
8/19/2021 7:00:00 PM 22.23 72.014 0.125 7.47 5.45 8.05
8/19/2021 7:15:00 PM 22.15 71.87 0.125 7.45 5.41 8.02
8/19/2021 7:30:00 PM 22.06 71.708 0.126 7.42 4.92 7.93
8/19/2021 7:45:00 PM 21.98 71.564 0.126 7.4 5.33 7.87
8/19/2021 8:00:00 PM 21.9 71.42 0.126 7.36 5.29 7.83
8/19/2021 8:15:00 PM 21.83 71.294 0.126 7.36 5.23 7.77
8/19/2021 8:30:00 PM 21.78 71.204 0.127 7.34 5.48 7.7
8/19/2021 8:45:00 PM 21.72 71.096 0.127 7.33 5.63 7.68
8/19/2021 9:00:00 PM 21.66 70.988 0.127 7.31 12.44 7.68
8/19/2021 9:15:00 PM 21.6 70.88 0.127 7.3 5.38 7.67
8/19/2021 9:30:00 PM 21.54 70.772 0.128 7.3 5.66 7.68
8/19/2021 9:45:00 PM 21.48 70.664 0.128 7.29 5.52 7.67
8/19/2021 10:00:00 PM 21.43 70.574 0.128 7.3 5.37 7.67
8/19/2021 10:15:00 PM 21.38 70.484 0.128 7.28 6.14 7.67
8/19/2021 10:30:00 PM 21.32 70.376 0.129 7.29 5.51 7.63
8/19/2021 10:45:00 PM 21.27 70.286 0.129 7.28 5.49 7.7
8/19/2021 11:00:00 PM 21.22 70.196 0.13 7.28 5.42 7.7
8/19/2021 11:15:00 PM 21.17 70.106 0.13 7.28 5.96 7.69
8/19/2021 11:30:00 PM 21.11 69.998 0.13 7.28 7.21 7.71
8/19/2021 11:45:00 PM 21.05 69.89 0.131 7.28 5.43 7.7
8/20/2021 12:00:00 AM 20.99 69.782 0.131 7.28 5.3 7.72
8/20/2021 12:15:00 AM 20.93 69.674 0.131 7.27 7.87 7.69
8/20/2021 12:30:00 AM 20.88 69.584 0.132 7.26 5.68 7.69
8/20/2021 12:45:00 AM 20.82 69.476 0.132 7.27 4.85 7.74
8/20/2021 1:00:00 AM 20.77 69.386 0.132 7.27 4.68 7.73
8/20/2021 1:15:00 AM 20.71 69.278 0.133 7.27 4.91 7.72
8/20/2021 1:30:00 AM 20.66 69.188 0.133 7.26 5.13 7.75
8/20/2021 1:45:00 AM 20.61 69.098 0.134 7.25 4.78 7.75
8/20/2021 2:00:00 AM 20.55 68.99 0.134 7.26 5.14 7.75
8/20/2021 2:15:00 AM 20.5 68.9 0.134 7.26 4.9 7.75
8/20/2021 2:30:00 AM 20.46 68.828 0.135 7.25 4.53 7.78
8/20/2021 2:45:00 AM 20.41 68.738 0.135 7.25 4.78 7.57
8/20/2021 3:00:00 AM 20.36 68.648 0.136 7.25 4.6 7.58
8/20/2021 3:15:00 AM 20.32 68.576 0.136 7.25 4.63 7.68
8/20/2021 3:30:00 AM 20.27 68.486 0.137 7.23 5.55 7.6
8/20/2021 3:45:00 AM 20.23 68.414 0.137 7.25 4.7 7.79
8/20/2021 4:00:00 AM 20.19 68.342 0.137 7.24 4.51 7.73
8/20/2021 4:15:00 AM 20.15 68.27 0.138 7.25 4.63 7.78
8/20/2021 4:30:00 AM 20.11 68.198 0.138 7.24 4.71 7.75
8/20/2021 4:45:00 AM 20.07 68.126 0.138 7.24 4.76 7.79
8/20/2021 5:00:00 AM 20.03 68.054 0.139 7.24 4.74 7.81
8/20/2021 5:15:00 AM 19.99 67.982 0.139 7.24 4.66 7.81
8/20/2021 5:30:00 AM 19.95 67.91 0.139 7.24 4.77 7.8
8/20/2021 5:45:00 AM 19.92 67.856 0.139 7.23 5.17 7.77
8/20/2021 6:00:00 AM 19.88 67.784 0.139 7.23 4.83 7.81
8/20/2021 6:15:00 AM 19.84 67.712 0.139 7.21 4.67 7.82
8/20/2021 6:30:00 AM 19.81 67.658 0.139 7.23 4.92 7.74
8/20/2021 6:45:00 AM 19.79 67.622 0.139 7.22 4.84 7.78
8/20/2021 7:00:00 AM 19.77 67.586 0.139 7.22 4.8 7.75
8/20/2021 7:15:00 AM 19.75 67.55 0.139 7.23 4.53 7.85
8/20/2021 7:30:00 AM 19.74 67.532 0.138 7.23 4.17 7.85
8/20/2021 7:45:00 AM 19.74 67.532 0.138 7.24 4.23 7.93
8/20/2021 8:00:00 AM 19.74 67.532 0.138 7.24 4.15 8
8/20/2021 8:15:00 AM 19.74 67.532 0.138 7.26 3.97 8.06
8/20/2021 8:30:00 AM 19.75 67.55 0.138 7.28 4.09 8.12
8/20/2021 8:45:00 AM 19.77 67.586 0.138 7.29 3.68 8.24
8/20/2021 9:00:00 AM 19.8 67.64 0.138 7.3 3.73 8.34
8/20/2021 9:15:00 AM 19.83 67.694 0.138 7.32 3.74 8.4
8/20/2021 9:30:00 AM 19.87 67.766 0.138 7.35 3.85 8.5
8/20/2021 9:45:00 AM 19.9 67.82 0.138 7.36 3.49 8.6
8/20/2021 10:00:00 AM 19.95 67.91 0.138 7.38 3.8 8.7
8/20/2021 10:15:00 AM 20 68 0.137 7.39 3.54 8.69
8/20/2021 10:30:00 AM 20.09 68.162 0.137 7.42 4.09 8.82
8/20/2021 10:45:00 AM 20.18 68.324 0.137 7.45 3.52 8.95
8/20/2021 11:00:00 AM 20.29 68.522 0.137 7.49 3.66 9.06
8/20/2021 11:15:00 AM 20.36 68.648 0.137 7.51 3.51 9.1
8/20/2021 11:30:00 AM 20.45 68.81 0.137 7.53 3.88 9.15
8/20/2021 11:45:00 AM 20.55 68.99 0.137 7.56 3.28 9.21
8/20/2021 12:00:00 PM 20.64 69.152 0.137 7.58 3.28 9.25
8/20/2021 12:15:00 PM 20.72 69.296 0.136 7.59 3.46 9.26
8/20/2021 12:30:00 PM 20.81 69.458 0.136 7.61 3.25 9.25
8/20/2021 12:45:00 PM 20.88 69.584 0.136 7.62 3.31 9.23
8/20/2021 1:00:00 PM 20.95 69.71 0.136 7.63 3.37 9.21
8/20/2021 1:15:00 PM 21.02 69.836 0.136 7.64 3.46 9.26
8/20/2021 1:30:00 PM 21.09 69.962 0.136 7.65 3.5 9.24
8/20/2021 1:45:00 PM 21.15 70.07 0.136 7.65 3.35 9.25
8/20/2021 2:00:00 PM 21.21 70.17799 0.136 7.66 3.24 9.25
8/20/2021 2:15:00 PM 21.22 70.196 0.136 7.64 3.44 9.12
8/20/2021 2:30:00 PM 21.2 70.16 0.135 7.61 3.35 8.95
8/20/2021 2:45:00 PM 21.18 70.124 0.135 7.57 3.37 8.79
8/20/2021 3:00:00 PM 21.19 70.142 0.135 7.55 3.13 8.76
8/20/2021 3:15:00 PM 21.21 70.17799 0.134 7.54 3.76 8.76
8/20/2021 3:30:00 PM 21.23 70.214 0.134 7.54 3.25 8.76
8/20/2021 3:45:00 PM 21.27 70.286 0.135 7.56 3.88 8.85
8/20/2021 4:00:00 PM 21.28 70.304 0.135 7.56 4.97 8.87
8/20/2021 4:15:00 PM 21.28 70.304 0.135 7.56 5.14 8.8
8/20/2021 4:30:00 PM 21.28 70.304 0.135 7.55 4.99 8.76
8/20/2021 4:45:00 PM 21.27 70.286 0.135 7.53 4.05 8.7
8/20/2021 5:00:00 PM 21.26 70.268 0.136 7.52 3.64 8.65
8/20/2021 5:15:00 PM 21.24 70.232 0.136 7.5 3.68 8.61
8/20/2021 5:30:00 PM 21.22 70.196 0.136 7.49 3.86 8.52
8/20/2021 5:45:00 PM 21.19 70.142 0.136 7.47 4.08 8.42
8/20/2021 6:00:00 PM 21.16 70.088 0.136 7.44 4.1 8.32
8/20/2021 6:15:00 PM 21.13 70.034 0.136 7.42 4.11 8.23
8/20/2021 6:30:00 PM 21.1 69.98 0.136 7.41 4.35 8.18
8/20/2021 6:45:00 PM 21.08 69.944 0.137 7.39 5.06 8.14
8/20/2021 7:00:00 PM 21.06 69.908 0.137 7.39 5.3 8.11
8/20/2021 7:15:00 PM 21.02 69.836 0.138 7.38 6.1 8.09
8/20/2021 7:30:00 PM 20.99 69.782 0.138 7.36 5.83 8
8/20/2021 7:45:00 PM 20.96 69.728 0.139 7.34 6.16 7.93
8/20/2021 8:00:00 PM 20.92 69.656 0.139 7.33 5.73 7.91
8/20/2021 8:15:00 PM 20.89 69.602 0.139 7.32 6.33 7.85
8/20/2021 8:30:00 PM 20.85 69.53 0.14 7.31 6.11 7.79
8/20/2021 8:45:00 PM 20.81 69.458 0.14 7.29 5.78 7.78
8/20/2021 9:00:00 PM 20.77 69.386 0.14 7.28 5.44 7.74
8/20/2021 9:15:00 PM 20.74 69.332 0.14 7.27 5.24 7.72
8/20/2021 9:30:00 PM 20.7 69.26 0.14 7.27 5.34 7.71
8/20/2021 9:45:00 PM 20.67 69.206 0.141 7.26 5.74 7.7
8/20/2021 10:00:00 PM 20.63 69.134 0.141 7.26 5.84 7.72
8/20/2021 10:15:00 PM 20.61 69.098 0.141 7.26 6.04 7.7
8/20/2021 10:30:00 PM 20.58 69.044 0.141 7.25 5.64 7.69
8/20/2021 10:45:00 PM 20.55 68.99 0.141 7.24 5.87 7.68
8/20/2021 11:00:00 PM 20.52 68.936 0.141 7.24 5.65 7.69
8/20/2021 11:15:00 PM 20.49 68.882 0.141 7.25 5.55 7.71
8/20/2021 11:30:00 PM 20.46 68.828 0.141 7.24 5.62 7.68
8/20/2021 11:45:00 PM 20.43 68.774 0.141 7.24 5.74 7.68
8/21/2021 12:00:00 AM 20.4 68.72 0.141 7.23 5.26 7.7
8/21/2021 12:15:00 AM 20.38 68.684 0.14 7.23 5.39 7.68
8/21/2021 12:30:00 AM 20.35 68.63 0.14 7.23 5.37 7.7
8/21/2021 12:45:00 AM 20.33 68.594 0.14 7.22 5.27 7.7
8/21/2021 1:00:00 AM 20.31 68.558 0.14 7.23 5.36 7.71
8/21/2021 1:15:00 AM 20.28 68.504 0.14 7.21 4.99 7.71
8/21/2021 1:30:00 AM 20.26 68.468 0.139 7.21 5.11 7.75
8/21/2021 1:45:00 AM 20.24 68.432 0.139 7.22 4.82 7.71
8/21/2021 2:00:00 AM 20.22 68.396 0.139 7.21 5.23 7.71
8/21/2021 2:15:00 AM 20.2 68.36 0.139 7.21 5.17 7.76
8/21/2021 2:30:00 AM 20.17 68.306 0.138 7.22 4.89 7.71
8/21/2021 2:45:00 AM 20.15 68.27 0.138 7.21 4.61 7.73
8/21/2021 3:00:00 AM 20.13 68.234 0.138 7.21 4.75 7.75
8/21/2021 3:15:00 AM 20.12 68.216 0.138 7.21 4.64 7.74
8/21/2021 3:30:00 AM 20.09 68.162 0.138 7.21 4.58 7.73
8/21/2021 3:45:00 AM 20.08 68.144 0.138 7.21 4.48 7.75
8/21/2021 4:00:00 AM 20.05 68.09 0.138 7.21 4.24 7.75
8/21/2021 4:15:00 AM 20.04 68.07201 0.139 7.21 4.45 7.75
8/21/2021 4:30:00 AM 20.02 68.036 0.139 7.2 4.93 7.74
8/21/2021 4:45:00 AM 20 68 0.139 7.2 4.76 7.75
8/21/2021 5:00:00 AM 19.99 67.982 0.139 7.2 4.24 7.74
8/21/2021 5:15:00 AM 19.98 67.964 0.139 7.19 4.2 7.73
8/21/2021 5:30:00 AM 19.96 67.92799 0.139 7.2 4.29 7.74
8/21/2021 5:45:00 AM 19.95 67.91 0.139 7.18 4.68 7.75
8/21/2021 6:00:00 AM 19.94 67.892 0.139 7.2 4.78 7.75
8/21/2021 6:15:00 AM 19.92 67.856 0.139 7.2 4.31 7.77
8/21/2021 6:30:00 AM 19.92 67.856 0.139 7.2 5.11 7.73
8/21/2021 6:45:00 AM 19.9 67.82 0.139 7.2 4.58 7.74
8/21/2021 7:00:00 AM 19.89 67.802 0.139 7.2 4.23 7.77
8/21/2021 7:15:00 AM 19.89 67.802 0.139 7.19 4.44 7.79
8/21/2021 7:30:00 AM 19.88 67.784 0.139 7.2 4.06 7.82
8/21/2021 7:45:00 AM 19.89 67.802 0.139 7.2 3.98 7.88
8/21/2021 8:00:00 AM 19.9 67.82 0.139 7.21 3.81 7.91
8/21/2021 8:15:00 AM 19.91 67.838 0.139 7.23 3.7 8.05
8/21/2021 8:30:00 AM 19.93 67.874 0.139 7.24 3.95 8.14
8/21/2021 8:45:00 AM 19.95 67.91 0.139 7.26 4.52 8.23
8/21/2021 9:00:00 AM 19.97 67.946 0.138 7.26 3.92 8.22
8/21/2021 9:15:00 AM 19.98 67.964 0.138 7.27 4.05 8.29
8/21/2021 9:30:00 AM 20.01 68.018 0.138 7.29 3.74 8.42
8/21/2021 9:45:00 AM 20.04 68.07201 0.138 7.3 3.71 8.5
8/21/2021 10:00:00 AM 20.07 68.126 0.138 7.33 3.62 8.6
8/21/2021 10:15:00 AM 20.1 68.18 0.138 7.34 3.92 8.6
8/21/2021 10:30:00 AM 20.13 68.234 0.137 7.36 3.57 8.62
8/21/2021 10:45:00 AM 20.16 68.288 0.137 7.37 3.66 8.72
8/21/2021 11:00:00 AM 20.23 68.414 0.136 7.4 3.47 8.81
8/21/2021 11:15:00 AM 20.31 68.558 0.136 7.42 3.55 8.94
8/21/2021 11:30:00 AM 20.42 68.756 0.136 7.46 3.56 9.08
8/21/2021 11:45:00 AM 20.52 68.936 0.136 7.48 4.36 9.18
8/21/2021 12:00:00 PM 20.65 69.17 0.136 7.55 7.53 9.32
8/21/2021 12:15:00 PM 20.73 69.314 0.136 7.56 7.71 9.29
8/21/2021 12:30:00 PM 20.78 69.404 0.135 7.57 6.79 9.3
8/21/2021 12:45:00 PM 20.88 69.584 0.135 7.61 5.68 9.38
8/21/2021 1:00:00 PM 21 69.8 0.135 7.62 5.45 9.4
8/21/2021 1:15:00 PM 21.15 70.07 0.135 7.66 5 9.44
8/21/2021 1:30:00 PM 21.26 70.268 0.135 7.68 5.4 9.42
8/21/2021 1:45:00 PM 21.34 70.412 0.135 7.7 5.6 9.43
8/21/2021 2:00:00 PM 21.44 70.592 0.136 7.71 5.02 9.42
8/21/2021 2:15:00 PM 21.6 70.88 0.136 7.74 5.15 9.45
8/21/2021 2:30:00 PM 21.78 71.204 0.136 7.78 5.53 9.49
8/21/2021 2:45:00 PM 21.94 71.492 0.137 7.82 6.34 9.5
8/21/2021 3:00:00 PM 22.04 71.672 0.137 7.84 6.64 9.48
8/21/2021 3:15:00 PM 22.1 71.78 0.137 7.83 6.76 9.45
8/21/2021 3:30:00 PM 22.16 71.888 0.138 7.85 7.14 9.41
8/21/2021 3:45:00 PM 22.24 72.032 0.138 7.87 6.38 9.4
8/21/2021 4:00:00 PM 22.31 72.158 0.138 7.87 6.35 9.33
8/21/2021 4:15:00 PM 22.37 72.266 0.139 7.87 5.88 9.32
8/21/2021 4:30:00 PM 22.4 72.32 0.139 7.85 5.58 9.22
8/21/2021 4:45:00 PM 22.45 72.41 0.139 7.82 5.56 9.17
8/21/2021 5:00:00 PM 22.52 72.536 0.139 7.81 5.27 9.13
8/21/2021 5:15:00 PM 22.58 72.644 0.14 7.8 5.23 9.08
8/21/2021 5:30:00 PM 22.63 72.734 0.14 7.81 5.22 9.04
8/21/2021 5:45:00 PM 22.65 72.77 0.14 7.77 5.62 8.98
8/21/2021 6:00:00 PM 22.62 72.716 0.14 7.77 5.25 8.92
8/21/2021 6:15:00 PM 22.57 72.626 0.14 7.73 5.24 8.83
8/21/2021 6:30:00 PM 22.48 72.464 0.14 7.69 4.86 8.72
8/21/2021 6:45:00 PM 22.41 72.338 0.141 7.63 5.1 8.59
8/21/2021 7:00:00 PM 22.34 72.212 0.141 7.59 5.54 8.46
8/21/2021 7:15:00 PM 22.26 72.068 0.141 7.54 5.07 8.32
8/21/2021 7:30:00 PM 22.19 71.942 0.141 7.5 5.03 8.17
8/21/2021 7:45:00 PM 22.11 71.798 0.141 7.45 4.7 8.02
8/21/2021 8:00:00 PM 22.02 71.636 0.141 7.41 5.42 7.94
8/21/2021 8:15:00 PM 21.93 71.474 0.141 7.39 4.94 7.83
8/21/2021 8:30:00 PM 21.84 71.312 0.141 7.36 4.74 7.71
8/21/2021 8:45:00 PM 21.76 71.168 0.141 7.34 4.61 7.65
8/21/2021 9:00:00 PM 21.68 71.024 0.141 7.3 4.61 7.56
8/21/2021 9:15:00 PM 21.61 70.898 0.141 7.29 4.64 7.52
8/21/2021 9:30:00 PM 21.53 70.754 0.141 7.26 4.5 7.52
8/21/2021 9:45:00 PM 21.47 70.646 0.141 7.27 4.62 7.5
8/21/2021 10:00:00 PM 21.4 70.52 0.141 7.26 4.45 7.47
8/21/2021 10:15:00 PM 21.34 70.412 0.141 7.25 4.55 7.48
8/21/2021 10:30:00 PM 21.28 70.304 0.141 7.25 4.71 7.46
8/21/2021 10:45:00 PM 21.22 70.196 0.141 7.24 4.44 7.49
8/21/2021 11:00:00 PM 21.16 70.088 0.141 7.23 4.46 7.51
8/21/2021 11:15:00 PM 21.11 69.998 0.141 7.22 4.55 7.49
8/21/2021 11:30:00 PM 21.06 69.908 0.14 7.22 4.75 7.5
8/21/2021 11:45:00 PM 21.02 69.836 0.14 7.22 4.55 7.47
8/22/2021 12:00:00 AM 20.97 69.746 0.14 7.23 4.86 7.5
8/22/2021 12:15:00 AM 20.92 69.656 0.14 7.23 4.58 7.5
8/22/2021 12:30:00 AM 20.87 69.566 0.14 7.23 4.54 7.54
8/22/2021 12:45:00 AM 20.82 69.476 0.14 7.2 4.44 7.51
8/22/2021 1:00:00 AM 20.77 69.386 0.14 7.21 5.9 7.52
8/22/2021 1:15:00 AM 20.72 69.296 0.14 7.21 4.51 7.55
8/22/2021 1:30:00 AM 20.68 69.224 0.14 7.2 4.45 7.54
8/22/2021 1:45:00 AM 20.65 69.17 0.14 7.21 4.54 7.53
8/22/2021 2:00:00 AM 20.61 69.098 0.14 7.19 4.82 7.51
8/22/2021 2:15:00 AM 20.57 69.026 0.14 7.21 4.45 7.55
8/22/2021 2:30:00 AM 20.53 68.954 0.14 7.2 4.41 7.54
8/22/2021 2:45:00 AM 20.48 68.864 0.14 7.2 4.21 7.54
8/22/2021 3:00:00 AM 20.46 68.828 0.14 7.19 4.41 7.55
8/22/2021 3:15:00 AM 20.41 68.738 0.14 7.2 4.68 7.56
8/22/2021 3:30:00 AM 20.38 68.684 0.14 7.2 4.38 7.59
8/22/2021 3:45:00 AM 20.34 68.612 0.14 7.2 4.51 7.51
8/22/2021 4:00:00 AM 20.31 68.558 0.14 7.2 4.51 7.55
8/22/2021 4:15:00 AM 20.28 68.504 0.14 7.19 4.3 7.58
8/22/2021 4:30:00 AM 20.25 68.45 0.14 7.2 4.56 7.56
8/22/2021 4:45:00 AM 20.23 68.414 0.14 7.19 4.54 7.58
8/22/2021 5:00:00 AM 20.21 68.378 0.14 7.19 4.4 7.63
8/22/2021 5:15:00 AM 20.19 68.342 0.14 7.2 4.57 7.5
8/22/2021 5:30:00 AM 20.16 68.288 0.14 7.19 4.56 7.59
8/22/2021 5:45:00 AM 20.15 68.27 0.14 7.19 4.53 7.52
8/22/2021 6:00:00 AM 20.12 68.216 0.14 7.19 4.39 7.54
8/22/2021 6:15:00 AM 20.11 68.198 0.14 7.19 4.21 7.52
8/22/2021 6:30:00 AM 20.08 68.144 0.14 7.19 4.34 7.59
8/22/2021 6:45:00 AM 20.07 68.126 0.14 7.19 4.52 7.61
8/22/2021 7:00:00 AM 20.05 68.09 0.141 7.19 4.09 7.65
8/22/2021 7:15:00 AM 20.04 68.07201 0.141 7.19 3.96 7.7
8/22/2021 7:30:00 AM 20.03 68.054 0.141 7.19 3.75 7.65
8/22/2021 7:45:00 AM 20.02 68.036 0.141 7.21 3.79 7.81
8/22/2021 8:00:00 AM 20.03 68.054 0.141 7.22 3.56 7.89
8/22/2021 8:15:00 AM 20.06 68.108 0.14 7.24 3.63 8.05
8/22/2021 8:30:00 AM 20.1 68.18 0.14 7.27 3.62 8.21
8/22/2021 8:45:00 AM 20.17 68.306 0.14 7.29 3.56 8.41
8/22/2021 9:00:00 AM 20.21 68.378 0.14 7.31 3.58 8.47
8/22/2021 9:15:00 AM 20.23 68.414 0.14 7.33 3.57 8.54
8/22/2021 9:30:00 AM 20.25 68.45 0.14 7.35 3.37 8.62
8/22/2021 9:45:00 AM 20.28 68.504 0.14 7.37 3.38 8.71
8/22/2021 10:00:00 AM 20.32 68.576 0.14 7.38 3.15 8.7
8/22/2021 10:15:00 AM 20.4 68.72 0.14 7.41 3.05 8.93
8/22/2021 10:30:00 AM 20.52 68.936 0.14 7.45 3.03 9.04
8/22/2021 10:45:00 AM 20.64 69.152 0.14 7.49 3.11 9.19
8/22/2021 11:00:00 AM 20.72 69.296 0.139 7.51 3.02 9.18
8/22/2021 11:15:00 AM 20.8 69.44 0.139 7.52 2.99 9.21
8/22/2021 11:30:00 AM 20.87 69.566 0.139 7.55 3.1 9.32
8/22/2021 11:45:00 AM 20.94 69.692 0.139 7.58 3.06 9.35
8/22/2021 12:00:00 PM 21.01 69.818 0.139 7.59 3.08 9.31
8/22/2021 12:15:00 PM 21.06 69.908 0.139 7.61 2.91 9.3
8/22/2021 12:30:00 PM 21.11 69.998 0.139 7.61 2.89 9.32
8/22/2021 12:45:00 PM 21.16 70.088 0.139 7.62 2.89 9.29
8/22/2021 1:00:00 PM 21.21 70.17799 0.139 7.62 2.88 9.26
8/22/2021 1:15:00 PM 21.28 70.304 0.139 7.64 2.87 9.34
8/22/2021 1:30:00 PM 21.34 70.412 0.139 7.65 2.85 9.36
8/22/2021 1:45:00 PM 21.39 70.502 0.139 7.66 3.42 9.31
8/22/2021 2:00:00 PM 21.42 70.556 0.139 7.67 3.15 9.28
8/22/2021 2:15:00 PM 21.45 70.61 0.139 7.66 3.04 9.26
8/22/2021 2:30:00 PM 21.49 70.682 0.139 7.67 3.26 9.22
8/22/2021 2:45:00 PM 21.53 70.754 0.139 7.67 3.01 9.23
8/22/2021 3:00:00 PM 21.56 70.808 0.139 7.67 3.02 9.26
8/22/2021 3:15:00 PM 21.59 70.862 0.139 7.66 3.03 9.14
8/22/2021 3:30:00 PM 21.61 70.898 0.139 7.66 3.11 9.12
8/22/2021 3:45:00 PM 21.62 70.916 0.139 7.64 3.25 9.06
8/22/2021 4:00:00 PM 21.63 70.934 0.139 7.63 3.15 9.05
8/22/2021 4:15:00 PM 21.64 70.952 0.139 7.62 2.93 9
8/22/2021 4:30:00 PM 21.64 70.952 0.139 7.6 2.98 8.98
8/22/2021 4:45:00 PM 21.65 70.97 0.139 7.59 3.14 8.87
8/22/2021 5:00:00 PM 21.65 70.97 0.139 7.58 3.09 8.86
8/22/2021 5:15:00 PM 21.66 70.988 0.139 7.57 3.18 8.85
8/22/2021 5:30:00 PM 21.65 70.97 0.139 7.55 3.22 8.72
8/22/2021 5:45:00 PM 21.64 70.952 0.14 7.53 3.21 8.65
8/22/2021 6:00:00 PM 21.61 70.898 0.14 7.5 3.16 8.53
8/22/2021 6:15:00 PM 21.59 70.862 0.14 7.46 3.23 8.37
8/22/2021 6:30:00 PM 21.56 70.808 0.14 7.43 3.37 8.22
8/22/2021 6:45:00 PM 21.53 70.754 0.14 7.4 3.21 8.08
8/22/2021 7:00:00 PM 21.49 70.682 0.14 7.37 3.25 8.01
8/22/2021 7:15:00 PM 21.46 70.628 0.14 7.34 3.32 7.89
8/22/2021 7:30:00 PM 21.43 70.574 0.14 7.32 3.42 7.74
8/22/2021 7:45:00 PM 21.39 70.502 0.14 7.3 3.47 7.63
8/22/2021 8:00:00 PM 21.35 70.43 0.14 7.29 3.33 7.61
8/22/2021 8:15:00 PM 21.32 70.376 0.14 7.28 3.43 7.52
8/22/2021 8:30:00 PM 21.28 70.304 0.14 7.26 3.24 7.48
8/22/2021 8:45:00 PM 21.25 70.25 0.139 7.25 3.29 7.4
8/22/2021 9:00:00 PM 21.23 70.214 0.139 7.25 3.56 7.38
8/22/2021 9:15:00 PM 21.22 70.196 0.136 7.25 4.13 7.52
8/22/2021 9:30:00 PM 21.2 70.16 0.135 7.25 4.09 7.52
8/22/2021 9:45:00 PM 21.17 70.106 0.133 7.25 4.19 7.55
8/22/2021 10:00:00 PM 21.14 70.052 0.132 7.23 6.03 7.53
8/22/2021 10:15:00 PM 21.1 69.98 0.132 7.24 17.13 7.56
8/22/2021 10:30:00 PM 21.05 69.89 0.129 7.25 195.19 7.65
8/22/2021 10:45:00 PM 21 69.8 0.128 7.28 175.33 7.76
8/22/2021 11:00:00 PM 20.97 69.746 0.126 7.29 76.33 7.82
8/22/2021 11:15:00 PM 20.88 69.584 0.119 7.27 143.05 7.88
8/22/2021 11:30:00 PM 20.79 69.422 0.123 7.29 176.53 8.01
8/22/2021 11:45:00 PM 20.72 69.296 0.124 7.33 124.65 8.1
8/23/2021 12:00:00 AM 20.66 69.188 0.121 7.34 125.64 8.15
8/23/2021 12:15:00 AM 20.58 69.044 0.115 7.32 178.78 8.19
8/23/2021 12:30:00 AM 20.49 68.882 0.111 7.32 144.64 8.26
8/23/2021 12:45:00 AM 20.42 68.756 0.109 7.24 140.23 8.3
8/23/2021 1:00:00 AM 20.36 68.648 0.103 7.19 120.69 8.34
8/23/2021 1:15:00 AM 20.29 68.522 0.101 7.16 135.73 8.37
8/23/2021 1:30:00 AM 20.26 68.468 0.1 7.15 120.61 8.38
8/23/2021 1:45:00 AM 20.24 68.432 0.097 7.15 103.53 8.37
8/23/2021 2:00:00 AM 20.23 68.414 0.095 7.17 94.37 8.38
8/23/2021 2:15:00 AM 20.24 68.432 0.094 7.21 76.74 8.37
8/23/2021 2:30:00 AM 20.25 68.45 0.094 7.25 75.25 8.36
8/23/2021 2:45:00 AM 20.26 68.468 0.093 7.27 80.46 8.35
8/23/2021 3:00:00 AM 20.26 68.468 0.093 7.28 64.63 8.34
8/23/2021 3:15:00 AM 20.26 68.468 0.092 7.29 69.15 8.34
8/23/2021 3:30:00 AM 20.26 68.468 0.092 7.3 45.73 8.35
8/23/2021 3:45:00 AM 20.25 68.45 0.091 7.3 47.34 8.36
8/23/2021 4:00:00 AM 20.24 68.432 0.091 7.31 75.49 8.36
8/23/2021 4:15:00 AM 20.23 68.414 0.09 7.32 57 8.37
8/23/2021 4:30:00 AM 20.22 68.396 0.09 7.31 66.02 8.36
8/23/2021 4:45:00 AM 20.2 68.36 0.09 7.26 104.49 8.38
8/23/2021 5:00:00 AM 20.19 68.342 0.091 7.14 157.64 8.39
8/23/2021 5:15:00 AM 20.16 68.288 0.088 7.07 296.05 8.4
8/23/2021 5:30:00 AM 20.15 68.27 0.084 7 284.79 8.42
8/23/2021 5:45:00 AM 20.13 68.234 0.081 7 246.19 8.44
8/23/2021 6:00:00 AM 20.12 68.216 0.08 6.99 254.55 8.45
8/23/2021 6:15:00 AM 20.1 68.18 0.08 7.01 198.91 8.45
8/23/2021 6:30:00 AM 20.09 68.162 0.08 7.03 145.19 8.46
8/23/2021 6:45:00 AM 20.09 68.162 0.08 7.06 145.52 8.46
8/23/2021 7:00:00 AM 20.09 68.162 0.082 7.1 113.45 8.46
8/23/2021 7:15:00 AM 20.09 68.162 0.084 7.14 106.83 8.46
8/23/2021 7:30:00 AM 20.1 68.18 0.085 7.18 89.28 8.47
8/23/2021 7:45:00 AM 20.11 68.198 0.085 7.2 78.38 8.46
8/23/2021 8:00:00 AM 20.12 68.216 0.085 7.21 67.92 8.46
8/23/2021 8:15:00 AM 20.14 68.252 0.085 7.23 56.35 8.46
8/23/2021 8:30:00 AM 20.15 68.27 0.084 7.24 47.15 8.46
8/23/2021 8:45:00 AM 20.17 68.306 0.085 7.24 49.06 8.47
8/23/2021 9:00:00 AM 20.18 68.324 0.085 7.25 45.97 8.47
8/23/2021 9:15:00 AM 20.2 68.36 0.085 7.24 42.94 8.46
8/23/2021 9:30:00 AM 20.22 68.396 0.086 7.26 34.68 8.47
8/23/2021 9:45:00 AM 20.3 68.54 0.087 7.28 34.23 8.5
8/23/2021 10:00:00 AM 20.35 68.63 0.088 7.29 32.64 8.52
8/23/2021 10:15:00 AM 20.4 68.72 0.089 7.3 31.82 8.52
8/23/2021 10:30:00 AM 20.44 68.792 0.089 7.31 29.41 8.52
8/23/2021 10:45:00 AM 20.48 68.864 0.09 7.31 29.6 8.51
8/23/2021 11:00:00 AM 20.55 68.99 0.091 7.32 27.18 8.53
8/23/2021 11:15:00 AM 20.65 69.17 0.092 7.34 30.05 8.55
8/23/2021 11:30:00 AM 20.75 69.35 0.093 7.35 26.5 8.56
8/23/2021 11:45:00 AM 20.82 69.476 0.094 7.36 25.76 8.55
8/23/2021 12:00:00 PM 20.89 69.602 0.095 7.37 25.17 8.54
8/23/2021 12:15:00 PM 20.99 69.782 0.095 7.37 23.28 8.51
8/23/2021 12:30:00 PM 21.08 69.944 0.096 7.38 21 8.5
8/23/2021 12:45:00 PM 21.23 70.214 0.097 7.39 22.71 8.52
8/23/2021 1:00:00 PM 21.32 70.376 0.097 7.39 21.09 8.5
8/23/2021 1:15:00 PM 21.43 70.574 0.098 7.4 21.12 8.51
8/23/2021 1:30:00 PM 21.55 70.79 0.099 7.41 21.36 8.53
8/23/2021 1:45:00 PM 21.65 70.97 0.1 7.42 23.21 8.51
8/23/2021 2:00:00 PM 21.72 71.096 0.101 7.42 19.64 8.5
8/23/2021 2:15:00 PM 21.75 71.15 0.101 7.42 19.2 8.47
8/23/2021 2:30:00 PM 21.83 71.294 0.102 7.42 18.5 8.46
8/23/2021 2:45:00 PM 21.98 71.564 0.102 7.43 18.13 8.47
8/23/2021 3:00:00 PM 22.09 71.762 0.102 7.44 18.11 8.47
8/23/2021 3:15:00 PM 22.23 72.014 0.103 7.44 17.49 8.45
8/23/2021 3:30:00 PM 22.34 72.212 0.103 7.44 17.4 8.44
8/23/2021 3:45:00 PM 22.3 72.14 0.103 7.43 16.84 8.38
8/23/2021 4:00:00 PM 22.31 72.158 0.103 7.42 17.16 8.35
8/23/2021 4:15:00 PM 22.36 72.248 0.102 7.42 16.32 8.36
8/23/2021 4:30:00 PM 22.38 72.284 0.102 7.42 16.29 8.36
8/23/2021 4:45:00 PM 22.4 72.32 0.102 7.42 16.38 8.34
8/23/2021 5:00:00 PM 22.38 72.284 0.102 7.41 16.13 8.29
8/23/2021 5:15:00 PM 22.29 72.122 0.103 7.39 15.72 8.22
8/23/2021 5:30:00 PM 22.21 71.978 0.103 7.37 16.36 8.15
8/23/2021 5:45:00 PM 22.19 71.942 0.104 7.36 15.94 8.17
8/23/2021 6:00:00 PM 22.13 71.834 0.105 7.35 15.7 8.15
8/23/2021 6:15:00 PM 22.06 71.708 0.106 7.34 15.59 8.15
8/23/2021 6:30:00 PM 22 71.6 0.106 7.33 14.58 8.14
8/23/2021 6:45:00 PM 21.94 71.492 0.106 7.32 15.31 8.12
8/23/2021 7:00:00 PM 21.87 71.366 0.105 7.31 15.47 8.1
8/23/2021 7:15:00 PM 21.81 71.258 0.105 7.3 15.3 8.09
8/23/2021 7:30:00 PM 21.77 71.186 0.104 7.29 15.17 8.06
8/23/2021 7:45:00 PM 21.73 71.114 0.104 7.28 14.79 8.06
8/23/2021 8:00:00 PM 21.67 71.006 0.104 7.28 15.09 8.06
8/23/2021 8:15:00 PM 21.62 70.916 0.104 7.27 15.24 8.06
8/23/2021 8:30:00 PM 21.58 70.844 0.103 7.27 14.69 8.05
8/23/2021 8:45:00 PM 21.53 70.754 0.103 7.27 17.66 8.05
8/23/2021 9:00:00 PM 21.48 70.664 0.102 7.26 17.65 8.07
8/23/2021 9:15:00 PM 21.42 70.556 0.102 7.26 17.94 8.07
8/23/2021 9:30:00 PM 21.36 70.448 0.103 7.25 17.34 8.08
8/23/2021 9:45:00 PM 21.31 70.358 0.103 7.25 18.51 8.09
8/23/2021 10:00:00 PM 21.25 70.25 0.103 7.25 19.94 8.1
8/23/2021 10:15:00 PM 21.2 70.16 0.103 7.25 18.27 8.11
8/23/2021 10:30:00 PM 21.16 70.088 0.103 7.25 18.33 8.11
8/23/2021 10:45:00 PM 21.12 70.016 0.104 7.25 16.78 8.12
8/23/2021 11:00:00 PM 21.08 69.944 0.104 7.25 17.08 8.13
8/23/2021 11:15:00 PM 21.04 69.872 0.104 7.25 15.41 8.13
8/23/2021 11:30:00 PM 21 69.8 0.104 7.24 15.23 8.14
8/23/2021 11:45:00 PM 20.97 69.746 0.104 7.24 15.02 8.15
8/24/2021 12:00:00 AM 20.95 69.71 0.104 7.23 15.08 8.14
8/24/2021 12:15:00 AM 20.91 69.638 0.104 7.24 14.38 8.14
8/24/2021 12:30:00 AM 20.88 69.584 0.104 7.23 13.73 8.15
8/24/2021 12:45:00 AM 20.86 69.548 0.104 7.23 14.69 8.15
8/24/2021 1:00:00 AM 20.82 69.476 0.104 7.23 14.22 8.15
8/24/2021 1:15:00 AM 20.79 69.422 0.104 7.22 13.9 8.16
8/24/2021 1:30:00 AM 20.75 69.35 0.104 7.22 13.32 8.16
8/24/2021 1:45:00 AM 20.71 69.278 0.104 7.22 13.37 8.17
8/24/2021 2:00:00 AM 20.68 69.224 0.104 7.22 13.17 8.17
8/24/2021 2:15:00 AM 20.64 69.152 0.105 7.22 13.11 8.17
8/24/2021 2:30:00 AM 20.61 69.098 0.105 7.21 13.22 8.17
8/24/2021 2:45:00 AM 20.57 69.026 0.105 7.22 13.22 8.18
8/24/2021 3:00:00 AM 20.55 68.99 0.105 7.21 12.6 8.18
8/24/2021 3:15:00 AM 20.52 68.936 0.105 7.21 12.65 8.18
8/24/2021 3:30:00 AM 20.48 68.864 0.106 7.21 11.75 8.19
8/24/2021 3:45:00 AM 20.44 68.792 0.106 7.21 11.94 8.2
8/24/2021 4:00:00 AM 20.4 68.72 0.106 7.21 11.25 8.2
8/24/2021 4:15:00 AM 20.36 68.648 0.106 7.21 11.64 8.22
8/24/2021 4:30:00 AM 20.32 68.576 0.106 7.21 13.46 8.22
8/24/2021 4:45:00 AM 20.28 68.504 0.106 7.21 11.79 8.21
8/24/2021 5:00:00 AM 20.23 68.414 0.107 7.21 12.37 8.22
8/24/2021 5:15:00 AM 20.18 68.324 0.107 7.2 12.77 8.24
8/24/2021 5:30:00 AM 20.15 68.27 0.107 7.2 12.58 8.24
8/24/2021 5:45:00 AM 20.1 68.18 0.107 7.2 12.7 8.25
8/24/2021 6:00:00 AM 20.06 68.108 0.107 7.2 13.14 8.24
8/24/2021 6:15:00 AM 20.01 68.018 0.107 7.2 12.88 8.27
8/24/2021 6:30:00 AM 19.96 67.92799 0.107 7.19 13.71 8.27
8/24/2021 6:45:00 AM 19.92 67.856 0.108 7.2 12.33 8.29
8/24/2021 7:00:00 AM 19.88 67.784 0.108 7.2 12.46 8.3
8/24/2021 7:15:00 AM 19.84 67.712 0.108 7.21 12.96 8.33
8/24/2021 7:30:00 AM 19.81 67.658 0.108 7.21 12.4 8.36
8/24/2021 7:45:00 AM 19.79 67.622 0.108 7.22 12.05 8.39
8/24/2021 8:00:00 AM 19.77 67.586 0.108 7.22 11.96 8.41
8/24/2021 8:15:00 AM 19.76 67.568 0.108 7.23 11.28 8.44
8/24/2021 8:30:00 AM 19.76 67.568 0.109 7.24 11.07 8.48
8/24/2021 8:45:00 AM 19.78 67.604 0.109 7.25 10.49 8.51
8/24/2021 9:00:00 AM 19.81 67.658 0.109 7.26 10.41 8.52
8/24/2021 9:15:00 AM 19.84 67.712 0.109 7.27 9.78 8.56
8/24/2021 9:30:00 AM 19.9 67.82 0.109 7.29 9.84 8.61
8/24/2021 9:45:00 AM 19.95 67.91 0.109 7.3 10.36 8.64
8/24/2021 10:00:00 AM 20.02 68.036 0.109 7.31 9.03 8.67
8/24/2021 10:15:00 AM 20.12 68.216 0.109 7.33 9.19 8.73
8/24/2021 10:30:00 AM 20.25 68.45 0.109 7.35 9.1 8.77
8/24/2021 10:45:00 AM 20.38 68.684 0.109 7.37 9.09 8.79
8/24/2021 11:00:00 AM 20.51 68.918 0.109 7.38 9.47 8.79
8/24/2021 11:15:00 AM 20.68 69.224 0.109 7.39 10.38 8.79
8/24/2021 11:30:00 AM 20.85 69.53 0.109 7.4 10.16 8.79
8/24/2021 11:45:00 AM 21.04 69.872 0.11 7.41 9.89 8.79
8/24/2021 12:00:00 PM 21.25 70.25 0.11 7.42 9.7 8.79
8/24/2021 12:15:00 PM 21.49 70.682 0.11 7.43 9.39 8.78
8/24/2021 12:30:00 PM 21.74 71.132 0.11 7.44 9.44 8.78
8/24/2021 12:45:00 PM 22 71.6 0.11 7.46 9.88 8.78
8/24/2021 1:00:00 PM 22.25 72.05 0.11 7.47 9.72 8.77
8/24/2021 1:15:00 PM 22.48 72.464 0.11 7.48 9.89 8.76
8/24/2021 1:30:00 PM 22.71 72.878 0.11 7.49 9.68 8.74
8/24/2021 1:45:00 PM 22.94 73.292 0.11 7.5 9.71 8.73
8/24/2021 2:00:00 PM 23.13 73.634 0.111 7.5 9.57 8.7
8/24/2021 2:15:00 PM 23.31 73.958 0.111 7.51 9.07 8.68
8/24/2021 2:30:00 PM 23.47 74.246 0.111 7.52 8.95 8.65
8/24/2021 2:45:00 PM 23.59 74.462 0.111 7.51 9.06 8.61
8/24/2021 3:00:00 PM 23.71 74.67799 0.111 7.52 8.57 8.59
8/24/2021 3:15:00 PM 23.8 74.84 0.111 7.52 8.79 8.56
8/24/2021 3:30:00 PM 23.86 74.948 0.111 7.51 8.77 8.53
8/24/2021 3:45:00 PM 23.89 75.002 0.111 7.51 8.77 8.49
8/24/2021 4:00:00 PM 23.91 75.038 0.111 7.5 8.53 8.45
8/24/2021 4:15:00 PM 23.88 74.984 0.111 7.49 8.52 8.42
8/24/2021 4:30:00 PM 23.84 74.912 0.111 7.48 8.34 8.38
8/24/2021 4:45:00 PM 23.79 74.82201 0.111 7.47 8.76 8.36
8/24/2021 5:00:00 PM 23.72 74.696 0.111 7.45 8.79 8.32
8/24/2021 5:15:00 PM 23.62 74.516 0.111 7.44 9.15 8.29
8/24/2021 5:30:00 PM 23.52 74.336 0.111 7.43 8.42 8.25
8/24/2021 5:45:00 PM 23.42 74.156 0.111 7.41 8.43 8.21
8/24/2021 6:00:00 PM 23.31 73.958 0.111 7.39 8.35 8.16
8/24/2021 6:15:00 PM 23.18 73.724 0.111 7.37 8.9 8.11
8/24/2021 6:30:00 PM 23.06 73.508 0.111 7.36 8.99 8.07
8/24/2021 6:45:00 PM 22.93 73.274 0.112 7.34 8.87 8.01
8/24/2021 7:00:00 PM 22.8 73.04 0.112 7.32 8.9 7.96
8/24/2021 7:15:00 PM 22.66 72.788 0.112 7.3 8.79 7.92
8/24/2021 7:30:00 PM 22.54 72.57201 0.112 7.28 8.84 7.88
8/24/2021 7:45:00 PM 22.42 72.356 0.113 7.27 8.7 7.85
8/24/2021 8:00:00 PM 22.31 72.158 0.113 7.25 8.49 7.82
8/24/2021 8:15:00 PM 22.18 71.924 0.114 7.24 8.59 7.81
8/24/2021 8:30:00 PM 22.08 71.744 0.114 7.23 8.62 7.79
8/24/2021 8:45:00 PM 21.96 71.528 0.115 7.22 8.97 7.8
8/24/2021 9:00:00 PM 21.86 71.348 0.115 7.21 8.44 7.8
8/24/2021 9:15:00 PM 21.75 71.15 0.116 7.21 8.34 7.82
8/24/2021 9:30:00 PM 21.66 70.988 0.116 7.21 8.26 7.81
8/24/2021 9:45:00 PM 21.56 70.808 0.117 7.21 8.5 7.82
8/24/2021 10:00:00 PM 21.46 70.628 0.117 7.21 8.79 7.86
8/24/2021 10:15:00 PM 21.37 70.466 0.117 7.2 8.52 7.86
8/24/2021 10:30:00 PM 21.27 70.286 0.118 7.2 8.54 7.89
8/24/2021 10:45:00 PM 21.19 70.142 0.118 7.2 8.78 7.89
8/24/2021 11:00:00 PM 21.09 69.962 0.119 7.2 8.84 7.92
8/24/2021 11:15:00 PM 21.01 69.818 0.119 7.19 9.07 7.93
8/24/2021 11:30:00 PM 20.92 69.656 0.119 7.19 8.68 7.95
8/24/2021 11:45:00 PM 20.84 69.512 0.119 7.19 9.73 7.96
8/25/2021 12:00:00 AM 20.76 69.368 0.12 7.19 8.95 7.96
8/25/2021 12:15:00 AM 20.68 69.224 0.12 7.19 8.97 7.98
8/25/2021 12:30:00 AM 20.59 69.062 0.12 7.19 9.22 8.01
8/25/2021 12:45:00 AM 20.52 68.936 0.12 7.18 8.87 8.02
8/25/2021 1:00:00 AM 20.44 68.792 0.121 7.19 8.85 8.05
8/25/2021 1:15:00 AM 20.37 68.666 0.121 7.19 8.72 8.05
8/25/2021 1:30:00 AM 20.3 68.54 0.121 7.18 9.5 8.07
8/25/2021 1:45:00 AM 20.23 68.414 0.121 7.18 9.83 8.09
8/25/2021 2:00:00 AM 20.16 68.288 0.121 7.18 11.05 8.1
8/25/2021 2:15:00 AM 20.1 68.18 0.121 7.18 10.18 8.11
8/25/2021 2:30:00 AM 20.04 68.07201 0.122 7.18 10.12 8.11
8/25/2021 2:45:00 AM 19.98 67.964 0.122 7.18 9.69 8.13
8/25/2021 3:00:00 AM 19.92 67.856 0.122 7.18 9.93 8.12
8/25/2021 3:15:00 AM 19.87 67.766 0.122 7.18 10.37 8.14
8/25/2021 3:30:00 AM 19.81 67.658 0.122 7.18 10.71 8.14
8/25/2021 3:45:00 AM 19.74 67.532 0.122 7.18 9.79 8.18
8/25/2021 4:00:00 AM 19.7 67.46 0.123 7.18 9.68 8.17
8/25/2021 4:15:00 AM 19.64 67.352 0.123 7.18 9.68 8.19
8/25/2021 4:30:00 AM 19.59 67.262 0.123 7.18 10.28 8.2
8/25/2021 4:45:00 AM 19.54 67.172 0.123 7.18 9.62 8.21
8/25/2021 5:00:00 AM 19.48 67.064 0.123 7.18 9.89 8.22
8/25/2021 5:15:00 AM 19.44 66.992 0.123 7.17 9.84 8.21
8/25/2021 5:30:00 AM 19.39 66.902 0.123 7.17 9.63 8.24
8/25/2021 5:45:00 AM 19.33 66.794 0.123 7.17 10.61 8.25
8/25/2021 6:00:00 AM 19.29 66.722 0.123 7.17 9.85 8.25
8/25/2021 6:15:00 AM 19.25 66.65 0.124 7.17 9.14 8.25
8/25/2021 6:30:00 AM 19.2 66.56 0.124 7.17 8.88 8.27
8/25/2021 6:45:00 AM 19.16 66.488 0.124 7.17 8.7 8.3
8/25/2021 7:00:00 AM 19.12 66.416 0.124 7.18 8.87 8.33
8/25/2021 7:15:00 AM 19.1 66.38 0.124 7.18 8.87 8.37
8/25/2021 7:30:00 AM 19.07 66.326 0.124 7.19 8.83 8.43
8/25/2021 7:45:00 AM 19.05 66.29 0.124 7.2 8.73 8.49
8/25/2021 8:00:00 AM 19.04 66.272 0.124 7.21 8.2 8.54
8/25/2021 8:15:00 AM 19.04 66.272 0.124 7.21 7.67 8.58
8/25/2021 8:30:00 AM 19.04 66.272 0.124 7.23 7.61 8.63
8/25/2021 8:45:00 AM 19.06 66.308 0.124 7.24 7.03 8.69
8/25/2021 9:00:00 AM 19.09 66.362 0.124 7.25 10.96 8.74
8/25/2021 9:15:00 AM 19.14 66.452 0.124 7.26 10.36 8.81
8/25/2021 9:30:00 AM 19.22 66.596 0.124 7.28 6.68 8.85
8/25/2021 9:45:00 AM 19.32 66.776 0.124 7.3 6.74 8.91
8/25/2021 10:00:00 AM 19.45 67.01 0.124 7.31 6.86 8.97
8/25/2021 10:15:00 AM 19.6 67.28 0.124 7.34 6.35 9.04
8/25/2021 10:30:00 AM 19.75 67.55 0.124 7.35 6.33 9.08
8/25/2021 10:45:00 AM 19.92 67.856 0.124 7.38 6.94 9.13
8/25/2021 11:00:00 AM 20.09 68.162 0.124 7.4 7.55 9.15
8/25/2021 11:15:00 AM 20.27 68.486 0.124 7.41 6.31 9.15
8/25/2021 11:30:00 AM 20.46 68.828 0.124 7.43 6.85 9.17
8/25/2021 11:45:00 AM 20.64 69.152 0.124 7.45 5.88 9.18
8/25/2021 12:00:00 PM 20.83 69.494 0.124 7.47 6.11 9.18
8/25/2021 12:15:00 PM 21.02 69.836 0.124 7.48 5.83 9.18
8/25/2021 12:30:00 PM 21.23 70.214 0.124 7.49 5.76 9.16
8/25/2021 12:45:00 PM 21.47 70.646 0.124 7.51 5.76 9.17
8/25/2021 1:00:00 PM 21.73 71.114 0.124 7.52 6.01 9.18
8/25/2021 1:15:00 PM 21.94 71.492 0.124 7.53 5.95 9.15
8/25/2021 1:30:00 PM 22.2 71.96 0.124 7.55 5.61 9.14
8/25/2021 1:45:00 PM 22.51 72.518 0.124 7.57 5.51 9.15
8/25/2021 2:00:00 PM 22.78 73.004 0.124 7.59 5.7 9.13
8/25/2021 2:15:00 PM 22.92 73.256 0.124 7.59 5.68 9.08
8/25/2021 2:30:00 PM 23.08 73.544 0.124 7.59 5.67 9.06
8/25/2021 2:45:00 PM 23.24 73.832 0.124 7.6 5.79 9.02
8/25/2021 3:00:00 PM 23.4 74.12 0.124 7.6 5.36 8.99
8/25/2021 3:15:00 PM 23.57 74.426 0.124 7.61 5.44 8.97
8/25/2021 3:30:00 PM 23.71 74.67799 0.124 7.61 5.46 8.93
8/25/2021 3:45:00 PM 23.84 74.912 0.124 7.6 5.36 8.9
8/25/2021 4:00:00 PM 23.94 75.092 0.124 7.6 5.33 8.82
8/25/2021 4:15:00 PM 23.98 75.164 0.124 7.59 5.43 8.77
8/25/2021 4:30:00 PM 24.02 75.236 0.124 7.58 5.17 8.73
8/25/2021 4:45:00 PM 23.99 75.182 0.125 7.56 5.04 8.65
8/25/2021 5:00:00 PM 23.92 75.056 0.125 7.55 5.02 8.62
8/25/2021 5:15:00 PM 23.85 74.93 0.125 7.53 5.04 8.58
8/25/2021 5:30:00 PM 23.76 74.768 0.125 7.52 4.9 8.53
8/25/2021 5:45:00 PM 23.69 74.642 0.125 7.49 4.83 8.48
8/25/2021 6:00:00 PM 23.6 74.48 0.125 7.47 4.95 8.41
8/25/2021 6:15:00 PM 23.49 74.282 0.125 7.45 5.03 8.32
8/25/2021 6:30:00 PM 23.39 74.102 0.126 7.42 4.81 8.23
8/25/2021 6:45:00 PM 23.28 73.904 0.126 7.39 4.68 8.14
8/25/2021 7:00:00 PM 23.16 73.688 0.126 7.36 4.91 8.05
8/25/2021 7:15:00 PM 23.05 73.49 0.126 7.33 4.66 7.97
8/25/2021 7:30:00 PM 22.94 73.292 0.126 7.32 4.69 7.87
8/25/2021 7:45:00 PM 22.8 73.04 0.127 7.29 4.58 7.8
8/25/2021 8:00:00 PM 22.68 72.824 0.127 7.26 4.99 7.73
8/25/2021 8:15:00 PM 22.58 72.644 0.127 7.24 4.92 7.68
8/25/2021 8:30:00 PM 22.47 72.446 0.127 7.22 5.39 7.64
8/25/2021 8:45:00 PM 22.36 72.248 0.127 7.21 5.42 7.63
8/25/2021 9:00:00 PM 22.26 72.068 0.127 7.2 5.21 7.63
8/25/2021 9:15:00 PM 22.17 71.906 0.127 7.2 5.4 7.63
8/25/2021 9:30:00 PM 22.1 71.78 0.128 7.19 5.6 7.6
8/25/2021 9:45:00 PM 22 71.6 0.128 7.19 5.7 7.64
8/25/2021 10:00:00 PM 21.92 71.456 0.128 7.18 5.7 7.64
8/25/2021 10:15:00 PM 21.85 71.33 0.128 7.18 5.44 7.65
8/25/2021 10:30:00 PM 21.78 71.204 0.128 7.18 5.79 7.65
8/25/2021 10:45:00 PM 21.7 71.06 0.128 7.18 5.75 7.66
8/25/2021 11:00:00 PM 21.62 70.916 0.128 7.18 5.81 7.69
8/25/2021 11:15:00 PM 21.55 70.79 0.128 7.18 5.56 7.69
8/25/2021 11:30:00 PM 21.47 70.646 0.128 7.17 5.96 7.71
8/25/2021 11:45:00 PM 21.39 70.502 0.128 7.17 6.19 7.73
8/26/2021 12:00:00 AM 21.32 70.376 0.128 7.17 6.11 7.73
8/26/2021 12:15:00 AM 21.24 70.232 0.128 7.17 5.92 7.76
8/26/2021 12:30:00 AM 21.17 70.106 0.128 7.17 5.99 7.76
8/26/2021 12:45:00 AM 21.1 69.98 0.128 7.17 6.03 7.79
8/26/2021 1:00:00 AM 21.04 69.872 0.128 7.17 6.18 7.78
8/26/2021 1:15:00 AM 20.96 69.728 0.128 7.16 6.03 7.8
8/26/2021 1:30:00 AM 20.89 69.602 0.128 7.16 5.89 7.81
8/26/2021 1:45:00 AM 20.82 69.476 0.128 7.17 5.98 7.84
8/26/2021 2:00:00 AM 20.76 69.368 0.128 7.17 5.96 7.85
8/26/2021 2:15:00 AM 20.71 69.278 0.128 7.17 5.47 7.85
8/26/2021 2:30:00 AM 20.64 69.152 0.128 7.17 5.81 7.87
8/26/2021 2:45:00 AM 20.58 69.044 0.128 7.17 5.57 7.88
8/26/2021 3:00:00 AM 20.52 68.936 0.128 7.17 5.67 7.89
8/26/2021 3:15:00 AM 20.46 68.828 0.128 7.16 5.87 7.9
8/26/2021 3:30:00 AM 20.4 68.72 0.128 7.17 5.81 7.92
8/26/2021 3:45:00 AM 20.35 68.63 0.129 7.16 5.69 7.91
8/26/2021 4:00:00 AM 20.29 68.522 0.129 7.16 5.44 7.95
8/26/2021 4:15:00 AM 20.24 68.432 0.129 7.16 5.85 7.94
8/26/2021 4:30:00 AM 20.2 68.36 0.129 7.16 5.7 7.94
8/26/2021 4:45:00 AM 20.14 68.252 0.129 7.16 5.62 7.96
8/26/2021 5:00:00 AM 20.09 68.162 0.129 7.16 6.32 7.95
8/26/2021 5:15:00 AM 20.04 68.07201 0.129 7.15 5.53 7.97
8/26/2021 5:30:00 AM 19.99 67.982 0.129 7.16 5.49 7.98
8/26/2021 5:45:00 AM 19.94 67.892 0.129 7.16 5.62 8.01
8/26/2021 6:00:00 AM 19.9 67.82 0.129 7.15 5.96 8
8/26/2021 6:15:00 AM 19.86 67.748 0.13 7.15 5.7 8
8/26/2021 6:30:00 AM 19.81 67.658 0.13 7.15 5.75 8.02
8/26/2021 6:45:00 AM 19.77 67.586 0.13 7.15 5.6 8.02
8/26/2021 7:00:00 AM 19.74 67.532 0.13 7.15 5.76 8.07
8/26/2021 7:15:00 AM 19.7 67.46 0.13 7.16 5.32 8.11
8/26/2021 7:30:00 AM 19.67 67.406 0.13 7.17 5.44 8.21
8/26/2021 7:45:00 AM 19.66 67.388 0.13 7.18 5.12 8.27
8/26/2021 8:00:00 AM 19.65 67.37 0.13 7.19 5.14 8.34
8/26/2021 8:15:00 AM 19.64 67.352 0.13 7.2 5.01 8.41
8/26/2021 8:30:00 AM 19.65 67.37 0.13 7.21 5 8.49
8/26/2021 8:45:00 AM 19.67 67.406 0.13 7.22 5.04 8.55
8/26/2021 9:00:00 AM 19.72 67.496 0.129 7.24 4.86 8.63
8/26/2021 9:15:00 AM 19.78 67.604 0.129 7.26 4.56 8.77
8/26/2021 9:30:00 AM 19.86 67.748 0.129 7.28 4.77 8.85
8/26/2021 9:45:00 AM 19.94 67.892 0.129 7.3 4.67 8.96
8/26/2021 10:00:00 AM 20.02 68.036 0.129 7.32 4.66 9.03
8/26/2021 10:15:00 AM 20.14 68.252 0.129 7.35 4.66 9.12
8/26/2021 10:30:00 AM 20.3 68.54 0.129 7.38 4.51 9.23
8/26/2021 10:45:00 AM 20.41 68.738 0.129 7.4 4.42 9.26
8/26/2021 11:00:00 AM 20.55 68.99 0.129 7.42 4.55 9.31
8/26/2021 11:15:00 AM 20.72 69.296 0.129 7.45 4.54 9.35
8/26/2021 11:30:00 AM 20.96 69.728 0.129 7.47 4.53 9.4
8/26/2021 11:45:00 AM 21.21 70.17799 0.129 7.5 4.41 9.41
8/26/2021 12:00:00 PM 21.36 70.448 0.128 7.51 4.61 9.41
8/26/2021 12:15:00 PM 21.5 70.7 0.128 7.54 4.47 9.42
8/26/2021 12:30:00 PM 21.67 71.006 0.128 7.57 4.31 9.42
8/26/2021 12:45:00 PM 21.85 71.33 0.128 7.57 4.29 9.4
8/26/2021 1:00:00 PM 22.06 71.708 0.128 7.6 4.35 9.4
8/26/2021 1:15:00 PM 22.28 72.104 0.128 7.62 4.41 9.41
8/26/2021 1:30:00 PM 22.41 72.338 0.128 7.61 4.37 9.35
8/26/2021 1:45:00 PM 22.51 72.518 0.128 7.62 4.33 9.29
8/26/2021 2:00:00 PM 22.58 72.644 0.128 7.61 4.14 9.21
8/26/2021 2:15:00 PM 22.65 72.77 0.128 7.6 4.43 9.17
8/26/2021 2:30:00 PM 22.75 72.95 0.128 7.61 4.23 9.15
8/26/2021 2:45:00 PM 22.84 73.112 0.128 7.62 4.48 9.16
8/26/2021 3:00:00 PM 22.93 73.274 0.128 7.63 4.37 9.15
8/26/2021 3:15:00 PM 23.04 73.472 0.128 7.64 4.16 9.18
8/26/2021 3:30:00 PM 23.19 73.742 0.128 7.65 4.2 9.19
8/26/2021 3:45:00 PM 23.33 73.994 0.128 7.66 4.3 9.19
8/26/2021 4:00:00 PM 23.48 74.264 0.128 7.68 4.13 9.16
8/26/2021 4:15:00 PM 23.53 74.354 0.128 7.66 4.09 9.07
8/26/2021 4:30:00 PM 23.56 74.408 0.128 7.64 3.94 8.97
8/26/2021 4:45:00 PM 23.56 74.408 0.128 7.6 4.04 8.87
8/26/2021 5:00:00 PM 23.52 74.336 0.128 7.59 3.94 8.83
8/26/2021 5:15:00 PM 23.5 74.3 0.128 7.57 3.87 8.8
8/26/2021 5:30:00 PM 23.52 74.336 0.128 7.56 3.98 8.79
8/26/2021 5:45:00 PM 23.55 74.39 0.128 7.57 4.01 8.81
8/26/2021 6:00:00 PM 23.58 74.444 0.128 7.55 4.01 8.75
8/26/2021 6:15:00 PM 23.56 74.408 0.128 7.53 4.13 8.65
8/26/2021 6:30:00 PM 23.52 74.336 0.128 7.5 4.08 8.55
8/26/2021 6:45:00 PM 23.44 74.192 0.128 7.46 4.23 8.39
8/26/2021 7:00:00 PM 23.32 73.976 0.128 7.43 3.97 8.23
8/26/2021 7:15:00 PM 23.22 73.796 0.128 7.38 4 8.11
8/26/2021 7:30:00 PM 23.13 73.634 0.129 7.35 4.1 7.97
8/26/2021 7:45:00 PM 23.06 73.508 0.129 7.31 3.97 7.84
8/26/2021 8:00:00 PM 22.97 73.346 0.129 7.28 4.04 7.72
8/26/2021 8:15:00 PM 22.87 73.166 0.129 7.26 4.21 7.63
8/26/2021 8:30:00 PM 22.79 73.022 0.129 7.24 4.12 7.56
8/26/2021 8:45:00 PM 22.72 72.896 0.129 7.22 4.15 7.5
8/26/2021 9:00:00 PM 22.63 72.734 0.129 7.21 4.01 7.48
8/26/2021 9:15:00 PM 22.57 72.626 0.129 7.2 4.17 7.46
8/26/2021 9:30:00 PM 22.49 72.482 0.129 7.19 4.29 7.44
8/26/2021 9:45:00 PM 22.42 72.356 0.129 7.18 4.16 7.42
8/26/2021 10:00:00 PM 22.34 72.212 0.129 7.18 4.23 7.45
8/26/2021 10:15:00 PM 22.26 72.068 0.13 7.18 4.16 7.45
8/26/2021 10:30:00 PM 22.19 71.942 0.13 7.17 4.26 7.45
8/26/2021 10:45:00 PM 22.1 71.78 0.13 7.17 3.85 7.47
8/26/2021 11:00:00 PM 22.03 71.654 0.13 7.17 4.09 7.48
8/26/2021 11:15:00 PM 21.95 71.51 0.13 7.17 4.08 7.52
8/26/2021 11:30:00 PM 21.9 71.42 0.13 7.15 4.06 7.47
8/26/2021 11:45:00 PM 21.82 71.276 0.13 7.16 4.08 7.49
8/27/2021 12:00:00 AM 21.74 71.132 0.13 7.16 4.07 7.53
8/27/2021 12:15:00 AM 21.67 71.006 0.13 7.16 4.06 7.54
8/27/2021 12:30:00 AM 21.61 70.898 0.13 7.15 4.4 7.52
8/27/2021 12:45:00 AM 21.54 70.772 0.13 7.16 4.05 7.56
8/27/2021 1:00:00 AM 21.48 70.664 0.13 7.15 4.21 7.54
8/27/2021 1:15:00 AM 21.42 70.556 0.131 7.15 4.09 7.58
8/27/2021 1:30:00 AM 21.35 70.43 0.131 7.15 4.25 7.59
8/27/2021 1:45:00 AM 21.29 70.32201 0.131 7.15 3.96 7.61
8/27/2021 2:00:00 AM 21.24 70.232 0.131 7.15 4.24 7.58
8/27/2021 2:15:00 AM 21.17 70.106 0.131 7.15 4.51 7.63
8/27/2021 2:30:00 AM 21.11 69.998 0.131 7.15 4.33 7.63
8/27/2021 2:45:00 AM 21.05 69.89 0.131 7.15 4.81 7.65
8/27/2021 3:00:00 AM 20.99 69.782 0.131 7.15 4.2 7.67
8/27/2021 3:15:00 AM 20.93 69.674 0.131 7.15 4.44 7.69
8/27/2021 3:30:00 AM 20.88 69.584 0.131 7.15 4.51 7.69
8/27/2021 3:45:00 AM 20.83 69.494 0.131 7.15 4.49 7.71
8/27/2021 4:00:00 AM 20.79 69.422 0.131 7.14 4.51 7.69
8/27/2021 4:15:00 AM 20.75 69.35 0.131 7.14 4.39 7.7
8/27/2021 4:30:00 AM 20.71 69.278 0.131 7.14 4.47 7.71
8/27/2021 4:45:00 AM 20.67 69.206 0.131 7.14 4.49 7.71
8/27/2021 5:00:00 AM 20.62 69.116 0.132 7.14 4.54 7.74
8/27/2021 5:15:00 AM 20.58 69.044 0.132 7.14 4.53 7.73
8/27/2021 5:30:00 AM 20.53 68.954 0.132 7.14 4.55 7.74
8/27/2021 5:45:00 AM 20.48 68.864 0.132 7.14 4.47 7.77
8/27/2021 6:00:00 AM 20.43 68.774 0.132 7.14 4.35 7.77
8/27/2021 6:15:00 AM 20.4 68.72 0.132 7.14 4.82 7.75
8/27/2021 6:30:00 AM 20.35 68.63 0.132 7.14 4.27 7.79
8/27/2021 6:45:00 AM 20.31 68.558 0.132 7.14 4.45 7.81
8/27/2021 7:00:00 AM 20.28 68.504 0.132 7.14 4.33 7.83
8/27/2021 7:15:00 AM 20.25 68.45 0.132 7.14 4.16 7.86
8/27/2021 7:30:00 AM 20.23 68.414 0.132 7.15 4.11 7.89
8/27/2021 7:45:00 AM 20.2 68.36 0.132 7.16 4.17 8
8/27/2021 8:00:00 AM 20.2 68.36 0.132 7.18 4.09 8.11
8/27/2021 8:15:00 AM 20.21 68.378 0.132 7.19 4.07 8.22
8/27/2021 8:30:00 AM 20.22 68.396 0.131 7.2 4.03 8.28
8/27/2021 8:45:00 AM 20.22 68.396 0.131 7.22 3.94 8.38
8/27/2021 9:00:00 AM 20.23 68.414 0.131 7.23 3.89 8.44
8/27/2021 9:15:00 AM 20.25 68.45 0.131 7.24 4.12 8.53
8/27/2021 9:30:00 AM 20.29 68.522 0.131 7.26 3.92 8.62
8/27/2021 9:45:00 AM 20.35 68.63 0.131 7.29 3.6 8.78
8/27/2021 10:00:00 AM 20.41 68.738 0.131 7.31 3.86 8.9
8/27/2021 10:15:00 AM 20.47 68.846 0.131 7.34 3.81 9.02
8/27/2021 10:30:00 AM 20.52 68.936 0.131 7.35 3.63 9.06
8/27/2021 10:45:00 AM 20.58 69.044 0.131 7.38 3.74 9.16
8/27/2021 11:00:00 AM 20.66 69.188 0.131 7.41 3.59 9.25
8/27/2021 11:15:00 AM 20.75 69.35 0.131 7.43 3.67 9.33
8/27/2021 11:30:00 AM 20.83 69.494 0.131 7.45 3.65 9.37
8/27/2021 11:45:00 AM 20.89 69.602 0.13 7.47 3.67 9.38
8/27/2021 12:00:00 PM 20.95 69.71 0.13 7.48 3.39 9.39
8/27/2021 12:15:00 PM 21 69.8 0.13 7.49 3.66 9.37
8/27/2021 12:30:00 PM 21.08 69.944 0.13 7.5 3.54 9.39
8/27/2021 12:45:00 PM 21.21 70.17799 0.13 7.52 3.54 9.42
8/27/2021 1:00:00 PM 21.44 70.592 0.13 7.55 3.56 9.51
8/27/2021 1:15:00 PM 21.67 71.006 0.13 7.59 3.42 9.59
8/27/2021 1:30:00 PM 21.85 71.33 0.13 7.63 3.39 9.64
8/27/2021 1:45:00 PM 21.95 71.51 0.13 7.66 3.42 9.65
8/27/2021 2:00:00 PM 22.04 71.672 0.13 7.68 3.32 9.64
8/27/2021 2:15:00 PM 22.12 71.816 0.129 7.7 3.42 9.63
8/27/2021 2:30:00 PM 22.2 71.96 0.129 7.71 3.5 9.61
8/27/2021 2:45:00 PM 22.31 72.158 0.129 7.74 3.3 9.61
8/27/2021 3:00:00 PM 22.44 72.392 0.129 7.75 3.52 9.62
8/27/2021 3:15:00 PM 22.59 72.662 0.129 7.77 3.49 9.63
8/27/2021 3:30:00 PM 22.69 72.842 0.129 7.78 3.54 9.62
8/27/2021 3:45:00 PM 22.85 73.13 0.129 7.81 3.34 9.59
8/27/2021 4:00:00 PM 22.98 73.364 0.129 7.8 3.56 9.55
8/27/2021 4:15:00 PM 23.11 73.598 0.129 7.8 3.68 9.49
8/27/2021 4:30:00 PM 23.22 73.796 0.129 7.78 3.34 9.4
8/27/2021 4:45:00 PM 23.31 73.958 0.129 7.75 3.65 9.31
8/27/2021 5:00:00 PM 23.39 74.102 0.129 7.74 3.42 9.24
8/27/2021 5:15:00 PM 23.44 74.192 0.129 7.71 3.53 9.14
8/27/2021 5:30:00 PM 23.45 74.21 0.129 7.67 3.42 9.05
8/27/2021 5:45:00 PM 23.4 74.12 0.129 7.66 3.35 8.96
8/27/2021 6:00:00 PM 23.34 74.012 0.129 7.6 3.28 8.8
8/27/2021 6:15:00 PM 23.24 73.832 0.13 7.54 3.5 8.6
8/27/2021 6:30:00 PM 22.96 73.328 0.127 7.47 4.52 8.27
8/27/2021 6:45:00 PM 22.76 72.968 0.124 7.4 5.25 8.09
8/27/2021 7:00:00 PM 22.53 72.554 0.113 7.37 10.94 8.04
8/27/2021 7:15:00 PM 22.29 72.122 0.103 7.35 160.35 7.99
8/27/2021 7:30:00 PM 22.11 71.798 0.102 7.26 407.37 8.06
8/27/2021 7:45:00 PM 21.76 71.168 0.086 7.1 683.26 8.06
8/27/2021 8:00:00 PM 21.56 70.808 0.081 7.11 450.86 8.21
8/27/2021 8:15:00 PM 21.25 70.25 0.067 6.87 917.27 8.33
8/27/2021 8:30:00 PM 21.15 70.07 0.059 6.75 1136.2 8.38
8/27/2021 8:45:00 PM 21.18 70.124 0.065 6.75 996.6 8.4
8/27/2021 9:00:00 PM 21.19 70.142 0.064 6.76 845.63 8.42
8/27/2021 9:15:00 PM 21.15 70.07 0.061 6.73 683.57 8.44
8/27/2021 9:30:00 PM 21.12 70.016 0.06 6.72 563.34 8.45
8/27/2021 9:45:00 PM 21.09 69.962 0.062 6.76 542.23 8.43
8/27/2021 10:00:00 PM 21.07 69.926 0.063 6.86 372.96 8.43
8/27/2021 10:15:00 PM 21.04 69.872 0.065 6.94 405.97 8.42
8/27/2021 10:30:00 PM 21 69.8 0.066 6.99 361.01 8.41
8/27/2021 10:45:00 PM 20.96 69.728 0.066 7.01 303.5 8.4
8/27/2021 11:00:00 PM 20.92 69.656 0.067 7.03 203.16 8.39
8/27/2021 11:15:00 PM 20.88 69.584 0.068 7.04 169.55 8.39
8/27/2021 11:30:00 PM 20.85 69.53 0.07 7.05 158.53 8.39
8/27/2021 11:45:00 PM 20.81 69.458 0.071 7.06 149.92 8.39
8/28/2021 12:00:00 AM 20.77 69.386 0.072 7.07 166.11 8.39
8/28/2021 12:15:00 AM 20.74 69.332 0.073 7.08 107.81 8.38
8/28/2021 12:30:00 AM 20.71 69.278 0.074 7.09 108.15 8.38
8/28/2021 12:45:00 AM 20.67 69.206 0.075 7.1 106.8 8.38
8/28/2021 1:00:00 AM 20.64 69.152 0.077 7.11 100.15 8.38
8/28/2021 1:15:00 AM 20.62 69.116 0.078 7.11 91.15 8.38
8/28/2021 1:30:00 AM 20.59 69.062 0.079 7.12 100.05 8.38
8/28/2021 1:45:00 AM 20.56 69.008 0.08 7.12 58.73 8.38
8/28/2021 2:00:00 AM 20.54 68.972 0.081 7.13 53.79 8.38
8/28/2021 2:15:00 AM 20.51 68.918 0.082 7.13 48.94 8.38
8/28/2021 2:30:00 AM 20.49 68.882 0.083 7.14 43.29 8.38
8/28/2021 2:45:00 AM 20.46 68.828 0.084 7.14 60.13 8.38
8/28/2021 3:00:00 AM 20.43 68.774 0.084 7.14 64.97 8.37
8/28/2021 3:15:00 AM 20.41 68.738 0.085 7.14 52.1 8.38
8/28/2021 3:30:00 AM 20.38 68.684 0.086 7.14 57.41 8.38
8/28/2021 3:45:00 AM 20.35 68.63 0.087 7.14 45.9 8.39
8/28/2021 4:00:00 AM 20.33 68.594 0.087 7.14 41.28 8.37
8/28/2021 4:15:00 AM 20.3 68.54 0.088 7.14 37.05 8.37
8/28/2021 4:30:00 AM 20.28 68.504 0.089 7.14 40.63 8.38
8/28/2021 4:45:00 AM 20.26 68.468 0.089 7.15 44.03 8.39
8/28/2021 5:00:00 AM 20.23 68.414 0.09 7.15 36.63 8.39
8/28/2021 5:15:00 AM 20.21 68.378 0.091 7.15 33.8 8.39
8/28/2021 5:30:00 AM 20.19 68.342 0.091 7.15 29.94 8.39
8/28/2021 5:45:00 AM 20.16 68.288 0.092 7.15 27.58 8.39
8/28/2021 6:00:00 AM 20.13 68.234 0.092 7.15 34.78 8.39
8/28/2021 6:15:00 AM 20.11 68.198 0.093 7.15 30.39 8.38
8/28/2021 6:30:00 AM 20.09 68.162 0.094 7.16 32.34 8.39
8/28/2021 6:45:00 AM 20.07 68.126 0.094 7.16 29.78 8.39
8/28/2021 7:00:00 AM 20.05 68.09 0.095 7.16 24.04 8.41
8/28/2021 7:15:00 AM 20.03 68.054 0.095 7.16 27.72 8.42
8/28/2021 7:30:00 AM 20.02 68.036 0.095 7.16 24.67 8.43
8/28/2021 7:45:00 AM 20 68 0.096 7.16 38.07 8.46
8/28/2021 8:00:00 AM 20 68 0.096 7.17 19.89 8.48
8/28/2021 8:15:00 AM 20.01 68.018 0.097 7.18 21.18 8.5
8/28/2021 8:30:00 AM 20.01 68.018 0.097 7.19 22.74 8.53
8/28/2021 8:45:00 AM 20.01 68.018 0.097 7.2 20.65 8.53
8/28/2021 9:00:00 AM 20.01 68.018 0.098 7.21 21.26 8.54
8/28/2021 9:15:00 AM 20.02 68.036 0.098 7.21 20.8 8.57
8/28/2021 9:30:00 AM 20.05 68.09 0.098 7.22 25.15 8.58
8/28/2021 9:45:00 AM 20.09 68.162 0.098 7.23 19.48 8.65
8/28/2021 10:00:00 AM 20.1 68.18 0.099 7.24 22.71 8.64
8/28/2021 10:15:00 AM 20.13 68.234 0.099 7.25 16.53 8.65
8/28/2021 10:30:00 AM 20.18 68.324 0.099 7.26 23.17 8.69
8/28/2021 10:45:00 AM 20.22 68.396 0.099 7.27 20.37 8.72
8/28/2021 11:00:00 AM 20.23 68.414 0.099 7.27 19.07 8.69
8/28/2021 11:15:00 AM 20.25 68.45 0.1 7.27 18.28 8.65
8/28/2021 11:30:00 AM 20.26 68.468 0.1 7.26 18.04 8.6
8/28/2021 11:45:00 AM 20.3 68.54 0.1 7.26 18.31 8.62
8/28/2021 12:00:00 PM 20.33 68.594 0.1 7.27 18.08 8.59
8/28/2021 12:15:00 PM 20.38 68.684 0.1 7.28 17.98 8.65
8/28/2021 12:30:00 PM 20.48 68.864 0.1 7.29 18.22 8.7
8/28/2021 12:45:00 PM 20.52 68.936 0.1 7.3 18.6 8.68
8/28/2021 1:00:00 PM 20.54 68.972 0.101 7.3 17.97 8.69
8/28/2021 1:15:00 PM 20.61 69.098 0.101 7.3 18.26 8.73
8/28/2021 1:30:00 PM 20.73 69.314 0.101 7.32 17.9 8.76
8/28/2021 1:45:00 PM 20.81 69.458 0.101 7.33 17.15 8.78
8/28/2021 2:00:00 PM 20.89 69.602 0.101 7.34 17.1 8.77
8/28/2021 2:15:00 PM 20.93 69.674 0.101 7.34 17.06 8.73
8/28/2021 2:30:00 PM 20.94 69.692 0.102 7.34 16.87 8.71
8/28/2021 2:45:00 PM 20.98 69.764 0.102 7.34 16.83 8.7
8/28/2021 3:00:00 PM 21.05 69.89 0.102 7.34 16.63 8.7
8/28/2021 3:15:00 PM 21.09 69.962 0.102 7.34 17.03 8.69
8/28/2021 3:30:00 PM 21.12 70.016 0.102 7.33 16.49 8.65
8/28/2021 3:45:00 PM 21.14 70.052 0.102 7.33 15.92 8.63
8/28/2021 4:00:00 PM 21.12 70.016 0.103 7.33 15.88 8.6
8/28/2021 4:15:00 PM 21.09 69.962 0.103 7.32 15.53 8.6
8/28/2021 4:30:00 PM 21.05 69.89 0.103 7.32 15.3 8.6
8/28/2021 4:45:00 PM 21.01 69.818 0.103 7.31 14.93 8.58
8/28/2021 5:00:00 PM 20.98 69.764 0.103 7.31 14.98 8.58
8/28/2021 5:15:00 PM 20.94 69.692 0.103 7.31 14.99 8.54
8/28/2021 5:30:00 PM 20.89 69.602 0.104 7.3 15.11 8.52
8/28/2021 5:45:00 PM 20.84 69.512 0.104 7.29 15.14 8.49
8/28/2021 6:00:00 PM 20.77 69.386 0.104 7.28 14.77 8.46
8/28/2021 6:15:00 PM 20.72 69.296 0.104 7.27 14.29 8.44
8/28/2021 6:30:00 PM 20.68 69.224 0.104 7.26 15.14 8.41
8/28/2021 6:45:00 PM 20.64 69.152 0.104 7.25 14.38 8.4
8/28/2021 7:00:00 PM 20.59 69.062 0.104 7.24 14.32 8.37
8/28/2021 7:15:00 PM 20.54 68.972 0.105 7.24 14.82 8.34
8/28/2021 7:30:00 PM 20.5 68.9 0.105 7.23 14.63 8.33
8/28/2021 7:45:00 PM 20.45 68.81 0.105 7.22 14.43 8.32
8/28/2021 8:00:00 PM 20.41 68.738 0.105 7.22 15.01 8.29
8/28/2021 8:15:00 PM 20.36 68.648 0.105 7.21 14.4 8.28
8/28/2021 8:30:00 PM 20.32 68.576 0.105 7.21 14.61 8.28
8/28/2021 8:45:00 PM 20.27 68.486 0.105 7.2 14.12 8.28
8/28/2021 9:00:00 PM 20.23 68.414 0.105 7.2 14.12 8.29
8/28/2021 9:15:00 PM 20.18 68.324 0.105 7.2 14.03 8.31
8/28/2021 9:30:00 PM 20.14 68.252 0.105 7.2 14.19 8.32
8/28/2021 9:45:00 PM 20.1 68.18 0.106 7.2 13.96 8.32
8/28/2021 10:00:00 PM 20.06 68.108 0.106 7.19 13.47 8.31
8/28/2021 10:15:00 PM 20.02 68.036 0.106 7.19 13.12 8.33
8/28/2021 10:30:00 PM 19.98 67.964 0.106 7.19 14.27 8.33
8/28/2021 10:45:00 PM 19.95 67.91 0.106 7.19 13.15 8.34
8/28/2021 11:00:00 PM 19.91 67.838 0.106 7.19 13.48 8.34
8/28/2021 11:15:00 PM 19.88 67.784 0.106 7.19 13.69 8.35
8/28/2021 11:30:00 PM 19.85 67.73 0.106 7.19 13.77 8.36
8/28/2021 11:45:00 PM 19.82 67.676 0.106 7.19 12.86 8.37
8/29/2021 12:00:00 AM 19.79 67.622 0.106 7.19 14.56 8.36
8/29/2021 12:15:00 AM 19.76 67.568 0.106 7.19 13.15 8.37
8/29/2021 12:30:00 AM 19.73 67.514 0.106 7.19 13.03 8.37
8/29/2021 12:45:00 AM 19.71 67.478 0.106 7.19 13.3 8.38
8/29/2021 1:00:00 AM 19.68 67.424 0.106 7.19 13.52 8.39
8/29/2021 1:15:00 AM 19.65 67.37 0.107 7.19 13.74 8.39
8/29/2021 1:30:00 AM 19.63 67.334 0.107 7.19 12.66 8.4
8/29/2021 1:45:00 AM 19.6 67.28 0.107 7.19 12.7 8.39
8/29/2021 2:00:00 AM 19.58 67.244 0.107 7.19 13.79 8.41
8/29/2021 2:15:00 AM 19.56 67.208 0.107 7.19 12.45 8.39
8/29/2021 2:30:00 AM 19.53 67.154 0.107 7.19 12.38 8.41
8/29/2021 2:45:00 AM 19.51 67.118 0.107 7.19 13.42 8.42
8/29/2021 3:00:00 AM 19.49 67.082 0.107 7.19 12.48 8.42
8/29/2021 3:15:00 AM 19.47 67.046 0.107 7.19 12.66 8.42
8/29/2021 3:30:00 AM 19.44 66.992 0.107 7.19 12.14 8.42
8/29/2021 3:45:00 AM 19.42 66.956 0.107 7.19 12.61 8.42
8/29/2021 4:00:00 AM 19.4 66.92 0.107 7.19 11.94 8.42
8/29/2021 4:15:00 AM 19.38 66.884 0.107 7.19 13.77 8.44
8/29/2021 4:30:00 AM 19.36 66.848 0.107 7.19 11.86 8.43
8/29/2021 4:45:00 AM 19.33 66.794 0.107 7.19 11.82 8.45
8/29/2021 5:00:00 AM 19.31 66.758 0.107 7.19 11.78 8.43
8/29/2021 5:15:00 AM 19.29 66.722 0.107 7.19 11.4 8.44
8/29/2021 5:30:00 AM 19.27 66.686 0.107 7.19 11.55 8.45
8/29/2021 5:45:00 AM 19.26 66.668 0.107 7.19 11.14 8.43
8/29/2021 6:00:00 AM 19.24 66.632 0.107 7.19 11.79 8.44
8/29/2021 6:15:00 AM 19.22 66.596 0.107 7.19 11.57 8.46
8/29/2021 6:30:00 AM 19.2 66.56 0.107 7.19 11.08 8.45
8/29/2021 6:45:00 AM 19.19 66.542 0.107 7.19 10.66 8.46
8/29/2021 7:00:00 AM 19.17 66.506 0.107 7.19 11.59 8.47
8/29/2021 7:15:00 AM 19.16 66.488 0.107 7.19 10.97 8.46
8/29/2021 7:30:00 AM 19.15 66.47 0.107 7.2 10.95 8.52
8/29/2021 7:45:00 AM 19.15 66.47 0.107 7.2 10.26 8.54
8/29/2021 8:00:00 AM 19.16 66.488 0.107 7.21 10.32 8.59
8/29/2021 8:15:00 AM 19.17 66.506 0.107 7.22 9.98 8.64
8/29/2021 8:30:00 AM 19.19 66.542 0.107 7.23 10.97 8.68
8/29/2021 8:45:00 AM 19.22 66.596 0.107 7.25 9.71 8.75
8/29/2021 9:00:00 AM 19.26 66.668 0.107 7.26 9.32 8.82
8/29/2021 9:15:00 AM 19.3 66.74 0.107 7.27 9.14 8.86
8/29/2021 9:30:00 AM 19.37 66.866 0.107 7.28 9.59 8.89
8/29/2021 9:45:00 AM 19.43 66.974 0.107 7.3 9.44 8.95
8/29/2021 10:00:00 AM 19.51 67.118 0.107 7.31 8.95 9
8/29/2021 10:15:00 AM 19.62 67.316 0.107 7.32 9.04 9.01
8/29/2021 10:30:00 AM 19.69 67.442 0.107 7.34 8.37 9.01
8/29/2021 10:45:00 AM 19.81 67.658 0.107 7.35 8.54 9.06
8/29/2021 11:00:00 AM 19.96 67.92799 0.107 7.36 8.62 9.07
8/29/2021 11:15:00 AM 20.11 68.198 0.107 7.37 8.3 9.07
8/29/2021 11:30:00 AM 20.26 68.468 0.107 7.37 8.56 9.05
8/29/2021 11:45:00 AM 20.43 68.774 0.107 7.38 8.43 9.02
8/29/2021 12:00:00 PM 20.65 69.17 0.107 7.4 8.15 9.04
8/29/2021 12:15:00 PM 20.8 69.44 0.107 7.41 8.41 9.06
8/29/2021 12:30:00 PM 20.92 69.656 0.107 7.41 8.03 9.04
8/29/2021 12:45:00 PM 21.11 69.998 0.107 7.42 7.75 9.02
8/29/2021 1:00:00 PM 21.2 70.16 0.107 7.43 7.98 8.98
8/29/2021 1:15:00 PM 21.22 70.196 0.107 7.42 9.1 8.94
8/29/2021 1:30:00 PM 21.23 70.214 0.107 7.42 8.31 8.92
8/29/2021 1:45:00 PM 21.24 70.232 0.107 7.42 8.36 8.91
8/29/2021 2:00:00 PM 21.24 70.232 0.107 7.42 8.59 8.88
8/29/2021 2:15:00 PM 21.24 70.232 0.107 7.39 8.71 8.82
8/29/2021 2:30:00 PM 21.25 70.25 0.107 7.39 7.96 8.75
8/29/2021 2:45:00 PM 21.28 70.304 0.107 7.38 8.94 8.7
8/29/2021 3:00:00 PM 21.31 70.358 0.107 7.37 8.3 8.71
8/29/2021 3:15:00 PM 21.31 70.358 0.107 7.37 8.16 8.68
8/29/2021 3:30:00 PM 21.31 70.358 0.107 7.37 8.25 8.67
8/29/2021 3:45:00 PM 21.33 70.394 0.107 7.37 8.04 8.66
8/29/2021 4:00:00 PM 21.34 70.412 0.107 7.36 7.98 8.68
8/29/2021 4:15:00 PM 21.32 70.376 0.107 7.37 8.62 8.66
8/29/2021 4:30:00 PM 21.31 70.358 0.107 7.36 7.98 8.62
8/29/2021 4:45:00 PM 21.31 70.358 0.107 7.35 8.02 8.61
8/29/2021 5:00:00 PM 21.29 70.32201 0.107 7.35 8.01 8.58
8/29/2021 5:15:00 PM 21.26 70.268 0.107 7.33 8.17 8.49
8/29/2021 5:30:00 PM 21.24 70.232 0.107 7.32 8.13 8.44
8/29/2021 5:45:00 PM 21.22 70.196 0.107 7.31 8.3 8.38
8/29/2021 6:00:00 PM 21.2 70.16 0.108 7.3 8.65 8.38
8/29/2021 6:15:00 PM 21.17 70.106 0.108 7.28 8.48 8.3
8/29/2021 6:30:00 PM 21.12 70.016 0.108 7.27 8.31 8.21
8/29/2021 6:45:00 PM 21.08 69.944 0.108 7.25 8.35 8.17
8/29/2021 7:00:00 PM 21.04 69.872 0.108 7.24 8.63 8.15
8/29/2021 7:15:00 PM 21 69.8 0.108 7.23 8.15 8.14
8/29/2021 7:30:00 PM 20.95 69.71 0.108 7.22 8.95 8.11
8/29/2021 7:45:00 PM 20.91 69.638 0.108 7.21 8.51 8.08
8/29/2021 8:00:00 PM 20.87 69.566 0.109 7.21 8.32 8.08
8/29/2021 8:15:00 PM 20.82 69.476 0.109 7.2 12.26 8.08
8/29/2021 8:30:00 PM 20.78 69.404 0.109 7.2 9.24 8.06
8/29/2021 8:45:00 PM 20.73 69.314 0.109 7.19 9.24 8.07
8/29/2021 9:00:00 PM 20.68 69.224 0.109 7.19 9.22 8.06
8/29/2021 9:15:00 PM 20.62 69.116 0.109 7.19 9.48 8.07
8/29/2021 9:30:00 PM 20.57 69.026 0.109 7.19 10.87 8.09
8/29/2021 9:45:00 PM 20.52 68.936 0.109 7.18 9.09 8.09
8/29/2021 10:00:00 PM 20.47 68.846 0.11 7.18 8.64 8.09
8/29/2021 10:15:00 PM 20.42 68.756 0.11 7.18 9.14 8.11
8/29/2021 10:30:00 PM 20.37 68.666 0.11 7.18 9.08 8.12
8/29/2021 10:45:00 PM 20.32 68.576 0.11 7.18 9.3 8.12
8/29/2021 11:00:00 PM 20.28 68.504 0.11 7.18 8.82 8.12
8/29/2021 11:15:00 PM 20.23 68.414 0.11 7.18 8.66 8.12
8/29/2021 11:30:00 PM 20.19 68.342 0.11 7.18 8.69 8.15
8/29/2021 11:45:00 PM 20.16 68.288 0.11 7.18 8.68 8.15
8/30/2021 12:00:00 AM 20.12 68.216 0.11 7.18 8.44 8.14
8/30/2021 12:15:00 AM 20.09 68.162 0.11 7.18 8.57 8.16
8/30/2021 12:30:00 AM 20.06 68.108 0.11 7.17 8.24 8.17
8/30/2021 12:45:00 AM 20.04 68.07201 0.11 7.18 9.12 8.18
8/30/2021 1:00:00 AM 20.02 68.036 0.11 7.17 9.05 8.18
8/30/2021 1:15:00 AM 19.99 67.982 0.11 7.17 9.02 8.17
8/30/2021 1:30:00 AM 19.97 67.946 0.11 7.17 9.38 8.18
8/30/2021 1:45:00 AM 19.94 67.892 0.11 7.17 10.02 8.18
8/30/2021 2:00:00 AM 19.91 67.838 0.11 7.18 9.89 8.2
8/30/2021 2:15:00 AM 19.89 67.802 0.111 7.18 9.85 8.19
8/30/2021 2:30:00 AM 19.87 67.766 0.111 7.18 9.87 8.2
8/30/2021 2:45:00 AM 19.85 67.73 0.111 7.17 9.65 8.21
8/30/2021 3:00:00 AM 19.84 67.712 0.111 7.17 25.24 8.19
8/30/2021 3:15:00 AM 19.82 67.676 0.111 7.18 10.15 8.2
8/30/2021 3:30:00 AM 19.8 67.64 0.111 7.18 10.07 8.21
8/30/2021 3:45:00 AM 19.78 67.604 0.111 7.18 10.38 8.21
8/30/2021 4:00:00 AM 19.76 67.568 0.111 7.18 10.74 8.2
8/30/2021 4:15:00 AM 19.74 67.532 0.111 7.18 10.17 8.21
8/30/2021 4:30:00 AM 19.72 67.496 0.111 7.17 10.36 8.22
8/30/2021 4:45:00 AM 19.7 67.46 0.111 7.17 10.14 8.23
8/30/2021 5:00:00 AM 19.68 67.424 0.111 7.18 10.21 8.23
8/30/2021 5:15:00 AM 19.65 67.37 0.111 7.18 10.92 8.23
8/30/2021 5:30:00 AM 19.63 67.334 0.111 7.18 11.08 8.23
8/30/2021 5:45:00 AM 19.62 67.316 0.111 7.18 10.95 8.23
8/30/2021 6:00:00 AM 19.59 67.262 0.111 7.18 11.6 8.24
8/30/2021 6:15:00 AM 19.58 67.244 0.111 7.18 10.91 8.23
8/30/2021 6:30:00 AM 19.57 67.226 0.111 7.18 11.15 8.25
8/30/2021 6:45:00 AM 19.55 67.19 0.111 7.18 10.22 8.25
8/30/2021 7:00:00 AM 19.54 67.172 0.111 7.17 10.65 8.25
8/30/2021 7:15:00 AM 19.54 67.172 0.111 7.19 10.22 8.3
8/30/2021 7:30:00 AM 19.55 67.19 0.111 7.19 10.51 8.35
8/30/2021 7:45:00 AM 19.56 67.208 0.111 7.21 10.58 8.41
8/30/2021 8:00:00 AM 19.59 67.262 0.111 7.21 10.97 8.49
8/30/2021 8:15:00 AM 19.61 67.298 0.111 7.23 10.43 8.54
8/30/2021 8:30:00 AM 19.62 67.316 0.111 7.23 9.49 8.56
8/30/2021 8:45:00 AM 19.64 67.352 0.111 7.24 9.75 8.56
8/30/2021 9:00:00 AM 19.66 67.388 0.111 7.24 9.29 8.57
8/30/2021 9:15:00 AM 19.68 67.424 0.111 7.25 9.27 8.6
8/30/2021 9:30:00 AM 19.73 67.514 0.111 7.27 8.27 8.7
8/30/2021 9:45:00 AM 19.79 67.622 0.111 7.28 8.9 8.76
8/30/2021 10:00:00 AM 19.85 67.73 0.111 7.3 8.86 8.81
8/30/2021 10:15:00 AM 19.93 67.874 0.111 7.31 8.98 8.85
8/30/2021 10:30:00 AM 20.01 68.018 0.111 7.32 8.5 8.9
8/30/2021 10:45:00 AM 20.06 68.108 0.111 7.33 8.29 8.9
8/30/2021 11:00:00 AM 20.12 68.216 0.111 7.35 7.87 8.95
8/30/2021 11:15:00 AM 20.21 68.378 0.111 7.37 9.02 8.99
8/30/2021 11:30:00 AM 20.34 68.612 0.111 7.37 11.2 9
8/30/2021 11:45:00 AM 20.61 69.098 0.111 7.4 11.09 9.05
8/30/2021 12:00:00 PM 20.8 69.44 0.111 7.42 9.59 9.07
8/30/2021 12:15:00 PM 20.88 69.584 0.111 7.42 9.06 9.05
8/30/2021 12:30:00 PM 20.96 69.728 0.111 7.43 32.88 9.04
8/30/2021 12:45:00 PM 21.05 69.89 0.111 7.44 9.97 9.02
8/30/2021 1:00:00 PM 21.16 70.088 0.111 7.44 10.76 8.96
8/30/2021 1:15:00 PM 21.38 70.484 0.111 7.44 10.67 8.93
8/30/2021 1:30:00 PM 21.53 70.754 0.111 7.44 9.25 8.89
8/30/2021 1:45:00 PM 21.75 71.15 0.111 7.45 8.33 8.91
8/30/2021 2:00:00 PM 21.92 71.456 0.111 7.46 8.26 8.92
8/30/2021 2:15:00 PM 22.02 71.636 0.111 7.46 7.91 8.89
8/30/2021 2:30:00 PM 22.06 71.708 0.111 7.46 7.58 8.86
8/30/2021 2:45:00 PM 22.13 71.834 0.111 7.46 7.79 8.85
8/30/2021 3:00:00 PM 22.22 71.996 0.111 7.48 7.23 8.84
8/30/2021 3:15:00 PM 22.31 72.158 0.111 7.48 7.29 8.85
8/30/2021 3:30:00 PM 22.43 72.374 0.111 7.49 6.78 8.86
8/30/2021 3:45:00 PM 22.55 72.59 0.111 7.49 7.28 8.84
8/30/2021 4:00:00 PM 22.61 72.698 0.111 7.49 7.1 8.78
8/30/2021 4:15:00 PM 22.69 72.842 0.111 7.48 7.43 8.74
8/30/2021 4:30:00 PM 22.8 73.04 0.111 7.49 7.3 8.74
8/30/2021 4:45:00 PM 22.85 73.13 0.111 7.48 6.95 8.68
8/30/2021 5:00:00 PM 22.85 73.13 0.111 7.46 6.98 8.57
8/30/2021 5:15:00 PM 22.83 73.094 0.111 7.44 7.42 8.47
8/30/2021 5:30:00 PM 22.78 73.004 0.111 7.41 7.91 8.4
8/30/2021 5:45:00 PM 22.73 72.914 0.111 7.39 8.01 8.32
8/30/2021 6:00:00 PM 22.68 72.824 0.112 7.37 7.87 8.26
8/30/2021 6:15:00 PM 22.62 72.716 0.112 7.36 7.82 8.2
8/30/2021 6:30:00 PM 22.53 72.554 0.112 7.34 7.29 8.14
8/30/2021 6:45:00 PM 22.42 72.356 0.112 7.32 6.76 8.08
8/30/2021 7:00:00 PM 22.33 72.194 0.112 7.3 6.77 8.02
8/30/2021 7:15:00 PM 22.22 71.996 0.112 7.29 6.69 7.99
8/30/2021 7:30:00 PM 22.14 71.852 0.112 7.27 6.85 7.96
8/30/2021 7:45:00 PM 22.06 71.708 0.112 7.26 6.48 7.9
8/30/2021 8:00:00 PM 21.96 71.528 0.112 7.25 6.95 7.85
8/30/2021 8:15:00 PM 21.88 71.384 0.113 7.23 7.09 7.8
8/30/2021 8:30:00 PM 21.79 71.222 0.113 7.21 6.78 7.78
8/30/2021 8:45:00 PM 21.71 71.078 0.113 7.2 8.53 7.75
8/30/2021 9:00:00 PM 21.62 70.916 0.113 7.2 7.15 7.68
8/30/2021 9:15:00 PM 21.55 70.79 0.113 7.19 6.78 7.75
8/30/2021 9:30:00 PM 21.47 70.646 0.113 7.18 6.47 7.76
8/30/2021 9:45:00 PM 21.39 70.502 0.113 7.18 6.67 7.78
8/30/2021 10:00:00 PM 21.32 70.376 0.113 7.18 18.72 7.79
8/30/2021 10:15:00 PM 21.25 70.25 0.113 7.18 6.79 7.8
8/30/2021 10:30:00 PM 21.16 70.088 0.113 7.18 7.18 7.81
8/30/2021 10:45:00 PM 21.09 69.962 0.113 7.17 6.56 7.82
8/30/2021 11:00:00 PM 21 69.8 0.114 7.17 7.36 7.84
8/30/2021 11:15:00 PM 20.91 69.638 0.114 7.17 7.88 7.86
8/30/2021 11:30:00 PM 20.85 69.53 0.114 7.16 6.7 7.86
8/30/2021 11:45:00 PM 20.76 69.368 0.114 7.16 6.96 7.84
8/31/2021 12:00:00 AM 20.69 69.242 0.114 7.16 6.83 7.88
8/31/2021 12:15:00 AM 20.62 69.116 0.114 7.16 6.6 7.88
8/31/2021 12:30:00 AM 20.54 68.972 0.114 7.16 6.86 7.9
8/31/2021 12:45:00 AM 20.47 68.846 0.114 7.15 6.98 7.9
8/31/2021 1:00:00 AM 20.39 68.702 0.114 7.16 7.04 7.94
8/31/2021 1:15:00 AM 20.32 68.576 0.114 7.16 6.77 7.92
8/31/2021 1:30:00 AM 20.25 68.45 0.114 7.16 7.03 7.96
8/31/2021 1:45:00 AM 20.2 68.36 0.114 7.17 6.85 7.95
8/31/2021 2:00:00 AM 20.13 68.234 0.114 7.17 6.86 7.99
8/31/2021 2:15:00 AM 20.08 68.144 0.114 7.16 6.6 7.97
8/31/2021 2:30:00 AM 20.03 68.054 0.115 7.17 6.7 7.98
8/31/2021 2:45:00 AM 19.97 67.946 0.115 7.17 6.83 8.03
8/31/2021 3:00:00 AM 19.91 67.838 0.115 7.17 6.92 8.02
8/31/2021 3:15:00 AM 19.86 67.748 0.115 7.17 6.94 8.02
8/31/2021 3:30:00 AM 19.8 67.64 0.115 7.17 7.16 8
8/31/2021 3:45:00 AM 19.75 67.55 0.115 7.17 7.16 8.03
8/31/2021 4:00:00 AM 19.69 67.442 0.115 7.17 6.65 8.06
8/31/2021 4:15:00 AM 19.63 67.334 0.115 7.17 6.84 8.06
8/31/2021 4:30:00 AM 19.57 67.226 0.115 7.17 7.22 8.07
8/31/2021 4:45:00 AM 19.51 67.118 0.115 7.16 7.27 8.09
8/31/2021 5:00:00 AM 19.45 67.01 0.115 7.16 7.28 8.1
8/31/2021 5:15:00 AM 19.39 66.902 0.115 7.17 7.06 8.11
8/31/2021 5:30:00 AM 19.34 66.812 0.115 7.15 7.14 8.13
8/31/2021 5:45:00 AM 19.29 66.722 0.115 7.17 6.89 8.15
8/31/2021 6:00:00 AM 19.23 66.614 0.115 7.16 7.4 8.16
8/31/2021 6:15:00 AM 19.18 66.524 0.115 7.16 7.32 8.16
8/31/2021 6:30:00 AM 19.12 66.416 0.115 7.16 7.72 8.17
8/31/2021 6:45:00 AM 19.07 66.326 0.115 7.15 7.2 8.18
8/31/2021 7:00:00 AM 19.02 66.236 0.115 7.17 6.95 8.21
8/31/2021 7:15:00 AM 18.96 66.128 0.115 7.16 6.52 8.26
8/31/2021 7:30:00 AM 18.92 66.056 0.115 7.18 6.38 8.33
8/31/2021 7:45:00 AM 18.9 66.02 0.115 7.18 6.45 8.39
8/31/2021 8:00:00 AM 18.87 65.966 0.115 7.19 6.26 8.51
8/31/2021 8:15:00 AM 18.87 65.966 0.115 7.2 5.96 8.56
8/31/2021 8:30:00 AM 18.87 65.966 0.115 7.22 6 8.68
8/31/2021 8:45:00 AM 18.88 65.984 0.115 7.24 5.75 8.74
8/31/2021 9:00:00 AM 18.9 66.02 0.115 7.25 6.31 8.83
8/31/2021 9:15:00 AM 18.93 66.074 0.115 7.28 5.93 8.96
8/31/2021 9:30:00 AM 18.98 66.164 0.115 7.3 5.74 9.06
8/31/2021 9:45:00 AM 19.03 66.254 0.115 7.31 5.68 9.07
8/31/2021 10:00:00 AM 19.1 66.38 0.114 7.33 5.72 9.15
8/31/2021 10:15:00 AM 19.2 66.56 0.114 7.35 5.92 9.24
8/31/2021 10:30:00 AM 19.29 66.722 0.114 7.37 5.75 9.25
8/31/2021 10:45:00 AM 19.37 66.866 0.114 7.39 5.6 9.32
8/31/2021 11:00:00 AM 19.43 66.974 0.114 7.4 5.47 9.33
8/31/2021 11:15:00 AM 19.52 67.136 0.114 7.41 5.35 9.34
8/31/2021 11:30:00 AM 19.63 67.334 0.114 7.44 5.03 9.37
8/31/2021 11:45:00 AM 19.74 67.532 0.114 7.46 5.22 9.4
8/31/2021 12:00:00 PM 19.88 67.784 0.114 7.47 5.26 9.39
8/31/2021 12:15:00 PM 20.04 68.07201 0.114 7.48 5.39 9.41
8/31/2021 12:30:00 PM 20.2 68.36 0.114 7.49 5.3 9.42
8/31/2021 12:45:00 PM 20.33 68.594 0.114 7.49 5.28 9.4
8/31/2021 1:00:00 PM 20.48 68.864 0.114 7.51 5.08 9.39
8/31/2021 1:15:00 PM 20.65 69.17 0.114 7.52 5.41 9.33
8/31/2021 1:30:00 PM 20.83 69.494 0.114 7.52 5.6 9.33
8/31/2021 1:45:00 PM 21.07 69.926 0.114 7.53 5.6 9.32
8/31/2021 2:00:00 PM 21.27 70.286 0.114 7.53 5.51 9.26
8/31/2021 2:15:00 PM 21.44 70.592 0.114 7.53 5.65 9.24
8/31/2021 2:30:00 PM 21.57 70.826 0.114 7.52 5.44 9.2
8/31/2021 2:45:00 PM 21.72 71.096 0.114 7.55 5.4 9.19
8/31/2021 3:00:00 PM 21.89 71.402 0.114 7.55 5.45 9.2
8/31/2021 3:15:00 PM 22.04 71.672 0.114 7.55 5.22 9.17
8/31/2021 3:30:00 PM 22.19 71.942 0.114 7.57 5.2 9.13
8/31/2021 3:45:00 PM 22.26 72.068 0.114 7.57 5.42 9.14
8/31/2021 4:00:00 PM 22.32 72.176 0.114 7.56 5.07 9.09
8/31/2021 4:15:00 PM 22.35 72.23 0.114 7.55 5.26 9.04
8/31/2021 4:30:00 PM 22.31 72.158 0.114 7.54 5.1 8.96
8/31/2021 4:45:00 PM 22.23 72.014 0.114 7.51 5.68 8.89
8/31/2021 5:00:00 PM 22.16 71.888 0.114 7.5 6.51 8.82
8/31/2021 5:15:00 PM 22.09 71.762 0.114 7.48 8.29 8.76
8/31/2021 5:30:00 PM 22 71.6 0.115 7.46 9.91 8.7
8/31/2021 5:45:00 PM 21.92 71.456 0.115 7.43 10.51 8.65
8/31/2021 6:00:00 PM 21.85 71.33 0.115 7.42 9.88 8.6
8/31/2021 6:15:00 PM 21.74 71.132 0.115 7.41 8.75 8.55
8/31/2021 6:30:00 PM 21.64 70.952 0.115 7.39 7.64 8.49
8/31/2021 6:45:00 PM 21.54 70.772 0.115 7.37 6.38 8.39
8/31/2021 7:00:00 PM 21.44 70.592 0.115 7.32 5.9 8.3
8/31/2021 7:15:00 PM 21.35 70.43 0.115 7.32 5.57 8.21
8/31/2021 7:30:00 PM 21.26 70.268 0.115 7.3 5.31 8.14
8/31/2021 7:45:00 PM 21.18 70.124 0.115 7.28 5.14 8.06
8/31/2021 8:00:00 PM 21.07 69.926 0.115 7.25 5.22 7.98
8/31/2021 8:15:00 PM 20.99 69.782 0.116 7.24 5.51 7.92
8/31/2021 8:30:00 PM 20.9 69.62 0.116 7.22 5.76 7.86
8/31/2021 8:45:00 PM 20.81 69.458 0.116 7.21 5.42 7.85
8/31/2021 9:00:00 PM 20.73 69.314 0.116 7.2 5.23 7.81
8/31/2021 9:15:00 PM 20.65 69.17 0.116 7.18 5.49 7.81
8/31/2021 9:30:00 PM 20.58 69.044 0.116 7.17 5.48 7.8
8/31/2021 9:45:00 PM 20.51 68.918 0.116 7.18 7.54 7.8
8/31/2021 10:00:00 PM 20.44 68.792 0.116 7.17 5.27 7.81
8/31/2021 10:15:00 PM 20.38 68.684 0.116 7.18 5.38 7.85
8/31/2021 10:30:00 PM 20.32 68.576 0.116 7.18 5.33 7.84
8/31/2021 10:45:00 PM 20.27 68.486 0.116 7.17 5.21 7.85
8/31/2021 11:00:00 PM 20.22 68.396 0.116 7.17 5.41 7.85
8/31/2021 11:15:00 PM 20.16 68.288 0.116 7.17 5.54 7.87
8/31/2021 11:30:00 PM 20.12 68.216 0.117 7.14 5.59 7.86
8/31/2021 11:45:00 PM 20.06 68.108 0.117 7.15 5.39 7.88
9/1/2021 12:00:00 AM 20.02 68.036 0.117 7.16 5.72 7.85
9/1/2021 12:15:00 AM 19.97 67.946 0.117 7.16 5.3 7.91
9/1/2021 12:30:00 AM 19.93 67.874 0.117 7.15 5.1 7.92
9/1/2021 12:45:00 AM 19.88 67.784 0.117 7.16 5.49 7.92
9/1/2021 1:00:00 AM 19.84 67.712 0.117 7.16 5.57 7.93
9/1/2021 1:15:00 AM 19.81 67.658 0.117 7.15 5.62 7.91
9/1/2021 1:30:00 AM 19.76 67.568 0.117 7.14 6.03 7.94
9/1/2021 1:45:00 AM 19.73 67.514 0.117 7.14 5.78 7.94
9/1/2021 2:00:00 AM 19.68 67.424 0.117 7.15 5.7 7.97
9/1/2021 2:15:00 AM 19.64 67.352 0.117 7.15 5.56 7.97
9/1/2021 2:30:00 AM 19.6 67.28 0.117 7.15 5.71 7.94
9/1/2021 2:45:00 AM 19.56 67.208 0.117 7.15 5.99 7.98
9/1/2021 3:00:00 AM 19.52 67.136 0.117 7.15 5.67 7.98
9/1/2021 3:15:00 AM 19.48 67.064 0.117 7.15 6.12 7.99
9/1/2021 3:30:00 AM 19.45 67.01 0.117 7.14 5.41 7.97
9/1/2021 3:45:00 AM 19.41 66.938 0.117 7.14 5.86 8.02
9/1/2021 4:00:00 AM 19.38 66.884 0.117 7.15 5.88 8.01
9/1/2021 4:15:00 AM 19.35 66.83 0.118 7.15 5.67 8.02
9/1/2021 4:30:00 AM 19.32 66.776 0.118 7.15 5.74 8
9/1/2021 4:45:00 AM 19.29 66.722 0.118 7.15 5.66 8.03
9/1/2021 5:00:00 AM 19.26 66.668 0.118 7.15 5.82 8.04
9/1/2021 5:15:00 AM 19.24 66.632 0.118 7.15 9.87 8.03
9/1/2021 5:30:00 AM 19.21 66.578 0.118 7.15 8.04 8.05
9/1/2021 5:45:00 AM 19.19 66.542 0.118 7.15 7.15 8.04
9/1/2021 6:00:00 AM 19.16 66.488 0.118 7.14 6.23 8.05
9/1/2021 6:15:00 AM 19.13 66.434 0.118 7.15 7.21 8.07
9/1/2021 6:30:00 AM 19.11 66.398 0.118 7.13 10.57 8.06
9/1/2021 6:45:00 AM 19.08 66.344 0.118 7.15 5.75 8.08
9/1/2021 7:00:00 AM 19.06 66.308 0.118 7.15 5.93 8.1
9/1/2021 7:15:00 AM 19.03 66.254 0.118 7.15 6 8.1
9/1/2021 7:30:00 AM 19.01 66.218 0.118 7.14 5.82 8.14
9/1/2021 7:45:00 AM 18.99 66.182 0.118 7.15 5.6 8.14
9/1/2021 8:00:00 AM 18.97 66.146 0.118 7.16 5.41 8.18
9/1/2021 8:15:00 AM 18.94 66.092 0.118 7.17 5.17 8.22
9/1/2021 8:30:00 AM 18.93 66.074 0.118 7.17 5.07 8.24
9/1/2021 8:45:00 AM 18.91 66.038 0.118 7.17 5.28 8.29
9/1/2021 9:00:00 AM 18.9 66.02 0.118 7.2 5.28 8.36
9/1/2021 9:15:00 AM 18.89 66.002 0.117 7.2 5.85 8.38
9/1/2021 9:30:00 AM 18.88 65.984 0.117 7.2 5.71 8.42
9/1/2021 9:45:00 AM 18.87 65.966 0.117 7.23 5.21 8.55
9/1/2021 10:00:00 AM 18.88 65.984 0.117 7.22 5.18 8.58
9/1/2021 10:15:00 AM 18.88 65.984 0.116 7.26 5.27 8.69
9/1/2021 10:30:00 AM 18.9 66.02 0.116 7.28 4.99 8.82
9/1/2021 10:45:00 AM 18.92 66.056 0.116 7.3 5.14 8.91
9/1/2021 11:00:00 AM 18.94 66.092 0.116 7.3 5.12 8.99
9/1/2021 11:15:00 AM 18.95 66.11 0.116 7.34 5.47 9.03
9/1/2021 11:30:00 AM 18.96 66.128 0.116 7.35 5.74 9
9/1/2021 11:45:00 AM 18.96 66.128 0.116 7.35 5.53 8.98
9/1/2021 12:00:00 PM 18.96 66.128 0.115 7.35 5.77 8.95
9/1/2021 12:15:00 PM 18.97 66.146 0.115 7.37 6.82 8.96
9/1/2021 12:30:00 PM 18.99 66.182 0.115 7.39 6.62 9.04
9/1/2021 12:45:00 PM 19 66.2 0.115 7.4 16.37 9.08
9/1/2021 1:00:00 PM 19.01 66.218 0.115 7.42 10.62 9.05
9/1/2021 1:15:00 PM 19.01 66.218 0.115 7.41 15.33 8.99
9/1/2021 1:30:00 PM 19 66.2 0.115 7.4 14.34 8.95
9/1/2021 1:45:00 PM 18.99 66.182 0.115 7.42 12.86 8.97
9/1/2021 2:00:00 PM 18.98 66.164 0.115 7.4 11.32 8.98
9/1/2021 2:15:00 PM 18.97 66.146 0.115 7.42 9.7 8.98
9/1/2021 2:30:00 PM 18.96 66.128 0.115 7.42 9.48 8.94
9/1/2021 2:45:00 PM 18.94 66.092 0.115 7.4 10.46 8.91
9/1/2021 3:00:00 PM 18.93 66.074 0.115 7.41 10.17 8.89
9/1/2021 3:15:00 PM 18.91 66.038 0.115 7.41 11.05 8.86
9/1/2021 3:30:00 PM 18.89 66.002 0.115 7.4 11.78 8.82
9/1/2021 3:45:00 PM 18.87 65.966 0.115 7.39 12.13 8.79
9/1/2021 4:00:00 PM 18.85 65.93 0.115 7.39 11.78 8.78
9/1/2021 4:15:00 PM 18.83 65.894 0.115 7.38 14.48 8.77
9/1/2021 4:30:00 PM 18.8 65.84 0.115 7.38 14.1 8.74
9/1/2021 4:45:00 PM 18.77 65.786 0.115 7.38 14.52 8.72
9/1/2021 5:00:00 PM 18.74 65.732 0.116 7.37 15.36 8.7
9/1/2021 5:15:00 PM 18.7 65.66 0.116 7.38 15.99 8.68
9/1/2021 5:30:00 PM 18.67 65.606 0.116 7.36 17.1 8.67
9/1/2021 5:45:00 PM 18.63 65.534 0.116 7.36 19.45 8.65
9/1/2021 6:00:00 PM 18.59 65.462 0.115 7.36 22.22 8.64
9/1/2021 6:15:00 PM 18.55 65.39 0.114 7.35 22.58 8.65
9/1/2021 6:30:00 PM 18.5 65.3 0.113 7.34 25.66 8.65
9/1/2021 6:45:00 PM 18.46 65.228 0.113 7.34 32.22 8.67
9/1/2021 7:00:00 PM 18.42 65.156 0.112 7.34 35.58 8.68
9/1/2021 7:15:00 PM 18.37 65.066 0.112 7.34 49.52 8.68
9/1/2021 7:30:00 PM 18.32 64.976 0.111 7.34 44.53 8.7
9/1/2021 7:45:00 PM 18.27 64.886 0.11 7.33 60.12 8.74
9/1/2021 8:00:00 PM 18.22 64.796 0.109 7.27 70.65 8.76
9/1/2021 8:15:00 PM 18.17 64.706 0.107 7.29 52.94 8.78
9/1/2021 8:30:00 PM 18.11 64.598 0.105 7.31 107.02 8.82
9/1/2021 8:45:00 PM 18.06 64.508 0.102 7.3 104.07 8.84
9/1/2021 9:00:00 PM 18.01 64.418 0.1 7.31 228.47 8.86
9/1/2021 9:15:00 PM 17.98 64.364 0.098 7.3 93.28 8.88
9/1/2021 9:30:00 PM 17.95 64.31 0.096 7.29 106.59 8.9
9/1/2021 9:45:00 PM 17.92 64.256 0.095 7.26 82.07 8.9
9/1/2021 10:00:00 PM 17.9 64.22 0.093 7.28 98.01 8.91
9/1/2021 10:15:00 PM 17.88 64.184 0.092 7.29 69.02 8.92
9/1/2021 10:30:00 PM 17.85 64.13 0.091 7.29 74.58 8.93
9/1/2021 10:45:00 PM 17.82 64.076 0.089 7.29 63.07 8.93
9/1/2021 11:00:00 PM 17.8 64.04 0.089 7.27 64.68 8.93
9/1/2021 11:15:00 PM 17.77 63.986 0.088 7.28 53.99 8.94
9/1/2021 11:30:00 PM 17.74 63.932 0.087 7.3 53.55 8.94
9/1/2021 11:45:00 PM 17.71 63.878 0.087 7.3 43.18 8.94
9/2/2021 12:00:00 AM 17.68 63.824 0.087 7.31 39.69 8.94
9/2/2021 12:15:00 AM 17.65 63.77 0.087 7.31 44.28 8.95
9/2/2021 12:30:00 AM 17.62 63.716 0.087 7.31 37.02 8.94
9/2/2021 12:45:00 AM 17.6 63.68 0.087 7.32 33 8.95
9/2/2021 1:00:00 AM 17.57 63.626 0.087 7.31 36.69 8.95
9/2/2021 1:15:00 AM 17.53 63.554 0.088 7.31 29.13 8.96
9/2/2021 1:30:00 AM 17.49 63.482 0.088 7.31 30.26 8.95
9/2/2021 1:45:00 AM 17.45 63.41 0.088 7.3 28.6 8.96
9/2/2021 2:00:00 AM 17.41 63.338 0.089 7.3 29.22 8.97
9/2/2021 2:15:00 AM 17.37 63.266 0.089 7.3 20.17 8.97
9/2/2021 2:30:00 AM 17.33 63.194 0.09 7.3 23.56 8.97
9/2/2021 2:45:00 AM 17.28 63.104 0.09 7.29 25.71 8.97
9/2/2021 3:00:00 AM 17.22 62.996 0.091 7.3 22.62 8.97
9/2/2021 3:15:00 AM 17.17 62.906 0.091 7.29 21.97 8.98
9/2/2021 3:30:00 AM 17.11 62.798 0.092 7.29 20.95 8.99
9/2/2021 3:45:00 AM 17.05 62.69 0.093 7.28 20.26 9
9/2/2021 4:00:00 AM 17 62.6 0.093 7.28 19.95 9.01
9/2/2021 4:15:00 AM 16.94 62.492 0.094 7.27 19.18 9.02
9/2/2021 4:30:00 AM 16.87 62.366 0.094 7.28 17.96 9.04
9/2/2021 4:45:00 AM 16.81 62.258 0.095 7.27 17.83 9.04
9/2/2021 5:00:00 AM 16.74 62.132 0.095 7.26 17.24 9.06
9/2/2021 5:15:00 AM 16.68 62.024 0.096 7.27 17.23 9.07
9/2/2021 5:30:00 AM 16.62 61.916 0.096 7.26 17.36 9.08
9/2/2021 5:45:00 AM 16.56 61.808 0.097 7.26 17.47 9.09
9/2/2021 6:00:00 AM 16.5 61.7 0.098 7.26 15.14 9.1
9/2/2021 6:15:00 AM 16.44 61.592 0.098 7.24 15.1 9.11
9/2/2021 6:30:00 AM 16.37 61.466 0.098 7.26 14.78 9.12
9/2/2021 6:45:00 AM 16.31 61.358 0.099 7.25 14.02 9.15
9/2/2021 7:00:00 AM 16.25 61.25 0.099 7.25 13.37 9.16
9/2/2021 7:15:00 AM 16.2 61.16 0.1 7.25 13.37 9.18
9/2/2021 7:30:00 AM 16.15 61.07 0.1 7.26 13.15 9.2
9/2/2021 7:45:00 AM 16.11 60.998 0.101 7.26 12.57 9.2
9/2/2021 8:00:00 AM 16.07 60.926 0.101 7.27 12.56 9.24
9/2/2021 8:15:00 AM 16.04 60.872 0.102 7.27 11.63 9.26
9/2/2021 8:30:00 AM 16.01 60.818 0.102 7.28 11.26 9.28
9/2/2021 8:45:00 AM 16.01 60.818 0.102 7.28 10.4 9.33
9/2/2021 9:00:00 AM 16.03 60.854 0.103 7.3 10.81 9.34
9/2/2021 9:15:00 AM 16.06 60.908 0.103 7.32 10.09 9.38
9/2/2021 9:30:00 AM 16.1 60.98 0.103 7.33 9.59 9.39
9/2/2021 9:45:00 AM 16.16 61.088 0.104 7.34 9.89 9.42
9/2/2021 10:00:00 AM 16.24 61.232 0.104 7.35 9.58 9.45
9/2/2021 10:15:00 AM 16.32 61.376 0.104 7.37